Provisional Data: West Branch Susquehanna River near Milton, PA


Please select a monitoring station.
Please select start date.
Please select start date.

Toggle Unit: C/F Toggle Unit: C/F
Sample Time Temperature (C) Temperature (F) Specific Conductivity (mS/cm) pH   Turbidity (NTU+) DO (mg/L)
10/17/2022 12:00:00 AM 13.3 55.94 0.165 8.2 2.31 12.17
10/17/2022 12:15:00 AM 13.26 55.868 0.166 8.15 2.28 12.06
10/17/2022 12:30:00 AM 13.22 55.796 0.166 8.11 2.36 12.01
10/17/2022 12:45:00 AM 13.18 55.724 0.167 8.08 2.38 11.52
10/17/2022 1:00:00 AM 13.14 55.652 0.167 8.04 2.31 11.46
10/17/2022 1:15:00 AM 13.61 56.498 0.172 7.85 3.39 11.61
10/17/2022 1:30:00 AM 13.59 56.462 0.168 7.76 5.6 11.5
10/17/2022 1:45:00 AM 13.13 55.634 0.168 7.87 7 11.67
10/17/2022 2:00:00 AM 13.01 55.418 0.168 7.93 2.89 11.7
10/17/2022 2:15:00 AM 12.97 55.346 0.169 7.92 2.42 11.64
10/17/2022 2:30:00 AM 12.93 55.274 0.17 7.91 2.21 11.55
10/17/2022 2:45:00 AM 12.89 55.202 0.17 7.9 2.35 11.52
10/17/2022 3:00:00 AM 12.85 55.13 0.171 7.89 2.46 11.47
10/17/2022 3:15:00 AM 12.82 55.076 0.171 7.88 2.34 11.45
10/17/2022 3:30:00 AM 12.79 55.022 0.171 7.87 2.35 11.4
10/17/2022 3:45:00 AM 12.76 54.968 0.171 7.86 2.36 11.29
10/17/2022 4:00:00 AM 12.73 54.914 0.172 7.85 2.35 11.25
10/17/2022 4:15:00 AM 12.71 54.878 0.173 7.84 2.08 11.25
10/17/2022 4:30:00 AM 12.69 54.842 0.173 7.83 2.22 11.23
10/17/2022 4:45:00 AM 12.67 54.806 0.173 7.83 2.31 11.19
10/17/2022 5:00:00 AM 12.65 54.77 0.173 7.82 2.27 11.21
10/17/2022 5:15:00 AM 12.64 54.752 0.173 7.81 2.41 11.24
10/17/2022 5:30:00 AM 12.62 54.716 0.173 7.81 2.32 11.23
10/17/2022 5:45:00 AM 12.61 54.698 0.174 7.81 2.36 11.11
10/17/2022 6:00:00 AM 12.61 54.698 0.174 7.81 2.54 11.07
10/17/2022 6:15:00 AM 12.61 54.698 0.174 7.81 2.31 11.06
10/17/2022 6:30:00 AM 12.6 54.68 0.174 7.81 2.38 11.01
10/17/2022 6:45:00 AM 12.6 54.68 0.174 7.81 2.52 11.08
10/17/2022 7:00:00 AM 12.6 54.68 0.174 7.8 2.21 10.98
10/17/2022 7:15:00 AM 12.6 54.68 0.175 7.8 2.37 10.98
10/17/2022 7:30:00 AM 12.6 54.68 0.175 7.8 2.42 11.04
10/17/2022 7:45:00 AM 12.6 54.68 0.175 7.81 2.32 10.98
10/17/2022 8:00:00 AM 12.61 54.698 0.175 7.81 2.39 10.99
10/17/2022 8:15:00 AM 12.61 54.698 0.176 7.81 2.26 10.99
10/17/2022 8:30:00 AM 12.62 54.716 0.176 7.81 2.4 10.99
10/17/2022 8:45:00 AM 12.62 54.716 0.176 7.81 2.23 11.08
10/17/2022 9:00:00 AM 12.63 54.734 0.176 7.82 2.27 11.04
10/17/2022 9:15:00 AM 13.11 55.598 0.176 7.73 9.9 11.5
10/17/2022 9:30:00 AM 12.88 55.184 0.176 7.74 13.15 11.47
10/17/2022 9:45:00 AM 12.7 54.86 0.177 7.83 2.35 11.24
10/17/2022 10:00:00 AM 12.73 54.914 0.177 7.87 2.46 11.26
10/17/2022 10:15:00 AM 12.74 54.932 0.177 7.9 2.27 11.45
10/17/2022 10:30:00 AM 12.77 54.986 0.177 7.92 2.49 11.38
10/17/2022 10:45:00 AM 12.81 55.058 0.177 7.95 2.32 11.47
10/17/2022 11:00:00 AM 12.84 55.112 0.177 7.97 2.12 11.56
10/17/2022 11:15:00 AM 12.89 55.202 0.177 8.02 2.59 11.67
10/17/2022 11:30:00 AM 12.92 55.256 0.177 8.04 2.16 11.72
10/17/2022 11:45:00 AM 12.94 55.292 0.177 8.06 2.17 11.74
10/17/2022 12:00:00 PM 13 55.4 0.178 8.09 2.47 11.78
10/17/2022 12:15:00 PM 13.05 55.49 0.178 8.1 3.23 11.82
10/17/2022 12:30:00 PM 13.09 55.562 0.177 8.15 2.17 11.9
10/17/2022 12:45:00 PM 13.12 55.616 0.178 8.18 2.41 11.97
10/17/2022 1:00:00 PM 13.17 55.706 0.178 8.19 3.23 11.98
10/17/2022 1:15:00 PM 13.19 55.742 0.178 8.22 2.12 12.05
10/17/2022 1:30:00 PM 13.21 55.778 0.178 8.27 2.28 12.13
10/17/2022 1:45:00 PM 13.25 55.85 0.178 8.3 2.32 12.16
10/17/2022 2:00:00 PM 13.29 55.922 0.178 8.34 2.55 12.23
10/17/2022 2:15:00 PM 13.33 55.994 0.178 8.38 2.13 12.34
10/17/2022 2:30:00 PM 13.36 56.048 0.178 8.44 2.13 12.44
10/17/2022 2:45:00 PM 13.39 56.102 0.178 8.5 2.29 12.51
10/17/2022 3:00:00 PM 13.43 56.174 0.178 8.54 2.16 12.53
10/17/2022 3:15:00 PM 13.46 56.228 0.178 8.58 2.31 12.61
10/17/2022 3:30:00 PM 13.49 56.282 0.177 8.62 2.23 12.69
10/17/2022 3:45:00 PM 13.5 56.3 0.177 8.65 2.41 12.75
10/17/2022 4:00:00 PM 13.5 56.3 0.177 8.68 2.19 12.8
10/17/2022 4:15:00 PM 13.49 56.282 0.178 8.7 2.22 12.84
10/17/2022 4:30:00 PM 13.49 56.282 0.178 8.72 2.21 12.88
10/17/2022 4:45:00 PM 13.49 56.282 0.177 8.75 2.51 12.91
10/17/2022 5:00:00 PM 13.49 56.282 0.177 8.77 2.08 12.93
10/17/2022 5:15:00 PM 13.49 56.282 0.177 8.78 2.06 12.96
10/17/2022 5:30:00 PM 13.48 56.264 0.178 8.8 2.44 12.95
10/17/2022 5:45:00 PM 13.47 56.246 0.177 8.8 2.3 12.95
10/17/2022 6:00:00 PM 13.45 56.21 0.177 8.8 2.09 12.95
10/17/2022 6:15:00 PM 13.42 56.156 0.177 8.81 2.18 12.92
10/17/2022 6:30:00 PM 13.38 56.084 0.177 8.8 2.2 12.88
10/17/2022 6:45:00 PM 13.35 56.03 0.177 8.8 2.1 12.85
10/17/2022 7:00:00 PM 13.4 56.12 0.178 8.75 2.52 12.74
10/17/2022 7:15:00 PM 13.42 56.156 0.181 7.98 2.05 11.78
10/17/2022 7:30:00 PM 13.3 55.94 0.178 8.09 2.34 12.02
10/17/2022 7:45:00 PM 13.21 55.778 0.178 8.66 2.44 12.6
10/17/2022 8:00:00 PM 13.17 55.706 0.178 8.71 2.11 12.64
10/17/2022 8:15:00 PM 13.13 55.634 0.179 8.68 2.45 12.57
10/17/2022 8:30:00 PM 13.09 55.562 0.179 8.69 2.13 12.57
10/17/2022 8:45:00 PM 13.04 55.472 0.179 8.69 3.04 12.54
10/17/2022 9:00:00 PM 13 55.4 0.179 8.67 2.14 12.51
10/17/2022 9:15:00 PM 12.96 55.328 0.179 8.66 2.15 12.46
10/17/2022 9:30:00 PM 12.92 55.256 0.178 8.64 2.15 12.42
10/17/2022 9:45:00 PM 12.87 55.166 0.178 8.63 2.12 12.37
10/17/2022 10:00:00 PM 12.82 55.076 0.178 8.6 2.87 12.33
10/17/2022 10:15:00 PM 12.77 54.986 0.179 8.57 2.06 12.26
10/17/2022 10:30:00 PM 12.72 54.896 0.179 8.53 2.23 12.2
10/17/2022 10:45:00 PM 12.66 54.788 0.18 8.48 2.14 12.13
10/17/2022 11:00:00 PM 12.61 54.698 0.181 8.43 2.08 12.04
10/17/2022 11:15:00 PM 12.56 54.608 0.181 8.38 2.11 11.97
10/17/2022 11:30:00 PM 12.51 54.518 0.182 8.33 2.07 11.89
10/17/2022 11:45:00 PM 12.46 54.428 0.182 8.29 2.47 11.81
10/18/2022 12:00:00 AM 12.41 54.338 0.182 8.24 2.2 11.74
10/18/2022 12:15:00 AM 12.37 54.266 0.182 8.19 2.12 11.66
10/18/2022 12:30:00 AM 12.32 54.176 0.182 8.15 2.08 11.6
10/18/2022 12:45:00 AM 12.27 54.086 0.182 8.11 2.12 11.53
10/18/2022 1:00:00 AM 13.06 55.508 0.186 7.87 4.57 11.68
10/18/2022 1:15:00 AM 12.89 55.202 0.184 7.83 9.89 11.52
10/18/2022 1:30:00 AM 12.14 53.852 0.182 7.97 2.23 11.65
10/18/2022 1:45:00 AM 12.09 53.762 0.183 7.98 2.27 11.3
10/18/2022 2:00:00 AM 12.05 53.69 0.184 7.98 2.06 11.25
10/18/2022 2:15:00 AM 12.01 53.618 0.183 7.96 2.17 11.23
10/18/2022 2:30:00 AM 11.97 53.546 0.184 7.95 2.08 11.3
10/18/2022 2:45:00 AM 11.94 53.492 0.183 7.94 2.08 11.27
10/18/2022 3:00:00 AM 11.91 53.438 0.184 7.92 2.17 11.24
10/18/2022 3:15:00 AM 11.87 53.366 0.184 7.91 2.16 11.22
10/18/2022 3:30:00 AM 11.84 53.312 0.184 7.9 4.84 11.24
10/18/2022 3:45:00 AM 11.8 53.24 0.184 7.89 2.03 11.22
10/18/2022 4:00:00 AM 11.77 53.186 0.184 7.87 2.12 11.21
10/18/2022 4:15:00 AM 11.73 53.114 0.184 7.86 2.13 11.14
10/18/2022 4:30:00 AM 11.71 53.078 0.184 7.86 2.11 11.13
10/18/2022 4:45:00 AM 11.69 53.042 0.184 7.85 2.03 11.1
10/18/2022 5:00:00 AM 11.66 52.988 0.184 7.84 2.01 11.1
10/18/2022 5:15:00 AM 11.63 52.934 0.184 7.84 2.01 11.07
10/18/2022 5:30:00 AM 11.61 52.898 0.184 7.83 1.94 11.05
10/18/2022 5:45:00 AM 11.57 52.826 0.184 7.83 2.01 11.03
10/18/2022 6:00:00 AM 11.53 52.754 0.184 7.82 2.1 11.03
10/18/2022 6:15:00 AM 11.5 52.7 0.184 7.82 2.14 11.03
10/18/2022 6:30:00 AM 11.48 52.664 0.184 7.82 2.01 11.04
10/18/2022 6:45:00 AM 11.45 52.61 0.185 7.82 2.01 11.03
10/18/2022 7:00:00 AM 11.43 52.574 0.185 7.82 2.04 11.03
10/18/2022 7:15:00 AM 11.41 52.538 0.185 7.82 2.07 11.04
10/18/2022 7:30:00 AM 11.39 52.502 0.185 7.82 1.94 11.06
10/18/2022 7:45:00 AM 11.36 52.448 0.185 7.83 2.09 11.1
10/18/2022 8:00:00 AM 11.34 52.412 0.185 7.83 2.02 11.15
10/18/2022 8:15:00 AM 11.33 52.394 0.185 7.85 2.05 11.21
10/18/2022 8:30:00 AM 11.33 52.394 0.185 7.87 2.05 11.28
10/18/2022 8:45:00 AM 11.32 52.376 0.185 7.89 2.06 11.38
10/18/2022 9:00:00 AM 11.31 52.358 0.185 7.91 2.06 11.45
10/18/2022 9:15:00 AM 11.29 52.322 0.185 7.94 2.09 11.55
10/18/2022 9:30:00 AM 11.29 52.322 0.185 7.96 2.04 11.61
10/18/2022 9:45:00 AM 11.3 52.34 0.185 7.99 2.03 11.69
10/18/2022 10:00:00 AM 11.33 52.394 0.186 8.02 2.08 11.78
10/18/2022 10:15:00 AM 11.36 52.448 0.186 8.06 2.1 11.87
10/18/2022 10:30:00 AM 11.41 52.538 0.186 8.09 2.19 11.96
10/18/2022 10:45:00 AM 11.46 52.628 0.187 8.12 2.08 12.03
10/18/2022 11:00:00 AM 12.54 54.572 0.189 7.83 1.88 11.68
10/18/2022 11:15:00 AM 12.32 54.176 0.188 7.81 8.12 11.69
10/18/2022 11:30:00 AM 11.51 52.718 0.187 8.1 10.15 12.26
10/18/2022 11:45:00 AM 11.47 52.646 0.187 8.18 6.08 12.48
10/18/2022 12:00:00 PM 11.48 52.664 0.188 8.23 2.09 12.3
10/18/2022 12:15:00 PM 11.49 52.682 0.187 8.26 2.17 12.34
10/18/2022 12:30:00 PM 11.51 52.718 0.188 8.29 3.11 12.42
10/18/2022 12:45:00 PM 11.52 52.736 0.188 8.32 2.31 12.48
10/18/2022 1:00:00 PM 11.55 52.79 0.188 8.37 2.03 12.54
10/18/2022 1:15:00 PM 11.57 52.826 0.189 8.44 2.09 12.63
10/18/2022 1:30:00 PM 11.59 52.862 0.188 8.49 2.06 12.65
10/18/2022 1:45:00 PM 11.6 52.88 0.188 8.51 2.29 12.57
10/18/2022 2:00:00 PM 11.62 52.916 0.188 8.56 1.98 12.77
10/18/2022 2:15:00 PM 11.63 52.934 0.188 8.6 2.31 12.84
10/18/2022 2:30:00 PM 11.65 52.97 0.187 8.64 2.06 12.94
10/18/2022 2:45:00 PM 11.64 52.952 0.186 8.67 2.06 12.96
10/18/2022 3:00:00 PM 11.62 52.916 0.186 8.69 2.57 13.02
10/18/2022 3:15:00 PM 11.63 52.934 0.186 8.71 2.5 13.06
10/18/2022 3:30:00 PM 11.68 53.024 0.186 8.74 2.26 13.12
10/18/2022 3:45:00 PM 11.7 53.06 0.186 8.78 2.3 13.21
10/18/2022 4:00:00 PM 11.73 53.114 0.186 8.82 2.37 13.28
10/18/2022 4:15:00 PM 11.71 53.078 0.186 8.86 2.32 13.32
10/18/2022 4:30:00 PM 11.68 53.024 0.186 8.86 2.9 13.32
10/18/2022 4:45:00 PM 11.67 53.006 0.185 8.87 2.33 13.25
10/18/2022 5:00:00 PM 11.68 53.024 0.185 8.88 2.3 13.31
10/18/2022 5:15:00 PM 11.68 53.024 0.185 8.87 2.36 13.3
10/18/2022 5:30:00 PM 11.69 53.042 0.186 8.88 2.25 13.16
10/18/2022 5:45:00 PM 11.69 53.042 0.186 8.88 2.12 13.26
10/18/2022 6:00:00 PM 11.69 53.042 0.186 8.88 2.32 13.22
10/18/2022 6:15:00 PM 11.68 53.024 0.187 8.86 2.24 13.17
10/18/2022 6:30:00 PM 11.94 53.492 0.188 8.78 4.62 12.93
10/18/2022 6:45:00 PM 12.04 53.672 0.19 8.13 2.51 12.15
10/18/2022 7:00:00 PM 11.72 53.096 0.187 8.52 2.12 12.84
10/18/2022 7:15:00 PM 11.66 52.988 0.187 8.82 2.19 13.07
10/18/2022 7:30:00 PM 11.64 52.952 0.187 8.85 2.34 13.1
10/18/2022 7:45:00 PM 11.62 52.916 0.187 8.85 2.83 13.07
10/18/2022 8:00:00 PM 11.6 52.88 0.187 8.84 2.2 13.03
10/18/2022 8:15:00 PM 11.58 52.844 0.187 8.82 2.17 12.98
10/18/2022 8:30:00 PM 11.55 52.79 0.187 8.81 2.3 12.8
10/18/2022 8:45:00 PM 11.52 52.736 0.187 8.79 2.19 12.89
10/18/2022 9:00:00 PM 11.49 52.682 0.187 8.77 2.11 12.84
10/18/2022 9:15:00 PM 11.46 52.628 0.187 8.75 2.1 12.77
10/18/2022 9:30:00 PM 11.42 52.556 0.187 8.73 1.99 12.73
10/18/2022 9:45:00 PM 11.39 52.502 0.187 8.71 2.08 12.7
10/18/2022 10:00:00 PM 11.36 52.448 0.187 8.7 1.95 12.65
10/18/2022 10:15:00 PM 11.32 52.376 0.188 8.67 1.92 12.62
10/18/2022 10:30:00 PM 11.28 52.304 0.187 8.66 1.96 12.58
10/18/2022 10:45:00 PM 11.24 52.232 0.188 8.63 2 12.52
10/18/2022 11:00:00 PM 11.21 52.178 0.188 8.59 2.09 12.46
10/18/2022 11:15:00 PM 11.17 52.106 0.188 8.56 2.03 12.4
10/18/2022 11:30:00 PM 11.13 52.034 0.188 8.51 2.15 12.34
10/18/2022 11:45:00 PM 11.09 51.962 0.188 8.46 2.04 12.24
10/19/2022 12:00:00 AM 11.05 51.89 0.188 8.42 2.13 12.17
10/19/2022 12:15:00 AM 11.01 51.818 0.187 8.36 1.98 12.11
10/19/2022 12:30:00 AM 10.97 51.746 0.187 8.31 2.11 12.02
10/19/2022 12:45:00 AM 11.56 52.808 0.194 8.01 2.14 12.01
10/19/2022 1:00:00 AM 11.39 52.502 0.191 7.95 1.92 11.89
10/19/2022 1:15:00 AM 10.88 51.584 0.188 8.11 2.09 11.84
10/19/2022 1:30:00 AM 10.81 51.458 0.188 8.12 2.03 11.78
10/19/2022 1:45:00 AM 10.78 51.404 0.188 8.11 1.97 11.75
10/19/2022 2:00:00 AM 10.75 51.35 0.188 8.09 2.03 11.77
10/19/2022 2:15:00 AM 10.72 51.296 0.188 8.07 1.94 11.72
10/19/2022 2:30:00 AM 10.7 51.26 0.188 8.04 1.96 11.63
10/19/2022 2:45:00 AM 10.67 51.206 0.188 8.03 2.07 11.6
10/19/2022 3:00:00 AM 10.64 51.152 0.188 8.01 1.96 11.58
10/19/2022 3:15:00 AM 10.6 51.08 0.188 7.99 1.94 11.57
10/19/2022 3:30:00 AM 10.57 51.026 0.188 7.98 2.01 11.55
10/19/2022 3:45:00 AM 10.54 50.972 0.188 7.96 1.99 11.52
10/19/2022 4:00:00 AM 10.52 50.936 0.188 7.95 1.91 11.52
10/19/2022 4:15:00 AM 10.5 50.9 0.188 7.94 1.94 11.48
10/19/2022 4:30:00 AM 10.48 50.864 0.188 7.93 1.87 11.45
10/19/2022 4:45:00 AM 10.47 50.846 0.188 7.92 1.91 11.45
10/19/2022 5:00:00 AM 10.45 50.81 0.188 7.91 2 11.44
10/19/2022 5:15:00 AM 10.43 50.774 0.188 7.9 1.94 11.41
10/19/2022 5:30:00 AM 10.4 50.72 0.188 7.89 1.9 11.4
10/19/2022 5:45:00 AM 10.38 50.684 0.188 7.88 2.06 11.38
10/19/2022 6:00:00 AM 10.36 50.648 0.188 7.88 1.98 11.36
10/19/2022 6:15:00 AM 10.33 50.594 0.189 7.87 1.98 11.35
10/19/2022 6:30:00 AM 10.31 50.558 0.189 7.87 1.93 11.34
10/19/2022 6:45:00 AM 10.28 50.504 0.189 7.86 1.96 11.35
10/19/2022 7:00:00 AM 10.25 50.45 0.189 7.86 1.92 11.36
10/19/2022 7:15:00 AM 10.24 50.432 0.189 7.86 1.93 11.37
10/19/2022 7:30:00 AM 10.23 50.414 0.19 7.87 1.97 11.4
10/19/2022 7:45:00 AM 10.22 50.396 0.19 7.88 1.95 11.45
10/19/2022 8:00:00 AM 10.22 50.396 0.191 7.89 1.96 11.52
10/19/2022 8:15:00 AM 10.22 50.396 0.192 7.9 2.06 11.58
10/19/2022 8:30:00 AM 10.22 50.396 0.192 7.92 2.01 11.65
10/19/2022 8:45:00 AM 10.22 50.396 0.192 7.94 1.94 11.74
10/19/2022 9:00:00 AM 10.24 50.432 0.192 7.97 2.02 11.81
10/19/2022 9:15:00 AM 10.26 50.468 0.192 8 2.04 11.9
10/19/2022 9:30:00 AM 10.28 50.504 0.192 8.04 1.98 12
10/19/2022 9:45:00 AM 10.29 50.522 0.193 8.07 1.9 12.09
10/19/2022 10:00:00 AM 10.31 50.558 0.193 8.09 1.94 12.15
10/19/2022 10:15:00 AM 11 51.8 0.197 8 9.99 12.22
10/19/2022 10:30:00 AM 10.97 51.746 0.196 7.86 2.1 12.06
10/19/2022 10:45:00 AM 10.43 50.774 0.193 7.97 16.22 12.33
10/19/2022 11:00:00 AM 10.32 50.576 0.193 8.1 11.2 12.51
10/19/2022 11:15:00 AM 10.31 50.558 0.192 8.15 7.64 12.6
10/19/2022 11:30:00 AM 10.3 50.54 0.192 8.19 2.91 12.71
10/19/2022 11:45:00 AM 10.3 50.54 0.192 8.22 2.44 12.78
10/19/2022 12:00:00 PM 10.32 50.576 0.192 8.24 2.27 12.82
10/19/2022 12:15:00 PM 10.35 50.63 0.191 8.29 2.06 12.88
10/19/2022 12:30:00 PM 10.38 50.684 0.191 8.34 2.04 12.94
10/19/2022 12:45:00 PM 10.4 50.72 0.191 8.38 2.09 12.99
10/19/2022 1:00:00 PM 10.42 50.756 0.192 8.37 1.95 12.87
10/19/2022 1:15:00 PM 10.44 50.792 0.192 8.44 1.99 12.93
10/19/2022 1:30:00 PM 10.45 50.81 0.191 8.52 2.04 12.97
10/19/2022 1:45:00 PM 10.47 50.846 0.191 8.55 2.03 12.99
10/19/2022 2:00:00 PM 10.47 50.846 0.19 8.56 1.92 12.99
10/19/2022 2:15:00 PM 10.48 50.864 0.19 8.55 1.91 12.99
10/19/2022 2:30:00 PM 10.5 50.9 0.191 8.56 1.94 13
10/19/2022 2:45:00 PM 10.53 50.954 0.19 8.58 1.85 13.05
10/19/2022 3:00:00 PM 10.57 51.026 0.19 8.62 1.93 13.15
10/19/2022 3:15:00 PM 10.61 51.098 0.19 8.67 1.89 13.26
10/19/2022 3:30:00 PM 10.66 51.188 0.19 8.71 1.97 13.35
10/19/2022 3:45:00 PM 10.7 51.26 0.19 8.78 1.97 13.42
10/19/2022 4:00:00 PM 10.75 51.35 0.19 8.84 1.96 13.49
10/19/2022 4:15:00 PM 10.78 51.404 0.19 8.86 1.92 13.54
10/19/2022 4:30:00 PM 10.78 51.404 0.189 8.89 1.85 13.61
10/19/2022 4:45:00 PM 10.78 51.404 0.189 8.9 1.95 13.61
10/19/2022 5:00:00 PM 10.78 51.404 0.189 8.93 1.94 13.6
10/19/2022 5:15:00 PM 10.77 51.386 0.189 8.93 1.95 13.57
10/19/2022 5:30:00 PM 10.77 51.386 0.189 8.93 1.85 13.57
10/19/2022 5:45:00 PM 10.76 51.368 0.189 8.93 1.87 13.51
10/19/2022 6:00:00 PM 11.11 51.998 0.2 8.25 2.54 12.42
10/19/2022 6:15:00 PM 10.88 51.584 0.198 8.13 2.02 12.43
10/19/2022 6:30:00 PM 10.76 51.368 0.191 8.71 2.23 13.21
10/19/2022 6:45:00 PM 10.72 51.296 0.189 8.88 1.91 13.33
10/19/2022 7:00:00 PM 10.7 51.26 0.189 8.89 1.93 13.36
10/19/2022 7:15:00 PM 10.68 51.224 0.189 8.89 1.95 13.35
10/19/2022 7:30:00 PM 10.65 51.17 0.189 8.88 1.96 13.29
10/19/2022 7:45:00 PM 10.62 51.116 0.189 8.87 1.98 13.26
10/19/2022 8:00:00 PM 10.58 51.044 0.189 8.86 1.92 13.23
10/19/2022 8:15:00 PM 10.54 50.972 0.19 8.85 1.98 13.19
10/19/2022 8:30:00 PM 10.51 50.918 0.19 8.84 2.01 13.16
10/19/2022 8:45:00 PM 10.48 50.864 0.19 8.81 1.95 13.12
10/19/2022 9:00:00 PM 10.45 50.81 0.189 8.8 2.02 13.08
10/19/2022 9:15:00 PM 10.42 50.756 0.189 8.78 1.96 13.04
10/19/2022 9:30:00 PM 10.38 50.684 0.19 8.76 1.96 13.01
10/19/2022 9:45:00 PM 10.36 50.648 0.19 8.74 2.32 12.97
10/19/2022 10:00:00 PM 10.32 50.576 0.19 8.73 1.82 12.94
10/19/2022 10:15:00 PM 10.3 50.54 0.19 8.71 2.05 12.91
10/19/2022 10:30:00 PM 10.27 50.486 0.19 8.69 1.97 12.87
10/19/2022 10:45:00 PM 10.24 50.432 0.19 8.67 2.03 12.82
10/19/2022 11:00:00 PM 10.22 50.396 0.19 8.63 2.04 12.75
10/19/2022 11:15:00 PM 10.19 50.342 0.19 8.59 1.94 12.69
10/19/2022 11:30:00 PM 10.16 50.288 0.19 8.55 1.92 12.61
10/19/2022 11:45:00 PM 10.13 50.234 0.19 8.5 1.96 12.54
10/20/2022 12:00:00 AM 10.11 50.198 0.19 8.45 1.97 12.47
10/20/2022 12:15:00 AM 10.08 50.144 0.19 8.39 1.89 12.39
10/20/2022 12:30:00 AM 10.05 50.09 0.191 8.34 1.91 12.31
10/20/2022 12:45:00 AM 10.53 50.954 0.199 8.12 6.01 12.32
10/20/2022 1:00:00 AM 10.48 50.864 0.199 7.93 4.97 12.27
10/20/2022 1:15:00 AM 10.01 50.018 0.191 8.14 1.9 12.08
10/20/2022 1:30:00 AM 9.97 49.946 0.191 8.14 1.92 12.03
10/20/2022 1:45:00 AM 9.92 49.856 0.191 8.12 1.99 11.99
10/20/2022 2:00:00 AM 9.89 49.802 0.191 8.1 2.03 11.93
10/20/2022 2:15:00 AM 9.86 49.748 0.191 8.07 1.97 11.88
10/20/2022 2:30:00 AM 9.84 49.712 0.192 8.05 1.96 11.93
10/20/2022 2:45:00 AM 9.8 49.64 0.191 8.02 2.01 11.79
10/20/2022 3:00:00 AM 9.77 49.586 0.191 8 2.3 11.77
10/20/2022 3:15:00 AM 9.74 49.532 0.191 7.98 2 11.75
10/20/2022 3:30:00 AM 9.7 49.46 0.192 7.97 1.96 11.71
10/20/2022 3:45:00 AM 9.67 49.406 0.192 7.96 1.97 11.69
10/20/2022 4:00:00 AM 9.64 49.352 0.192 7.95 1.98 11.68
10/20/2022 4:15:00 AM 9.61 49.298 0.192 7.93 1.93 11.66
10/20/2022 4:30:00 AM 9.59 49.262 0.192 7.92 2.18 11.62
10/20/2022 4:45:00 AM 9.56 49.208 0.192 7.91 1.91 11.61
10/20/2022 5:00:00 AM 9.53 49.154 0.192 7.9 1.97 11.59
10/20/2022 5:15:00 AM 9.5 49.1 0.192 7.89 1.88 11.58
10/20/2022 5:30:00 AM 9.47 49.046 0.192 7.88 2.02 11.63
10/20/2022 5:45:00 AM 9.45 49.01 0.192 7.87 1.92 11.74
10/20/2022 6:00:00 AM 9.43 48.974 0.192 7.86 2.03 11.76
10/20/2022 6:15:00 AM 9.42 48.956 0.192 7.85 1.94 11.52
10/20/2022 6:30:00 AM 9.4 48.92 0.193 7.85 1.94 11.5
10/20/2022 6:45:00 AM 9.39 48.902 0.192 7.84 1.97 11.51
10/20/2022 7:00:00 AM 9.38 48.884 0.193 7.84 1.98 11.51
10/20/2022 7:15:00 AM 9.37 48.866 0.193 7.84 2.1 11.55
10/20/2022 7:30:00 AM 9.36 48.848 0.193 7.85 1.96 11.6
10/20/2022 7:45:00 AM 9.35 48.83 0.193 7.86 1.94 11.65
10/20/2022 8:00:00 AM 9.34 48.812 0.193 7.87 1.96 11.72
10/20/2022 8:15:00 AM 9.34 48.812 0.193 7.88 2.04 11.79
10/20/2022 8:30:00 AM 9.34 48.812 0.193 7.9 1.93 11.88
10/20/2022 8:45:00 AM 9.35 48.83 0.193 7.92 1.97 11.96
10/20/2022 9:00:00 AM 9.35 48.83 0.193 7.94 1.96 12.03
10/20/2022 9:15:00 AM 9.85 49.73 0.199 7.93 4.39 12.34
10/20/2022 9:30:00 AM 10.08 50.144 0.204 7.82 2.07 12.16
10/20/2022 9:45:00 AM 9.57 49.226 0.194 7.9 62.41 12.52
10/20/2022 10:00:00 AM 9.5 49.1 0.194 8.01 48.55 12.65
10/20/2022 10:15:00 AM 9.55 49.19 0.193 8.06 1.93 12.47
10/20/2022 10:30:00 AM 9.61 49.298 0.194 8.1 1.92 12.58
10/20/2022 10:45:00 AM 9.68 49.424 0.194 8.14 1.91 12.61
10/20/2022 11:00:00 AM 9.74 49.532 0.194 8.19 1.91 12.66
10/20/2022 11:15:00 AM 9.81 49.658 0.193 8.23 1.9 12.74
10/20/2022 11:30:00 AM 9.86 49.748 0.194 8.27 1.94 12.8
10/20/2022 11:45:00 AM 9.94 49.892 0.194 8.3 1.9 12.86
10/20/2022 12:00:00 PM 10 50 0.194 8.33 1.95 12.92
10/20/2022 12:15:00 PM 10.07 50.126 0.193 8.37 1.86 12.95
10/20/2022 12:30:00 PM 10.14 50.252 0.193 8.39 1.92 13.01
10/20/2022 12:45:00 PM 10.21 50.378 0.194 8.42 1.89 13.07
10/20/2022 1:00:00 PM 10.29 50.522 0.193 8.47 2.41 13.12
10/20/2022 1:15:00 PM 10.36 50.648 0.193 8.49 1.9 13.15
10/20/2022 1:30:00 PM 10.43 50.774 0.195 8.53 1.88 13.21
10/20/2022 1:45:00 PM 10.5 50.9 0.195 8.56 1.94 13.22
10/20/2022 2:00:00 PM 10.57 51.026 0.194 8.6 1.98 13.29
10/20/2022 2:15:00 PM 10.61 51.098 0.195 8.64 1.9 13.35
10/20/2022 2:30:00 PM 10.66 51.188 0.195 8.67 1.9 13.41
10/20/2022 2:45:00 PM 10.7 51.26 0.195 8.71 1.99 13.47
10/20/2022 3:00:00 PM 10.72 51.296 0.195 8.74 1.83 13.51
10/20/2022 3:15:00 PM 10.75 51.35 0.195 8.76 1.87 13.55
10/20/2022 3:30:00 PM 10.76 51.368 0.195 8.8 2.13 13.6
10/20/2022 3:45:00 PM 10.78 51.404 0.195 8.83 2 13.65
10/20/2022 4:00:00 PM 10.81 51.458 0.195 8.87 1.85 13.7
10/20/2022 4:15:00 PM 10.84 51.512 0.194 8.9 2.01 13.75
10/20/2022 4:30:00 PM 10.86 51.548 0.194 8.93 1.93 13.79
10/20/2022 4:45:00 PM 10.84 51.512 0.203 8.49 7.98 12.83
10/20/2022 5:00:00 PM 10.63 51.134 0.203 8.15 2.49 12.52
10/20/2022 5:15:00 PM 10.86 51.548 0.194 8.88 1.96 13.71
10/20/2022 5:30:00 PM 10.88 51.584 0.194 8.95 1.92 13.75
10/20/2022 5:45:00 PM 10.9 51.62 0.194 8.96 2.16 13.79
10/20/2022 6:00:00 PM 10.91 51.638 0.194 8.97 2.1 13.74
10/20/2022 6:15:00 PM 10.91 51.638 0.195 8.97 1.94 13.78
10/20/2022 6:30:00 PM 10.91 51.638 0.195 8.97 2.05 13.77
10/20/2022 6:45:00 PM 10.91 51.638 0.195 8.97 1.91 13.77
10/20/2022 7:00:00 PM 10.91 51.638 0.195 8.98 1.9 13.72
10/20/2022 7:15:00 PM 10.91 51.638 0.195 8.98 1.98 13.71
10/20/2022 7:30:00 PM 10.91 51.638 0.195 8.98 1.83 13.7
10/20/2022 7:45:00 PM 10.89 51.602 0.195 8.98 1.86 13.57
10/20/2022 8:00:00 PM 10.88 51.584 0.195 8.98 1.86 13.65
10/20/2022 8:15:00 PM 10.88 51.584 0.195 8.97 2.48 13.57
10/20/2022 8:30:00 PM 10.87 51.566 0.195 8.97 1.94 13.57
10/20/2022 8:45:00 PM 10.86 51.548 0.195 8.95 1.85 13.52
10/20/2022 9:00:00 PM 10.85 51.53 0.195 8.94 2.03 13.46
10/20/2022 9:15:00 PM 10.84 51.512 0.195 8.92 2.06 13.42
10/20/2022 9:30:00 PM 10.82 51.476 0.195 8.91 2.3 13.38
10/20/2022 9:45:00 PM 10.81 51.458 0.195 8.89 2.05 13.33
10/20/2022 10:00:00 PM 10.78 51.404 0.195 8.87 2.03 13.28
10/20/2022 10:15:00 PM 10.76 51.368 0.195 8.85 2.12 13.23
10/20/2022 10:30:00 PM 10.72 51.296 0.195 8.84 2.05 13.2
10/20/2022 10:45:00 PM 10.7 51.26 0.196 8.81 1.96 13.14
10/20/2022 11:00:00 PM 10.66 51.188 0.195 8.78 2.57 13.08
10/20/2022 11:15:00 PM 10.63 51.134 0.196 8.75 1.82 13.02
10/20/2022 11:30:00 PM 10.6 51.08 0.196 8.73 1.82 12.97
10/20/2022 11:45:00 PM 10.56 51.008 0.196 8.7 1.84 12.91
10/21/2022 12:00:00 AM 10.53 50.954 0.196 8.66 1.85 12.83
10/21/2022 12:15:00 AM 10.49 50.882 0.196 8.61 1.88 12.76
10/21/2022 12:30:00 AM 10.46 50.828 0.196 8.55 1.9 12.68
10/21/2022 12:45:00 AM 10.42 50.756 0.196 8.5 1.92 12.59
10/21/2022 1:00:00 AM 10.38 50.684 0.196 8.44 1.86 12.5
10/21/2022 1:15:00 AM 10.52 50.936 0.206 8.12 11.5 12.44
10/21/2022 1:30:00 AM 10.56 51.008 0.205 7.98 2.77 12.36
10/21/2022 1:45:00 AM 10.28 50.504 0.197 8.12 6.38 12.49
10/21/2022 2:00:00 AM 10.18 50.324 0.197 8.2 1.97 12.27
10/21/2022 2:15:00 AM 10.14 50.252 0.197 8.17 1.87 12.16
10/21/2022 2:30:00 AM 10.09 50.162 0.197 8.15 1.88 12.11
10/21/2022 2:45:00 AM 10.05 50.09 0.197 8.12 1.97 12.06
10/21/2022 3:00:00 AM 9.99 49.982 0.197 8.1 1.93 12.07
10/21/2022 3:15:00 AM 9.95 49.91 0.197 8.07 1.85 11.99
10/21/2022 3:30:00 AM 9.9 49.82 0.197 8.05 1.87 11.96
10/21/2022 3:45:00 AM 9.85 49.73 0.197 8.03 2.17 11.92
10/21/2022 4:00:00 AM 9.81 49.658 0.197 8.01 1.98 11.9
10/21/2022 4:15:00 AM 9.76 49.568 0.197 8 1.9 11.91
10/21/2022 4:30:00 AM 9.72 49.496 0.197 7.98 1.83 11.87
10/21/2022 4:45:00 AM 9.68 49.424 0.197 7.97 1.85 11.84
10/21/2022 5:00:00 AM 9.65 49.37 0.197 7.96 1.93 11.81
10/21/2022 5:15:00 AM 9.61 49.298 0.197 7.95 1.93 11.82
10/21/2022 5:30:00 AM 9.58 49.244 0.197 7.94 1.93 11.83
10/21/2022 5:45:00 AM 9.55 49.19 0.198 7.93 1.92 11.78
10/21/2022 6:00:00 AM 9.52 49.136 0.198 7.92 1.92 11.74
10/21/2022 6:15:00 AM 9.5 49.1 0.198 7.91 1.9 11.73
10/21/2022 6:30:00 AM 9.48 49.064 0.199 7.9 1.91 11.72
10/21/2022 6:45:00 AM 9.46 49.028 0.199 7.89 1.98 11.72
10/21/2022 7:00:00 AM 9.44 48.992 0.199 7.88 2.03 11.77
10/21/2022 7:15:00 AM 9.43 48.974 0.199 7.88 1.91 11.74
10/21/2022 7:30:00 AM 9.42 48.956 0.2 7.88 1.9 11.78
10/21/2022 7:45:00 AM 9.41 48.938 0.2 7.88 1.89 11.81
10/21/2022 8:00:00 AM 9.41 48.938 0.2 7.89 1.88 11.9
10/21/2022 8:15:00 AM 9.4 48.92 0.2 7.9 1.87 11.93
10/21/2022 8:30:00 AM 9.4 48.92 0.2 7.91 1.94 12.02
10/21/2022 8:45:00 AM 9.41 48.938 0.201 7.93 1.9 12.08
10/21/2022 9:00:00 AM 9.43 48.974 0.2 7.95 1.99 12.12
10/21/2022 9:15:00 AM 9.46 49.028 0.201 7.97 1.86 12.2
10/21/2022 9:30:00 AM 9.5 49.1 0.201 7.99 1.91 12.3
10/21/2022 9:45:00 AM 9.55 49.19 0.201 8 1.86 12.35
10/21/2022 10:00:00 AM 10.17 50.306 0.211 7.93 3.71 12.46
10/21/2022 10:15:00 AM 10.18 50.324 0.21 7.85 2.66 12.28
10/21/2022 10:30:00 AM 9.79 49.622 0.201 7.94 49.15 12.63
10/21/2022 10:45:00 AM 9.84 49.712 0.201 8.05 1.92 12.6
10/21/2022 11:00:00 AM 9.93 49.874 0.201 8.1 1.8 12.66
10/21/2022 11:15:00 AM 10.02 50.036 0.201 8.14 1.9 12.75
10/21/2022 11:30:00 AM 10.12 50.216 0.201 8.2 1.87 12.83
10/21/2022 11:45:00 AM 10.21 50.378 0.202 8.25 1.86 12.87
10/21/2022 12:00:00 PM 10.3 50.54 0.202 8.29 1.91 12.9
10/21/2022 12:15:00 PM 10.39 50.702 0.202 8.34 1.86 12.98
10/21/2022 12:30:00 PM 10.49 50.882 0.202 8.36 1.81 13.05
10/21/2022 12:45:00 PM 10.58 51.044 0.202 8.39 1.8 13.08
10/21/2022 1:00:00 PM 10.68 51.224 0.202 8.44 1.79 13.14
10/21/2022 1:15:00 PM 10.77 51.386 0.202 8.46 1.88 13.21
10/21/2022 1:30:00 PM 10.86 51.548 0.201 8.5 2.07 13.26
10/21/2022 1:45:00 PM 10.95 51.71 0.201 8.52 1.75 13.28
10/21/2022 2:00:00 PM 11.03 51.854 0.202 8.56 1.8 13.35
10/21/2022 2:15:00 PM 11.12 52.016 0.202 8.59 1.86 13.42
10/21/2022 2:30:00 PM 11.19 52.142 0.202 8.63 1.82 13.5
10/21/2022 2:45:00 PM 11.26 52.268 0.202 8.65 1.77 13.55
10/21/2022 3:00:00 PM 11.32 52.376 0.202 8.69 1.79 13.61
10/21/2022 3:15:00 PM 11.37 52.466 0.202 8.72 1.81 13.66
10/21/2022 3:30:00 PM 11.42 52.556 0.202 8.76 1.71 13.69
10/21/2022 3:45:00 PM 11.45 52.61 0.202 8.79 1.81 13.75
10/21/2022 4:00:00 PM 11.48 52.664 0.202 8.82 1.75 13.8
10/21/2022 4:15:00 PM 11.5 52.7 0.202 8.86 1.8 13.86
10/21/2022 4:30:00 PM 11.51 52.718 0.202 8.89 1.83 13.88
10/21/2022 4:45:00 PM 11.08 51.944 0.213 8.17 5.12 12.56
10/21/2022 5:00:00 PM 11.05 51.89 0.209 8.13 2.7 12.64
10/21/2022 5:15:00 PM 11.47 52.646 0.203 8.74 1.79 13.5
10/21/2022 5:30:00 PM 11.52 52.736 0.203 8.89 1.77 13.83
10/21/2022 5:45:00 PM 11.54 52.772 0.203 8.91 1.86 13.81
10/21/2022 6:00:00 PM 11.55 52.79 0.203 8.94 2.56 13.81
10/21/2022 6:15:00 PM 11.55 52.79 0.202 8.94 1.85 13.79
10/21/2022 6:30:00 PM 11.56 52.808 0.203 8.94 1.85 13.76
10/21/2022 6:45:00 PM 11.55 52.79 0.202 8.94 1.84 13.72
10/21/2022 7:00:00 PM 11.54 52.772 0.202 8.94 1.89 13.72
10/21/2022 7:15:00 PM 11.53 52.754 0.202 8.94 1.83 13.65
10/21/2022 7:30:00 PM 11.52 52.736 0.201 8.94 1.79 13.63
10/21/2022 7:45:00 PM 11.51 52.718 0.201 8.93 1.77 13.62
10/21/2022 8:00:00 PM 11.5 52.7 0.201 8.92 1.81 13.61
10/21/2022 8:15:00 PM 11.48 52.664 0.201 8.92 1.73 13.5
10/21/2022 8:30:00 PM 11.46 52.628 0.2 8.91 1.75 13.54
10/21/2022 8:45:00 PM 11.44 52.592 0.2 8.91 1.78 13.5
10/21/2022 9:00:00 PM 11.41 52.538 0.2 8.89 1.8 13.44
10/21/2022 9:15:00 PM 11.39 52.502 0.2 8.88 1.8 13.41
10/21/2022 9:30:00 PM 11.36 52.448 0.2 8.87 1.8 13.33
10/21/2022 9:45:00 PM 11.33 52.394 0.2 8.84 1.91 13.3
10/21/2022 10:00:00 PM 11.3 52.34 0.2 8.83 1.87 13.28
10/21/2022 10:15:00 PM 11.26 52.268 0.2 8.82 1.89 13.21
10/21/2022 10:30:00 PM 11.23 52.214 0.2 8.79 2.05 13.16
10/21/2022 10:45:00 PM 11.19 52.142 0.2 8.77 1.82 13.12
10/21/2022 11:00:00 PM 11.15 52.07 0.2 8.75 1.87 13.06
10/21/2022 11:15:00 PM 11.11 51.998 0.2 8.73 1.85 12.99
10/21/2022 11:30:00 PM 11.05 51.89 0.2 8.7 1.86 12.94
10/21/2022 11:45:00 PM 11.01 51.818 0.2 8.67 1.83 12.89
10/22/2022 12:00:00 AM 10.96 51.728 0.2 8.63 1.9 12.82
10/22/2022 12:15:00 AM 10.91 51.638 0.2 8.59 1.77 12.73
10/22/2022 12:30:00 AM 10.86 51.548 0.2 8.54 1.83 12.67
10/22/2022 12:45:00 AM 10.8 51.44 0.2 8.48 1.82 12.58
10/22/2022 1:00:00 AM 10.75 51.35 0.2 8.43 1.93 12.51
10/22/2022 1:15:00 AM 10.9 51.62 0.206 8.26 12.92 12.43
10/22/2022 1:30:00 AM 10.89 51.602 0.21 7.97 4.92 12.24
10/22/2022 1:45:00 AM 10.64 51.152 0.202 8.06 154.42 12.42
10/22/2022 2:00:00 AM 10.51 50.918 0.2 8.17 13.37 12.48
10/22/2022 2:15:00 AM 10.45 50.81 0.2 8.16 8.53 12.44
10/22/2022 2:30:00 AM 10.39 50.702 0.2 8.13 4.95 12.36
10/22/2022 2:45:00 AM 10.33 50.594 0.2 8.1 2.47 12.29
10/22/2022 3:00:00 AM 10.27 50.486 0.2 8.08 1.96 12.12
10/22/2022 3:15:00 AM 10.23 50.414 0.2 8.06 2.21 12.11
10/22/2022 3:30:00 AM 10.18 50.324 0.2 8.03 1.99 12.09
10/22/2022 3:45:00 AM 10.12 50.216 0.2 8.01 1.85 12.05
10/22/2022 4:00:00 AM 10.08 50.144 0.2 7.99 1.87 12.02
10/22/2022 4:15:00 AM 10.04 50.072 0.2 7.98 1.8 12.01
10/22/2022 4:30:00 AM 9.98 49.964 0.2 7.96 1.76 11.99
10/22/2022 4:45:00 AM 9.93 49.874 0.2 7.95 1.88 11.97
10/22/2022 5:00:00 AM 9.88 49.784 0.2 7.94 1.81 11.98
10/22/2022 5:15:00 AM 9.84 49.712 0.2 7.92 1.79 11.95
10/22/2022 5:30:00 AM 9.79 49.622 0.199 7.91 1.81 11.91
10/22/2022 5:45:00 AM 9.75 49.55 0.2 7.9 2.09 11.9
10/22/2022 6:00:00 AM 9.7 49.46 0.2 7.89 1.85 11.86
10/22/2022 6:15:00 AM 9.66 49.388 0.2 7.88 1.82 11.83
10/22/2022 6:30:00 AM 9.62 49.316 0.2 7.87 1.76 11.82
10/22/2022 6:45:00 AM 9.57 49.226 0.2 7.87 1.85 11.78
10/22/2022 7:00:00 AM 9.52 49.136 0.2 7.86 1.83 11.77
10/22/2022 7:15:00 AM 9.47 49.046 0.2 7.85 1.88 11.78
10/22/2022 7:30:00 AM 9.44 48.992 0.2 7.85 1.89 11.79
10/22/2022 7:45:00 AM 9.41 48.938 0.2 7.85 1.82 11.81
10/22/2022 8:00:00 AM 9.39 48.902 0.2 7.85 1.86 11.86
10/22/2022 8:15:00 AM 9.37 48.866 0.2 7.86 1.79 11.92
10/22/2022 8:30:00 AM 9.36 48.848 0.2 7.87 1.89 11.97
10/22/2022 8:45:00 AM 9.36 48.848 0.2 7.88 1.86 12.05
10/22/2022 9:00:00 AM 9.38 48.884 0.2 7.9 1.82 12.15
10/22/2022 9:15:00 AM 9.4 48.92 0.2 7.92 1.81 12.2
10/22/2022 9:30:00 AM 9.43 48.974 0.2 7.93 1.81 12.28
10/22/2022 9:45:00 AM 9.47 49.046 0.2 7.95 1.83 12.34
10/22/2022 10:00:00 AM 9.54 49.172 0.2 7.97 1.77 12.44
10/22/2022 10:15:00 AM 9.6 49.28 0.2 7.99 1.8 12.49
10/22/2022 10:30:00 AM 9.68 49.424 0.2 8.02 1.73 12.57
10/22/2022 10:45:00 AM 9.75 49.55 0.2 8.04 1.77 12.63
10/22/2022 11:00:00 AM 9.84 49.712 0.2 8.07 1.79 12.74
10/22/2022 11:15:00 AM 10.58 51.044 0.212 7.86 7.37 12.36
10/22/2022 11:30:00 AM 10.46 50.828 0.208 7.87 10.64 12.49
10/22/2022 11:45:00 AM 10.14 50.252 0.2 8.07 7.85 12.96
10/22/2022 12:00:00 PM 10.25 50.45 0.2 8.15 5.2 13.1
10/22/2022 12:15:00 PM 10.35 50.63 0.2 8.18 4.18 13.18
10/22/2022 12:30:00 PM 10.47 50.846 0.2 8.23 3.86 13.22
10/22/2022 12:45:00 PM 10.55 50.99 0.201 8.27 3.77 13.27
10/22/2022 1:00:00 PM 10.66 51.188 0.201 8.29 3.68 13.29
10/22/2022 1:15:00 PM 10.77 51.386 0.201 8.32 3.67 13.34
10/22/2022 1:30:00 PM 10.87 51.566 0.201 8.36 3.61 13.37
10/22/2022 1:45:00 PM 10.98 51.764 0.201 8.41 3.67 13.42
10/22/2022 2:00:00 PM 11.08 51.944 0.201 8.45 3.62 13.46
10/22/2022 2:15:00 PM 11.18 52.124 0.201 8.48 3.63 13.51
10/22/2022 2:30:00 PM 11.26 52.268 0.201 8.52 3.68 13.57
10/22/2022 2:45:00 PM 11.34 52.412 0.201 8.56 3.68 13.61
10/22/2022 3:00:00 PM 11.43 52.574 0.201 8.6 3.63 13.65
10/22/2022 3:15:00 PM 11.5 52.7 0.201 8.63 3.6 13.7
10/22/2022 3:30:00 PM 11.56 52.808 0.201 8.69 3.88 13.77
10/22/2022 3:45:00 PM 11.61 52.898 0.201 8.74 3.88 13.83
10/22/2022 4:00:00 PM 11.66 52.988 0.201 8.78 3.91 13.88
10/22/2022 4:15:00 PM 11.69 53.042 0.201 8.82 3.94 13.91
10/22/2022 4:30:00 PM 11.72 53.096 0.201 8.84 3.96 13.94
10/22/2022 4:45:00 PM 11.74 53.132 0.201 8.86 3.86 13.96
10/22/2022 5:00:00 PM 11.75 53.15 0.202 8.88 3.82 13.97
10/22/2022 5:15:00 PM 11.76 53.168 0.202 8.88 3.82 13.97
10/22/2022 5:30:00 PM 11.78 53.204 0.202 8.89 3.79 13.93
10/22/2022 5:45:00 PM 11.8 53.24 0.202 8.9 3.84 13.94
10/22/2022 6:00:00 PM 11.82 53.276 0.202 8.92 3.79 13.96
10/22/2022 6:15:00 PM 11.83 53.294 0.202 8.92 3.74 13.94
10/22/2022 6:30:00 PM 11.83 53.294 0.202 8.92 3.84 13.91
10/22/2022 6:45:00 PM 11.65 52.97 0.212 8.48 7.22 12.83
10/22/2022 7:00:00 PM 11.3 52.34 0.212 8.06 7.7 12.46
10/22/2022 7:15:00 PM 11.75 53.15 0.204 8.44 42.95 13.26
10/22/2022 7:30:00 PM 11.81 53.258 0.204 8.82 42.32 13.64
10/22/2022 7:45:00 PM 11.81 53.258 0.203 8.87 41.39 13.73
10/22/2022 8:00:00 PM 11.8 53.24 0.203 8.89 36.98 13.74
10/22/2022 8:15:00 PM 11.79 53.222 0.203 8.89 35.79 13.72
10/22/2022 8:30:00 PM 11.78 53.204 0.203 8.89 34.95 13.67
10/22/2022 8:45:00 PM 11.76 53.168 0.203 8.89 33.47 13.64
10/22/2022 9:00:00 PM 11.75 53.15 0.203 8.88 27.9 13.62
10/22/2022 9:15:00 PM 11.73 53.114 0.203 8.87 23.99 13.56
10/22/2022 9:30:00 PM 11.7 53.06 0.203 8.85 22.69 13.52
10/22/2022 9:45:00 PM 11.68 53.024 0.203 8.84 19.73 13.48
10/22/2022 10:00:00 PM 11.66 52.988 0.204 8.83 18.01 13.44
10/22/2022 10:15:00 PM 11.63 52.934 0.204 8.81 15.78 13.46
10/22/2022 10:30:00 PM 11.62 52.916 0.204 8.79 14.11 13.41
10/22/2022 10:45:00 PM 11.59 52.862 0.204 8.77 12.32 13.36
10/22/2022 11:00:00 PM 11.56 52.808 0.204 8.75 10.63 13.31
10/22/2022 11:15:00 PM 11.52 52.736 0.204 8.73 9.21 13.26
10/22/2022 11:30:00 PM 11.49 52.682 0.204 8.71 7.83 13.24
10/22/2022 11:45:00 PM 11.45 52.61 0.204 8.68 6.76 13.19
10/23/2022 12:00:00 AM 11.41 52.538 0.204 8.66 5.93 13.13
10/23/2022 12:15:00 AM 11.37 52.466 0.204 8.63 5.25 13.08
10/23/2022 12:30:00 AM 11.33 52.394 0.204 8.58 4.86 13.02
10/23/2022 12:45:00 AM 11.28 52.304 0.204 8.54 4.44 12.92
10/23/2022 1:00:00 AM 11.23 52.214 0.205 8.48 4.16 12.83
10/23/2022 1:15:00 AM 11.17 52.106 0.205 8.43 4.22 12.73
10/23/2022 1:30:00 AM 11.12 52.016 0.205 8.38 4.1 12.64
10/23/2022 1:45:00 AM 11.06 51.908 0.205 8.33 3.91 12.55
10/23/2022 2:00:00 AM 11 51.8 0.205 8.29 3.81 12.46
10/23/2022 2:15:00 AM 10.94 51.692 0.205 8.23 3.88 12.39
10/23/2022 2:30:00 AM 10.87 51.566 0.205 8.19 3.76 12.28
10/23/2022 2:45:00 AM 10.81 51.458 0.205 8.14 3.83 12.22
10/23/2022 3:00:00 AM 10.75 51.35 0.205 8.11 3.89 12.16
10/23/2022 3:15:00 AM 10.68 51.224 0.205 8.08 3.83 12.09
10/23/2022 3:30:00 AM 10.62 51.116 0.205 8.05 4.36 12.04
10/23/2022 3:45:00 AM 10.56 51.008 0.206 8.03 3.85 11.96
10/23/2022 4:00:00 AM 10.5 50.9 0.205 8 3.83 11.94
10/23/2022 4:15:00 AM 10.44 50.792 0.205 7.98 3.87 11.93
10/23/2022 4:30:00 AM 10.38 50.684 0.206 7.97 3.89 11.88
10/23/2022 4:45:00 AM 10.32 50.576 0.206 7.95 3.86 11.86
10/23/2022 5:00:00 AM 10.26 50.468 0.206 7.93 3.89 11.82
10/23/2022 5:15:00 AM 10.21 50.378 0.205 7.92 3.9 11.81
10/23/2022 5:30:00 AM 10.15 50.27 0.206 7.91 3.83 11.78
10/23/2022 5:45:00 AM 10.1 50.18 0.206 7.9 3.87 11.76
10/23/2022 6:00:00 AM 10.05 50.09 0.205 7.89 3.86 11.73
10/23/2022 6:15:00 AM 10 50 0.206 7.88 3.88 11.72
10/23/2022 6:30:00 AM 9.95 49.91 0.206 7.87 3.92 11.69
10/23/2022 6:45:00 AM 9.9 49.82 0.206 7.86 3.81 11.69
10/23/2022 7:00:00 AM 9.86 49.748 0.206 7.85 3.84 11.68
10/23/2022 7:15:00 AM 9.82 49.676 0.206 7.84 3.86 11.65
10/23/2022 7:30:00 AM 9.78 49.604 0.206 7.84 3.88 11.64
10/23/2022 7:45:00 AM 9.74 49.532 0.206 7.83 3.92 11.67
10/23/2022 8:00:00 AM 9.72 49.496 0.206 7.83 3.92 11.69
10/23/2022 8:15:00 AM 9.7 49.46 0.206 7.84 3.88 11.78
10/23/2022 8:30:00 AM 9.66 49.388 0.205 7.86 3.94 11.88
10/23/2022 8:45:00 AM 9.64 49.352 0.205 7.87 3.88 11.94
10/23/2022 9:00:00 AM 9.65 49.37 0.205 7.88 3.88 12.03
10/23/2022 9:15:00 AM 9.67 49.406 0.205 7.9 3.89 12.11
10/23/2022 9:30:00 AM 9.7 49.46 0.205 7.92 4.1 12.22
10/23/2022 9:45:00 AM 9.74 49.532 0.205 7.94 3.92 12.33
10/23/2022 10:00:00 AM 9.79 49.622 0.204 7.96 3.96 12.41
10/23/2022 10:15:00 AM 9.84 49.712 0.204 7.99 3.9 12.5
10/23/2022 10:30:00 AM 9.91 49.838 0.204 8.01 3.9 12.57
10/23/2022 10:45:00 AM 9.98 49.964 0.204 8.04 3.99 12.67
10/23/2022 11:00:00 AM 10.05 50.09 0.204 8.07 3.96 12.76
10/23/2022 11:15:00 AM 10.1 50.18 0.204 8.1 3.89 12.83
10/23/2022 11:30:00 AM 10.18 50.324 0.204 8.14 4.29 12.91
10/23/2022 11:45:00 AM 10.69 51.242 0.212 8.07 5.47 12.7
10/23/2022 12:00:00 PM 10.67 51.206 0.213 7.92 3.95 12.43
10/23/2022 12:15:00 PM 10.42 50.756 0.205 7.98 13.97 12.75
10/23/2022 12:30:00 PM 10.39 50.702 0.203 8.2 11 13.18
10/23/2022 12:45:00 PM 10.46 50.828 0.203 8.26 9 13.29
10/23/2022 1:00:00 PM 10.54 50.972 0.203 8.3 7.01 13.37
10/23/2022 1:15:00 PM 10.61 51.098 0.203 8.34 5.74 13.41
10/23/2022 1:30:00 PM 10.68 51.224 0.203 8.38 5.26 13.45
10/23/2022 1:45:00 PM 10.74 51.332 0.204 8.42 4.86 13.5
10/23/2022 2:00:00 PM 10.82 51.476 0.204 8.45 4.46 13.55
10/23/2022 2:15:00 PM 10.88 51.584 0.204 8.5 4.3 13.59
10/23/2022 2:30:00 PM 10.94 51.692 0.204 8.53 4.21 13.63
10/23/2022 2:45:00 PM 11.01 51.818 0.204 8.57 4 13.67
10/23/2022 3:00:00 PM 11.06 51.908 0.205 8.61 3.91 13.75
10/23/2022 3:15:00 PM 11.11 51.998 0.205 8.64 3.83 13.8
10/23/2022 3:30:00 PM 11.16 52.088 0.205 8.67 3.69 13.82
10/23/2022 3:45:00 PM 11.18 52.124 0.205 8.69 3.67 13.85
10/23/2022 4:00:00 PM 11.21 52.178 0.205 8.72 3.7 13.88
10/23/2022 4:15:00 PM 11.24 52.232 0.205 8.74 3.59 13.87
10/23/2022 4:30:00 PM 11.27 52.286 0.205 8.76 3.76 13.9
10/23/2022 4:45:00 PM 11.3 52.34 0.205 8.78 3.55 13.9
10/23/2022 5:00:00 PM 11.34 52.412 0.205 8.8 3.51 13.9
10/23/2022 5:15:00 PM 11.37 52.466 0.205 8.82 3.55 13.92
10/23/2022 5:30:00 PM 11.27 52.286 0.217 8.15 5.38 12.63
10/23/2022 5:45:00 PM 11.13 52.034 0.215 8.05 48.57 12.62
10/23/2022 6:00:00 PM 11.42 52.556 0.207 8.58 52.64 13.43
10/23/2022 6:15:00 PM 11.45 52.61 0.207 8.71 44.56 13.65
10/23/2022 6:30:00 PM 11.47 52.646 0.207 8.76 41.82 13.77
10/23/2022 6:45:00 PM 11.48 52.664 0.207 8.78 38.83 13.81
10/23/2022 7:00:00 PM 11.49 52.682 0.207 8.8 35.89 13.79
10/23/2022 7:15:00 PM 11.49 52.682 0.207 8.82 33.43 13.76
10/23/2022 7:30:00 PM 11.5 52.7 0.207 8.83 30.81 13.74
10/23/2022 7:45:00 PM 11.5 52.7 0.207 8.86 27.91 13.73
10/23/2022 8:00:00 PM 11.5 52.7 0.207 8.86 25.56 13.67
10/23/2022 8:15:00 PM 11.5 52.7 0.207 8.85 22.33 13.64
10/23/2022 8:30:00 PM 11.51 52.718 0.207 8.84 20.2 13.6
10/23/2022 8:45:00 PM 11.51 52.718 0.207 8.83 18.31 13.58
10/23/2022 9:00:00 PM 11.51 52.718 0.208 8.81 16.3 13.55
10/23/2022 9:15:00 PM 11.51 52.718 0.208 8.8 14 13.49
10/23/2022 9:30:00 PM 11.51 52.718 0.208 8.78 12.17 13.46
10/23/2022 9:45:00 PM 11.51 52.718 0.208 8.77 11.46 13.42
10/23/2022 10:00:00 PM 11.51 52.718 0.208 8.75 10.49 13.38
10/23/2022 10:15:00 PM 11.51 52.718 0.208 8.73 9.47 13.32
10/23/2022 10:30:00 PM 11.51 52.718 0.208 8.71 8.24 13.29
10/23/2022 10:45:00 PM 11.5 52.7 0.208 8.69 7.15 13.24
10/23/2022 11:00:00 PM 11.5 52.7 0.208 8.67 6.17 13.22
10/23/2022 11:15:00 PM 11.5 52.7 0.208 8.65 5.35 13.17
10/23/2022 11:30:00 PM 11.49 52.682 0.209 8.62 4.69 13.12
10/23/2022 11:45:00 PM 11.49 52.682 0.209 8.59 4.32 13.06
10/24/2022 12:00:00 AM 11.48 52.664 0.208 8.55 4.02 12.97
10/24/2022 12:15:00 AM 11.48 52.664 0.208 8.51 4.09 12.92
10/24/2022 12:30:00 AM 11.48 52.664 0.208 8.47 3.95 12.84
10/24/2022 12:45:00 AM 11.47 52.646 0.208 8.43 4.04 12.79
10/24/2022 1:00:00 AM 11.46 52.628 0.208 8.38 3.87 12.68
10/24/2022 1:15:00 AM 11.45 52.61 0.208 8.33 3.78 12.61
10/24/2022 1:30:00 AM 11.44 52.592 0.208 8.28 3.77 12.53
10/24/2022 1:45:00 AM 11.43 52.574 0.208 8.24 4.05 12.44
10/24/2022 2:00:00 AM 11.41 52.538 0.209 8.2 3.68 12.37
10/24/2022 2:15:00 AM 11.4 52.52 0.209 8.17 3.79 12.29
10/24/2022 2:30:00 AM 11.38 52.484 0.209 8.13 3.77 12.22
10/24/2022 2:45:00 AM 11.37 52.466 0.209 8.09 3.82 12.16
10/24/2022 3:00:00 AM 11.35 52.43 0.209 8.06 3.71 12.08
10/24/2022 3:15:00 AM 11.33 52.394 0.209 8.03 3.71 12.02
10/24/2022 3:30:00 AM 11.31 52.358 0.209 8.01 3.74 11.97
10/24/2022 3:45:00 AM 11.29 52.322 0.209 7.99 3.69 11.92
10/24/2022 4:00:00 AM 11.28 52.304 0.21 7.97 3.78 11.83
10/24/2022 4:15:00 AM 11.26 52.268 0.209 7.95 3.86 11.83
10/24/2022 4:30:00 AM 11.25 52.25 0.21 7.93 3.78 11.79
10/24/2022 4:45:00 AM 11.24 52.232 0.209 7.92 3.83 11.75
10/24/2022 5:00:00 AM 11.23 52.214 0.21 7.91 3.85 11.71
10/24/2022 5:15:00 AM 11.21 52.178 0.21 7.9 3.7 11.66
10/24/2022 5:30:00 AM 11.2 52.16 0.21 7.88 3.68 11.66
10/24/2022 5:45:00 AM 11.18 52.124 0.21 7.87 3.72 11.63
10/24/2022 6:00:00 AM 11.16 52.088 0.21 7.86 3.74 11.54
10/24/2022 6:15:00 AM 11.15 52.07 0.211 7.85 3.7 11.57
10/24/2022 6:30:00 AM 11.14 52.052 0.211 7.84 3.62 11.54
10/24/2022 6:45:00 AM 11.14 52.052 0.211 7.83 3.63 11.5
10/24/2022 7:00:00 AM 11.12 52.016 0.211 7.82 3.7 11.45
10/24/2022 7:15:00 AM 11.12 52.016 0.211 7.82 3.67 11.46
10/24/2022 7:30:00 AM 11.12 52.016 0.211 7.81 3.65 11.46
10/24/2022 7:45:00 AM 11.35 52.43 0.213 7.83 82.14 11.81
10/24/2022 8:00:00 AM 11.26 52.268 0.214 7.83 151.84 11.96
10/24/2022 8:15:00 AM 11.15 52.07 0.212 7.83 69.07 11.88
10/24/2022 8:30:00 AM 11.16 52.088 0.212 7.84 7.55 11.87
10/24/2022 8:45:00 AM 11.17 52.106 0.212 7.85 5.69 11.86
10/24/2022 9:00:00 AM 11.19 52.142 0.212 7.87 4.79 11.92
10/24/2022 9:15:00 AM 11.21 52.178 0.212 7.89 4.78 11.97
10/24/2022 9:30:00 AM 11.25 52.25 0.212 7.91 4.56 12.01
10/24/2022 9:45:00 AM 11.29 52.322 0.212 7.93 4.39 12.11
10/24/2022 10:00:00 AM 11.32 52.376 0.212 7.94 4.3 12.15
10/24/2022 10:15:00 AM 11.39 52.502 0.222 7.85 4.02 12.07
10/24/2022 10:30:00 AM 11.47 52.646 0.22 7.83 3.79 12.02
10/24/2022 10:45:00 AM 11.47 52.646 0.213 7.95 13.63 12.32
10/24/2022 11:00:00 AM 11.53 52.754 0.212 8.04 8.4 12.55
10/24/2022 11:15:00 AM 11.58 52.844 0.212 8.08 6.34 12.64
10/24/2022 11:30:00 AM 11.64 52.952 0.212 8.12 4.92 12.72
10/24/2022 11:45:00 AM 11.69 53.042 0.212 8.16 4.32 12.8
10/24/2022 12:00:00 PM 11.73 53.114 0.212 8.2 4 12.87
10/24/2022 12:15:00 PM 11.77 53.186 0.212 8.24 3.7 12.95
10/24/2022 12:30:00 PM 11.81 53.258 0.212 8.27 3.64 13
10/24/2022 12:45:00 PM 11.87 53.366 0.212 8.32 3.54 13.08
10/24/2022 1:00:00 PM 11.91 53.438 0.211 8.36 3.64 13.13
10/24/2022 1:15:00 PM 11.93 53.474 0.211 8.4 3.54 13.2
10/24/2022 1:30:00 PM 11.97 53.546 0.211 8.42 3.48 13.24
10/24/2022 1:45:00 PM 11.99 53.582 0.211 8.45 3.44 13.27
10/24/2022 2:00:00 PM 12.02 53.636 0.211 8.49 3.47 13.43
10/24/2022 2:15:00 PM 12.05 53.69 0.211 8.52 3.43 13.47
10/24/2022 2:30:00 PM 12.09 53.762 0.211 8.54 3.46 13.52
10/24/2022 2:45:00 PM 12.12 53.816 0.21 8.57 3.49 13.55
10/24/2022 3:00:00 PM 12.16 53.888 0.211 8.61 3.5 13.61
10/24/2022 3:15:00 PM 12.2 53.96 0.21 8.64 3.55 13.66
10/24/2022 3:30:00 PM 12.23 54.014 0.21 8.69 3.82 13.75
10/24/2022 3:45:00 PM 12.27 54.086 0.21 8.72 3.83 13.82
10/24/2022 4:00:00 PM 12.3 54.14 0.21 8.76 3.84 13.86
10/24/2022 4:15:00 PM 12.32 54.176 0.211 8.78 3.88 13.9
10/24/2022 4:30:00 PM 12.35 54.23 0.21 8.8 3.83 13.92
10/24/2022 4:45:00 PM 12.37 54.266 0.211 8.82 3.8 13.92
10/24/2022 5:00:00 PM 12 53.6 0.221 8.09 4.88 12.49
10/24/2022 5:15:00 PM 12.09 53.762 0.219 8.03 8.15 12.57
10/24/2022 5:30:00 PM 12.37 54.266 0.211 8.63 8.69 13.55
10/24/2022 5:45:00 PM 12.39 54.302 0.211 8.74 8.05 13.73
10/24/2022 6:00:00 PM 12.39 54.302 0.211 8.79 10.57 13.78
10/24/2022 6:15:00 PM 12.38 54.284 0.211 8.86 5.21 13.8
10/24/2022 6:30:00 PM 12.37 54.266 0.211 8.87 5.07 13.81
10/24/2022 6:45:00 PM 12.36 54.248 0.211 8.88 5.31 13.78
10/24/2022 7:00:00 PM 12.36 54.248 0.212 8.87 3.98 13.76
10/24/2022 7:15:00 PM 12.35 54.23 0.212 8.87 3.71 13.72
10/24/2022 7:30:00 PM 12.34 54.212 0.212 8.86 3.64 13.69
10/24/2022 7:45:00 PM 12.33 54.194 0.212 8.85 3.68 13.63
10/24/2022 8:00:00 PM 12.32 54.176 0.213 8.83 3.65 13.58
10/24/2022 8:15:00 PM 12.31 54.158 0.213 8.82 3.68 13.51
10/24/2022 8:30:00 PM 12.3 54.14 0.213 8.8 3.68 13.48
10/24/2022 8:45:00 PM 12.29 54.122 0.213 8.79 3.63 13.42
10/24/2022 9:00:00 PM 12.29 54.122 0.213 8.77 3.65 13.39
10/24/2022 9:15:00 PM 12.28 54.104 0.213 8.75 3.64 13.34
10/24/2022 9:30:00 PM 12.27 54.086 0.214 8.73 3.71 13.27
10/24/2022 9:45:00 PM 12.27 54.086 0.214 8.66 2.22 13.14
10/24/2022 10:00:00 PM 12.27 54.086 0.214 8.67 2.29 13.09
10/24/2022 10:15:00 PM 12.26 54.068 0.214 8.67 1.97 13.07
10/24/2022 10:30:00 PM 12.26 54.068 0.214 8.65 1.84 12.99
10/24/2022 10:45:00 PM 12.26 54.068 0.214 8.63 2.06 12.97
10/24/2022 11:00:00 PM 12.26 54.068 0.214 8.6 1.87 12.93
10/24/2022 11:15:00 PM 12.26 54.068 0.214 8.58 1.95 12.88
10/24/2022 11:30:00 PM 12.26 54.068 0.215 8.55 1.95 12.82
10/24/2022 11:45:00 PM 12.26 54.068 0.215 8.52 2.05 12.74
10/25/2022 12:00:00 AM 12.26 54.068 0.215 8.49 2.04 12.66
10/25/2022 12:15:00 AM 12.26 54.068 0.215 8.45 2.08 12.6
10/25/2022 12:30:00 AM 12.25 54.05 0.215 8.41 2.06 12.55
10/25/2022 12:45:00 AM 12.16 53.888 0.222 8 14.42 12.13
10/25/2022 1:00:00 AM 12.22 53.996 0.22 7.99 24.74 12.14
10/25/2022 1:15:00 AM 12.23 54.014 0.216 8.22 2.62 12.34
10/25/2022 1:30:00 AM 12.21 53.978 0.216 8.2 1.91 12.34
10/25/2022 1:45:00 AM 12.2 53.96 0.216 8.16 2.04 12.05
10/25/2022 2:00:00 AM 12.19 53.942 0.216 8.13 2.33 12
10/25/2022 2:15:00 AM 12.18 53.924 0.216 8.09 2.81 11.93
10/25/2022 2:30:00 AM 12.18 53.924 0.217 8.06 2.42 11.82
10/25/2022 2:45:00 AM 12.17 53.906 0.217 8.03 2.35 11.75
10/25/2022 3:00:00 AM 12.16 53.888 0.217 8.01 1.89 11.68
10/25/2022 3:15:00 AM 12.15 53.87 0.217 7.98 4.5 11.62
10/25/2022 3:30:00 AM 12.14 53.852 0.217 7.96 2 11.57
10/25/2022 3:45:00 AM 12.14 53.852 0.217 7.93 1.88 11.54
10/25/2022 4:00:00 AM 12.13 53.834 0.217 7.92 2 11.49
10/25/2022 4:15:00 AM 12.12 53.816 0.217 7.9 1.86 11.48
10/25/2022 4:30:00 AM 12.12 53.816 0.218 7.89 1.94 11.42
10/25/2022 4:45:00 AM 12.12 53.816 0.218 7.87 2.07 11.4
10/25/2022 5:00:00 AM 12.11 53.798 0.218 7.87 2.01 11.36
10/25/2022 5:15:00 AM 12.11 53.798 0.218 7.85 2.04 11.32
10/25/2022 5:30:00 AM 12.11 53.798 0.218 7.84 1.99 11.31
10/25/2022 5:45:00 AM 12.11 53.798 0.219 7.83 2.08 11.27
10/25/2022 6:00:00 AM 12.1 53.78 0.218 7.82 3.01 11.27
10/25/2022 6:15:00 AM 12.1 53.78 0.219 7.81 2.12 11.22
10/25/2022 6:30:00 AM 12.21 53.978 0.219 7.8 54.54 11.5
10/25/2022 6:45:00 AM 12.1 53.78 0.218 7.8 3.46 11.2
10/25/2022 7:00:00 AM 12.1 53.78 0.218 7.79 2.04 11.17
10/25/2022 7:15:00 AM 12.1 53.78 0.218 7.79 1.93 11.16
10/25/2022 7:30:00 AM 12.11 53.798 0.219 7.78 1.88 11.16
10/25/2022 7:45:00 AM 12.11 53.798 0.219 7.78 1.97 11.21
10/25/2022 8:00:00 AM 12.12 53.816 0.219 7.78 1.87 11.2
10/25/2022 8:15:00 AM 12.13 53.834 0.219 7.78 2.19 11.26
10/25/2022 8:30:00 AM 12.14 53.852 0.219 7.8 1.94 11.34
10/25/2022 8:45:00 AM 12.16 53.888 0.219 7.81 1.85 11.47
10/25/2022 9:00:00 AM 12.19 53.942 0.219 7.83 1.85 11.54
10/25/2022 9:15:00 AM 12.22 53.996 0.219 7.85 1.86 11.65
10/25/2022 9:30:00 AM 12.24 54.032 0.219 7.87 1.77 11.74
10/25/2022 9:45:00 AM 12.27 54.086 0.219 7.89 1.95 11.83
10/25/2022 10:00:00 AM 12.3 54.14 0.219 7.91 1.77 11.9
10/25/2022 10:15:00 AM 12.32 54.176 0.219 7.92 1.73 11.94
10/25/2022 10:30:00 AM 12.36 54.248 0.219 7.94 2.01 12.03
10/25/2022 10:45:00 AM 12.42 54.356 0.228 7.81 4.65 11.91
10/25/2022 11:00:00 AM 12.44 54.392 0.225 7.82 16.74 12
10/25/2022 11:15:00 AM 12.49 54.482 0.219 7.99 2.88 12.33
10/25/2022 11:30:00 AM 12.52 54.536 0.219 8.05 2.38 12.47
10/25/2022 11:45:00 AM 12.57 54.626 0.219 8.08 2.84 12.54
10/25/2022 12:00:00 PM 12.6 54.68 0.218 8.1 2.07 12.53
10/25/2022 12:15:00 PM 12.65 54.77 0.218 8.18 7.27 12.72
10/25/2022 12:30:00 PM 12.71 54.878 0.218 8.22 2.47 12.8
10/25/2022 12:45:00 PM 12.74 54.932 0.218 8.26 1.79 12.89
10/25/2022 1:00:00 PM 12.82 55.076 0.218 8.31 1.7 12.91
10/25/2022 1:15:00 PM 12.9 55.22 0.218 8.37 1.68 13.09
10/25/2022 1:30:00 PM 12.99 55.382 0.218 8.41 1.64 12.85
10/25/2022 1:45:00 PM 13.07 55.526 0.219 8.46 1.6 13.21
10/25/2022 2:00:00 PM 13.1 55.58 0.219 8.49 1.7 13.29
10/25/2022 2:15:00 PM 13.09 55.562 0.219 8.51 1.72 13.29
10/25/2022 2:30:00 PM 13.08 55.544 0.219 8.52 1.66 13.28
10/25/2022 2:45:00 PM 13.07 55.526 0.219 8.52 1.68 13.28
10/25/2022 3:00:00 PM 13.07 55.526 0.219 8.52 1.6 13.24
10/25/2022 3:15:00 PM 13.08 55.544 0.219 8.53 1.95 13.07
10/25/2022 3:30:00 PM 13.08 55.544 0.219 8.56 1.63 13.32
10/25/2022 3:45:00 PM 13.09 55.562 0.218 8.58 1.62 13.37
10/25/2022 4:00:00 PM 13.1 55.58 0.218 8.62 1.54 13.37
10/25/2022 4:15:00 PM 13.1 55.58 0.218 8.64 1.74 13.39
10/25/2022 4:30:00 PM 13.11 55.598 0.218 8.66 1.62 13.43
10/25/2022 4:45:00 PM 13.12 55.616 0.218 8.67 1.63 13.43
10/25/2022 5:00:00 PM 13.13 55.634 0.218 8.68 1.67 13.41
10/25/2022 5:15:00 PM 13.13 55.634 0.218 8.7 1.62 13.43
10/25/2022 5:30:00 PM 13.14 55.652 0.218 8.7 1.65 13.4
10/25/2022 5:45:00 PM 13.14 55.652 0.218 8.71 1.59 13.39
10/25/2022 6:00:00 PM 13.14 55.652 0.218 8.72 1.69 13.39
10/25/2022 6:15:00 PM 13.15 55.67 0.218 8.72 1.64 13.36
10/25/2022 6:30:00 PM 13 55.4 0.227 8.13 3.07 12.24
10/25/2022 6:45:00 PM 13.05 55.49 0.224 8.07 24.94 12.25
10/25/2022 7:00:00 PM 13.19 55.742 0.218 8.69 1.74 13.25
10/25/2022 7:15:00 PM 13.2 55.76 0.217 8.74 1.81 13.26
10/25/2022 7:30:00 PM 13.22 55.796 0.218 8.74 1.89 13.24
10/25/2022 7:45:00 PM 13.23 55.814 0.217 8.74 1.74 13.21
10/25/2022 8:00:00 PM 13.24 55.832 0.218 8.73 1.76 13.17
10/25/2022 8:15:00 PM 13.24 55.832 0.217 8.73 1.7 13.11
10/25/2022 8:30:00 PM 13.25 55.85 0.217 8.72 1.78 13.07
10/25/2022 8:45:00 PM 13.26 55.868 0.217 8.71 1.72 13.03
10/25/2022 9:00:00 PM 13.27 55.886 0.217 8.69 1.88 12.98
10/25/2022 9:15:00 PM 13.27 55.886 0.217 8.68 1.76 12.92
10/25/2022 9:30:00 PM 13.27 55.886 0.217 8.66 1.75 12.88
10/25/2022 9:45:00 PM 13.27 55.886 0.217 8.64 1.73 12.83
10/25/2022 10:00:00 PM 13.27 55.886 0.217 8.62 1.71 12.76
10/25/2022 10:15:00 PM 13.26 55.868 0.218 8.59 1.7 12.69
10/25/2022 10:30:00 PM 13.25 55.85 0.217 8.57 1.68 12.63
10/25/2022 10:45:00 PM 13.24 55.832 0.217 8.53 1.74 12.5
10/25/2022 11:00:00 PM 13.23 55.814 0.217 8.49 1.73 12.49
10/25/2022 11:15:00 PM 13.22 55.796 0.217 8.45 1.64 12.38
10/25/2022 11:30:00 PM 13.2 55.76 0.217 8.41 1.75 12.26
10/25/2022 11:45:00 PM 13.18 55.724 0.217 8.37 1.67 12.27
10/26/2022 12:00:00 AM 13.17 55.706 0.218 8.32 1.72 12.18
10/26/2022 12:15:00 AM 13.15 55.67 0.218 8.28 1.62 12.11
10/26/2022 12:30:00 AM 13.12 55.616 0.217 8.23 1.72 12
10/26/2022 12:45:00 AM 13.11 55.598 0.218 8.19 1.75 11.91
10/26/2022 1:00:00 AM 13.09 55.562 0.218 8.16 1.83 11.82
10/26/2022 1:15:00 AM 13.11 55.598 0.221 8.1 13.67 11.72
10/26/2022 1:30:00 AM 13.11 55.598 0.227 7.91 2.85 11.63
10/26/2022 1:45:00 AM 13.06 55.508 0.221 7.94 1.53 11.73
10/26/2022 2:00:00 AM 13 55.4 0.218 7.99 1.71 11.49
10/26/2022 2:15:00 AM 12.99 55.382 0.218 7.97 1.75 11.42
10/26/2022 2:30:00 AM 12.98 55.364 0.218 7.95 1.68 11.35
10/26/2022 2:45:00 AM 12.96 55.328 0.218 7.93 1.68 11.37
10/26/2022 3:00:00 AM 12.95 55.31 0.218 7.91 2.65 11.25
10/26/2022 3:15:00 AM 12.93 55.274 0.218 7.89 1.78 11.2
10/26/2022 3:30:00 AM 12.92 55.256 0.218 7.87 1.82 11.13
10/26/2022 3:45:00 AM 12.9 55.22 0.218 7.86 1.75 11.09
10/26/2022 4:00:00 AM 12.88 55.184 0.218 7.84 1.76 11.23
10/26/2022 4:15:00 AM 12.85 55.13 0.218 7.83 1.7 11.02
10/26/2022 4:30:00 AM 12.83 55.094 0.218 7.82 1.8 10.99
10/26/2022 4:45:00 AM 12.81 55.058 0.219 7.81 1.88 10.95
10/26/2022 5:00:00 AM 12.78 55.004 0.218 7.8 1.91 10.93
10/26/2022 5:15:00 AM 12.76 54.968 0.218 7.79 1.92 10.94
10/26/2022 5:30:00 AM 12.74 54.932 0.218 7.78 2.01 10.9
10/26/2022 5:45:00 AM 12.72 54.896 0.217 7.77 1.98 10.87
10/26/2022 6:00:00 AM 12.71 54.878 0.217 7.77 1.74 10.85
10/26/2022 6:15:00 AM 12.7 54.86 0.217 7.76 1.81 10.83
10/26/2022 6:30:00 AM 12.69 54.842 0.217 7.76 1.74 10.81
10/26/2022 6:45:00 AM 12.68 54.824 0.217 7.75 1.81 10.8
10/26/2022 7:00:00 AM 12.68 54.824 0.217 7.75 1.82 10.78
10/26/2022 7:15:00 AM 12.72 54.896 0.218 7.75 1.83 10.95
10/26/2022 7:30:00 AM 12.67 54.806 0.217 7.75 1.74 10.84
10/26/2022 7:45:00 AM 12.67 54.806 0.217 7.74 1.69 10.83
10/26/2022 8:00:00 AM 12.67 54.806 0.217 7.75 1.79 10.93
10/26/2022 8:15:00 AM 12.68 54.824 0.217 7.76 1.79 10.98
10/26/2022 8:30:00 AM 12.69 54.842 0.217 7.77 1.82 11.02
10/26/2022 8:45:00 AM 12.71 54.878 0.216 7.79 1.67 11.15
10/26/2022 9:00:00 AM 12.73 54.914 0.217 7.8 1.84 11.35
10/26/2022 9:15:00 AM 12.76 54.968 0.216 7.82 1.68 11.34
10/26/2022 9:30:00 AM 12.79 55.022 0.216 7.84 1.73 11.44
10/26/2022 9:45:00 AM 12.81 55.058 0.216 7.86 1.79 11.52
10/26/2022 10:00:00 AM 12.85 55.13 0.216 7.89 1.7 11.66
10/26/2022 10:15:00 AM 12.89 55.202 0.216 7.91 1.94 11.71
10/26/2022 10:30:00 AM 12.91 55.238 0.216 7.93 1.63 11.8
10/26/2022 10:45:00 AM 12.94 55.292 0.216 7.95 1.7 11.83
10/26/2022 11:00:00 AM 12.95 55.31 0.216 7.97 1.63 11.9
10/26/2022 11:15:00 AM 12.96 55.328 0.216 7.98 1.62 11.93
10/26/2022 11:30:00 AM 13.23 55.814 0.232 7.87 4.73 11.73
10/26/2022 11:45:00 AM 13.18 55.724 0.232 7.81 15.88 11.55
10/26/2022 12:00:00 PM 13.03 55.454 0.217 7.98 1.92 12.07
10/26/2022 12:15:00 PM 13.06 55.508 0.215 8.08 1.72 12.27
10/26/2022 12:30:00 PM 13.08 55.544 0.216 8.11 1.71 12.31
10/26/2022 12:45:00 PM 13.12 55.616 0.216 8.14 1.71 12.34
10/26/2022 1:00:00 PM 13.15 55.67 0.216 8.18 1.69 12.42
10/26/2022 1:15:00 PM 13.18 55.724 0.216 8.22 1.67 12.55
10/26/2022 1:30:00 PM 13.23 55.814 0.215 8.28 1.66 12.68
10/26/2022 1:45:00 PM 13.29 55.922 0.216 8.33 1.6 12.77
10/26/2022 2:00:00 PM 13.34 56.012 0.216 8.37 1.65 12.81
10/26/2022 2:15:00 PM 13.38 56.084 0.216 8.41 1.62 12.86
10/26/2022 2:30:00 PM 13.39 56.102 0.216 8.44 1.69 12.89
10/26/2022 2:45:00 PM 13.4 56.12 0.216 8.46 1.76 12.9
10/26/2022 3:00:00 PM 13.4 56.12 0.215 8.46 1.63 12.87
10/26/2022 3:15:00 PM 13.4 56.12 0.215 8.48 1.62 12.86
10/26/2022 3:30:00 PM 13.4 56.12 0.215 8.48 1.63 12.87
10/26/2022 3:45:00 PM 13.41 56.138 0.216 8.49 1.66 12.9
10/26/2022 4:00:00 PM 13.42 56.156 0.216 8.51 1.66 12.95
10/26/2022 4:15:00 PM 13.42 56.156 0.216 8.53 1.59 12.98
10/26/2022 4:30:00 PM 13.43 56.174 0.216 8.57 1.62 13.04
10/26/2022 4:45:00 PM 13.43 56.174 0.215 8.6 1.66 13.06
10/26/2022 5:00:00 PM 13.44 56.192 0.216 8.63 1.65 13.08
10/26/2022 5:15:00 PM 13.45 56.21 0.215 8.65 1.57 13.11
10/26/2022 5:30:00 PM 13.47 56.246 0.216 8.66 1.67 13.06
10/26/2022 5:45:00 PM 13.48 56.264 0.215 8.67 1.59 13.1
10/26/2022 6:00:00 PM 13.49 56.282 0.216 8.69 1.55 13.09
10/26/2022 6:15:00 PM 13.5 56.3 0.216 8.7 1.65 13.06
10/26/2022 6:30:00 PM 13.49 56.282 0.216 8.71 1.69 13.04
10/26/2022 6:45:00 PM 13.49 56.282 0.217 8.71 1.64 13
10/26/2022 7:00:00 PM 13.48 56.264 0.217 8.71 1.63 12.98
10/26/2022 7:15:00 PM 13.48 56.264 0.217 8.72 1.65 12.96
10/26/2022 7:30:00 PM 13.45 56.21 0.229 8.2 11.86 12.06
10/26/2022 7:45:00 PM 13.42 56.156 0.226 8.1 6.48 12.03
10/26/2022 8:00:00 PM 13.47 56.246 0.217 8.63 1.78 12.72
10/26/2022 8:15:00 PM 13.48 56.264 0.217 8.68 1.74 12.79
10/26/2022 8:30:00 PM 13.47 56.246 0.217 8.67 1.71 12.75
10/26/2022 8:45:00 PM 13.45 56.21 0.217 8.66 1.66 12.7
10/26/2022 9:00:00 PM 13.43 56.174 0.217 8.65 1.71 12.66
10/26/2022 9:15:00 PM 13.4 56.12 0.218 8.63 1.67 12.59
10/26/2022 9:30:00 PM 13.37 56.066 0.217 8.6 1.92 12.52
10/26/2022 9:45:00 PM 13.35 56.03 0.218 8.58 1.71 12.48
10/26/2022 10:00:00 PM 13.32 55.976 0.217 8.55 1.61 12.34
10/26/2022 10:15:00 PM 13.3 55.94 0.218 8.53 1.64 12.36
10/26/2022 10:30:00 PM 13.3 55.94 0.218 8.49 1.82 12.29
10/26/2022 10:45:00 PM 13.27 55.886 0.218 8.44 1.7 12.2
10/26/2022 11:00:00 PM 13.25 55.85 0.218 8.39 1.68 12.1
10/26/2022 11:15:00 PM 13.21 55.778 0.218 8.35 1.7 12.05
10/26/2022 11:30:00 PM 13.19 55.742 0.218 8.31 1.71 11.98
10/26/2022 11:45:00 PM 13.15 55.67 0.218 8.27 1.63 11.92
10/27/2022 12:00:00 AM 13.12 55.616 0.218 8.24 1.74 11.83
10/27/2022 12:15:00 AM 13.09 55.562 0.218 8.2 1.78 11.76
10/27/2022 12:30:00 AM 13.06 55.508 0.217 8.17 1.68 11.69
10/27/2022 12:45:00 AM 13.16 55.688 0.223 8.07 11.42 11.67
10/27/2022 1:00:00 AM 13.22 55.796 0.227 7.92 5.99 11.61
10/27/2022 1:15:00 AM 13.03 55.454 0.218 7.99 1.69 11.62
10/27/2022 1:30:00 AM 12.98 55.364 0.218 8.02 1.67 11.4
10/27/2022 1:45:00 AM 12.96 55.328 0.217 8 1.71 11.34
10/27/2022 2:00:00 AM 12.94 55.292 0.218 7.98 1.72 11.25
10/27/2022 2:15:00 AM 12.92 55.256 0.218 7.96 1.76 11.19
10/27/2022 2:30:00 AM 12.9 55.22 0.218 7.94 1.66 11.13
10/27/2022 2:45:00 AM 12.86 55.148 0.218 7.92 1.63 11.08
10/27/2022 3:00:00 AM 12.83 55.094 0.218 7.9 1.67 11.02
10/27/2022 3:15:00 AM 12.79 55.022 0.217 7.88 1.71 10.95
10/27/2022 3:30:00 AM 12.77 54.986 0.218 7.86 1.69 10.91
10/27/2022 3:45:00 AM 12.74 54.932 0.218 7.85 1.8 10.86
10/27/2022 4:00:00 AM 12.71 54.878 0.218 7.84 1.82 10.82
10/27/2022 4:15:00 AM 12.68 54.824 0.218 7.82 1.84 10.78
10/27/2022 4:30:00 AM 12.66 54.788 0.218 7.81 1.63 10.75
10/27/2022 4:45:00 AM 12.63 54.734 0.218 7.8 1.72 10.73
10/27/2022 5:00:00 AM 12.6 54.68 0.218 7.79 1.76 10.71
10/27/2022 5:15:00 AM 12.58 54.644 0.218 7.79 1.85 10.67
10/27/2022 5:30:00 AM 12.56 54.608 0.218 7.78 1.7 10.66
10/27/2022 5:45:00 AM 12.54 54.572 0.218 7.78 1.73 10.63
10/27/2022 6:00:00 AM 12.51 54.518 0.218 7.77 1.7 10.63
10/27/2022 6:15:00 AM 12.48 54.464 0.218 7.76 1.79 10.62
10/27/2022 6:30:00 AM 12.45 54.41 0.218 7.75 1.66 10.6
10/27/2022 6:45:00 AM 12.42 54.356 0.218 7.75 1.85 11.01
10/27/2022 7:00:00 AM 12.39 54.302 0.218 7.75 1.83 10.67
10/27/2022 7:15:00 AM 12.36 54.248 0.218 7.75 1.76 10.64
10/27/2022 7:30:00 AM 12.34 54.212 0.218 7.74 1.92 10.63
10/27/2022 7:45:00 AM 12.3 54.14 0.218 7.75 2.74 10.66
10/27/2022 8:00:00 AM 12.28 54.104 0.218 7.75 1.78 10.71
10/27/2022 8:15:00 AM 12.24 54.032 0.218 7.77 1.75 10.79
10/27/2022 8:30:00 AM 13.09 55.562 0.236 7.78 4.67 11.59
10/27/2022 8:45:00 AM 12.77 54.986 0.229 7.79 7.48 11.53
10/27/2022 9:00:00 AM 12.22 53.996 0.219 7.79 1.75 11.11
10/27/2022 9:15:00 AM 12.19 53.942 0.218 7.82 1.79 11.16
10/27/2022 9:30:00 AM 12.2 53.96 0.218 7.84 1.92 11.24
10/27/2022 9:45:00 AM 12.21 53.978 0.218 7.86 1.8 11.33
10/27/2022 10:00:00 AM 12.24 54.032 0.218 7.89 1.81 11.45
10/27/2022 10:15:00 AM 12.29 54.122 0.218 7.91 1.78 11.55
10/27/2022 10:30:00 AM 12.34 54.212 0.218 7.94 2.04 11.66
10/27/2022 10:45:00 AM 12.39 54.302 0.217 7.97 1.88 11.77
10/27/2022 11:00:00 AM 12.44 54.392 0.218 8 1.89 11.86
10/27/2022 11:15:00 AM 12.5 54.5 0.218 8.03 1.81 11.97
10/27/2022 11:30:00 AM 12.57 54.626 0.217 8.06 1.87 12.06
10/27/2022 11:45:00 AM 12.63 54.734 0.218 8.09 1.8 12.17
10/27/2022 12:00:00 PM 12.71 54.878 0.218 8.12 1.71 12.26
10/27/2022 12:15:00 PM 12.77 54.986 0.217 8.16 1.93 12.33
10/27/2022 12:30:00 PM 12.84 55.112 0.217 8.2 1.72 12.44
10/27/2022 12:45:00 PM 12.91 55.238 0.217 8.24 1.71 12.52
10/27/2022 1:00:00 PM 12.98 55.364 0.218 8.29 1.69 12.62
10/27/2022 1:15:00 PM 13.06 55.508 0.217 8.33 1.91 12.69
10/27/2022 1:30:00 PM 13.13 55.634 0.217 8.36 1.7 12.76
10/27/2022 1:45:00 PM 13.19 55.742 0.217 8.41 1.7 12.83
10/27/2022 2:00:00 PM 13.25 55.85 0.217 8.44 1.69 12.9
10/27/2022 2:15:00 PM 13.3 55.94 0.217 8.47 1.81 12.96
10/27/2022 2:30:00 PM 13.35 56.03 0.217 8.52 1.82 13.03
10/27/2022 2:45:00 PM 13.39 56.102 0.218 8.55 1.74 13.1
10/27/2022 3:00:00 PM 13.42 56.156 0.218 8.6 1.7 13.17
10/27/2022 3:15:00 PM 13.45 56.21 0.218 8.64 1.6 13.23
10/27/2022 3:30:00 PM 13.47 56.246 0.217 8.67 1.63 13.28
10/27/2022 3:45:00 PM 13.48 56.264 0.217 8.7 1.7 13.34
10/27/2022 4:00:00 PM 13.48 56.264 0.217 8.73 1.63 13.39
10/27/2022 4:15:00 PM 13.48 56.264 0.217 8.76 1.7 13.44
10/27/2022 4:30:00 PM 13.47 56.246 0.217 8.79 1.69 13.47
10/27/2022 4:45:00 PM 13.45 56.21 0.217 8.82 1.58 13.51
10/27/2022 5:00:00 PM 13.44 56.192 0.217 8.83 1.64 13.51
10/27/2022 5:15:00 PM 13.44 56.192 0.217 8.85 1.64 13.53
10/27/2022 5:30:00 PM 13.46 56.228 0.228 8.23 7.43 12.29
10/27/2022 5:45:00 PM 13.34 56.012 0.225 8.25 5.37 12.39
10/27/2022 6:00:00 PM 13.44 56.192 0.217 8.83 1.68 13.48
10/27/2022 6:15:00 PM 13.43 56.174 0.218 8.88 1.72 13.33
10/27/2022 6:30:00 PM 13.42 56.156 0.218 8.89 1.73 13.51
10/27/2022 6:45:00 PM 13.4 56.12 0.218 8.91 1.8 13.49
10/27/2022 7:00:00 PM 13.38 56.084 0.218 8.91 1.7 13.43
10/27/2022 7:15:00 PM 13.36 56.048 0.218 8.92 1.66 13.47
10/27/2022 7:30:00 PM 13.33 55.994 0.218 8.93 1.68 13.45
10/27/2022 7:45:00 PM 13.31 55.958 0.218 8.93 1.68 13.43
10/27/2022 8:00:00 PM 13.29 55.922 0.218 8.93 1.92 13.4
10/27/2022 8:15:00 PM 13.26 55.868 0.218 8.93 1.71 13.34
10/27/2022 8:30:00 PM 13.24 55.832 0.218 8.93 1.76 13.32
10/27/2022 8:45:00 PM 13.22 55.796 0.218 8.93 1.74 13.26
10/27/2022 9:00:00 PM 13.19 55.742 0.218 8.92 1.74 13.21
10/27/2022 9:15:00 PM 13.17 55.706 0.219 8.91 1.9 13.12
10/27/2022 9:30:00 PM 13.14 55.652 0.219 8.89 1.68 13.08
10/27/2022 9:45:00 PM 13.1 55.58 0.219 8.87 1.73 13.02
10/27/2022 10:00:00 PM 13.07 55.526 0.219 8.86 1.78 12.97
10/27/2022 10:15:00 PM 13.03 55.454 0.219 8.85 1.83 12.93
10/27/2022 10:30:00 PM 13 55.4 0.22 8.84 1.88 12.88
10/27/2022 10:45:00 PM 12.96 55.328 0.219 8.83 1.73 12.86
10/27/2022 11:00:00 PM 12.92 55.256 0.219 8.81 1.68 12.79
10/27/2022 11:15:00 PM 12.88 55.184 0.22 8.8 1.73 12.75
10/27/2022 11:30:00 PM 12.83 55.094 0.219 8.77 1.74 12.7
10/27/2022 11:45:00 PM 12.79 55.022 0.22 8.74 1.64 12.64
10/28/2022 12:00:00 AM 12.74 54.932 0.22 8.7 1.77 12.56
10/28/2022 12:15:00 AM 12.7 54.86 0.22 8.67 1.75 12.42
10/28/2022 12:30:00 AM 12.65 54.77 0.221 8.63 2.6 12.42
10/28/2022 12:45:00 AM 12.6 54.68 0.221 8.58 1.6 12.34
10/28/2022 1:00:00 AM 12.56 54.608 0.221 8.53 1.75 12.23
10/28/2022 1:15:00 AM 12.51 54.518 0.221 8.47 1.68 12.14
10/28/2022 1:30:00 AM 12.77 54.986 0.228 8.07 5.96 11.96
10/28/2022 1:45:00 AM 12.56 54.608 0.225 8.14 1.75 11.94
10/28/2022 2:00:00 AM 12.34 54.212 0.221 8.27 2.25 11.86
10/28/2022 2:15:00 AM 12.28 54.104 0.222 8.23 1.8 11.82
10/28/2022 2:30:00 AM 12.22 53.996 0.222 8.19 1.79 11.73
10/28/2022 2:45:00 AM 12.16 53.888 0.222 8.14 1.8 11.64
10/28/2022 3:00:00 AM 12.11 53.798 0.222 8.11 2.73 11.59
10/28/2022 3:15:00 AM 12.05 53.69 0.222 8.08 1.67 11.61
10/28/2022 3:30:00 AM 12 53.6 0.223 8.05 1.88 11.46
10/28/2022 3:45:00 AM 11.94 53.492 0.223 8.03 1.69 11.41
10/28/2022 4:00:00 AM 11.88 53.384 0.223 8 1.74 11.36
10/28/2022 4:15:00 AM 11.83 53.294 0.223 7.98 1.59 11.33
10/28/2022 4:30:00 AM 11.76 53.168 0.223 7.96 1.64 11.41
10/28/2022 4:45:00 AM 11.7 53.06 0.223 7.95 1.67 11.28
10/28/2022 5:00:00 AM 11.65 52.97 0.223 7.93 1.65 11.26
10/28/2022 5:15:00 AM 11.59 52.862 0.223 7.92 1.71 11.26
10/28/2022 5:30:00 AM 11.54 52.772 0.224 7.9 1.67 11.21
10/28/2022 5:45:00 AM 11.48 52.664 0.224 7.89 1.73 11.22
10/28/2022 6:00:00 AM 11.42 52.556 0.224 7.88 1.68 11.23
10/28/2022 6:15:00 AM 11.36 52.448 0.223 7.87 1.68 11.19
10/28/2022 6:30:00 AM 11.31 52.358 0.223 7.86 1.62 11.16
10/28/2022 6:45:00 AM 11.26 52.268 0.224 7.85 1.75 11.12
10/28/2022 7:00:00 AM 11.21 52.178 0.223 7.85 1.72 11.13
10/28/2022 7:15:00 AM 11.16 52.088 0.223 7.84 1.65 11.13
10/28/2022 7:30:00 AM 11.11 51.998 0.223 7.84 1.67 11.15
10/28/2022 7:45:00 AM 11.07 51.926 0.224 7.84 1.65 11.49
10/28/2022 8:00:00 AM 11.03 51.854 0.223 7.84 1.71 11.26
10/28/2022 8:15:00 AM 11.01 51.818 0.223 7.85 1.72 11.5
10/28/2022 8:30:00 AM 10.99 51.782 0.224 7.86 1.91 11.42
10/28/2022 8:45:00 AM 10.99 51.782 0.224 7.88 1.66 11.47
10/28/2022 9:00:00 AM 10.98 51.764 0.225 7.89 1.67 11.54
10/28/2022 9:15:00 AM 10.99 51.782 0.224 7.91 1.75 11.65
10/28/2022 9:30:00 AM 11 51.8 0.225 7.93 1.69 11.75
10/28/2022 9:45:00 AM 11.01 51.818 0.225 7.95 1.66 11.86
10/28/2022 10:00:00 AM 11.03 51.854 0.225 7.96 1.65 11.9
10/28/2022 10:15:00 AM 12.07 53.726 0.235 7.88 6.43 12.12
10/28/2022 10:30:00 AM 11.92 53.456 0.233 7.86 3.67 12.06
10/28/2022 10:45:00 AM 11.2 52.16 0.225 8 14.4 12.3
10/28/2022 11:00:00 AM 11.23 52.214 0.225 8.06 11.93 12.47
10/28/2022 11:15:00 AM 11.29 52.322 0.224 8.1 2.55 12.56
10/28/2022 11:30:00 AM 11.35 52.43 0.224 8.13 8.18 12.49
10/28/2022 11:45:00 AM 11.39 52.502 0.224 8.19 1.66 12.63
10/28/2022 12:00:00 PM 11.45 52.61 0.224 8.23 1.67 12.72
10/28/2022 12:15:00 PM 11.52 52.736 0.224 8.27 1.63 12.81
10/28/2022 12:30:00 PM 11.58 52.844 0.224 8.32 7.67 12.9
10/28/2022 12:45:00 PM 11.63 52.934 0.224 8.36 1.69 12.99
10/28/2022 1:00:00 PM 11.7 53.06 0.224 8.4 8.36 13.06
10/28/2022 1:15:00 PM 11.74 53.132 0.224 8.44 6.11 13.14
10/28/2022 1:30:00 PM 11.82 53.276 0.224 8.49 10.33 13.22
10/28/2022 1:45:00 PM 11.88 53.384 0.224 8.52 5.92 13.3
10/28/2022 2:00:00 PM 11.96 53.528 0.224 8.57 3.97 13.34
10/28/2022 2:15:00 PM 12.05 53.69 0.224 8.6 2.32 13.41
10/28/2022 2:30:00 PM 12.11 53.798 0.224 8.64 2.09 13.46
10/28/2022 2:45:00 PM 12.18 53.924 0.224 8.67 2.82 13.55
10/28/2022 3:00:00 PM 12.22 53.996 0.224 8.7 1.75 13.6
10/28/2022 3:15:00 PM 12.25 54.05 0.224 8.74 1.88 13.67
10/28/2022 3:30:00 PM 12.28 54.104 0.224 8.77 4.7 13.71
10/28/2022 3:45:00 PM 12.31 54.158 0.224 8.81 1.63 13.76
10/28/2022 4:00:00 PM 12.34 54.212 0.224 8.84 1.7 13.86
10/28/2022 4:15:00 PM 12.37 54.266 0.224 8.87 1.69 13.88
10/28/2022 4:30:00 PM 12.39 54.302 0.223 8.9 1.71 13.93
10/28/2022 4:45:00 PM 12.41 54.338 0.223 8.93 3.09 13.98
10/28/2022 5:00:00 PM 12.42 54.356 0.223 8.95 1.72 14.01
10/28/2022 5:15:00 PM 12.44 54.392 0.223 8.96 3.83 14.02
10/28/2022 5:30:00 PM 12.45 54.41 0.223 8.98 1.78 13.98
10/28/2022 5:45:00 PM 12.46 54.428 0.223 8.98 1.81 13.9
10/28/2022 6:00:00 PM 12.47 54.446 0.222 9 6.33 14.01
10/28/2022 6:15:00 PM 12.47 54.446 0.222 9 1.74 13.87
10/28/2022 6:30:00 PM 12.48 54.464 0.222 9.02 1.75 13.96
10/28/2022 6:45:00 PM 12.48 54.464 0.222 9.03 1.62 13.99
10/28/2022 7:00:00 PM 12.47 54.446 0.222 9.03 1.6 13.96
10/28/2022 7:15:00 PM 12.46 54.428 0.221 9.04 1.69 13.88
10/28/2022 7:30:00 PM 12.45 54.41 0.221 9.04 2.43 13.82
10/28/2022 7:45:00 PM 12.44 54.392 0.231 8.49 3.81 12.83
10/28/2022 8:00:00 PM 12.37 54.266 0.227 8.59 1.51 13.07
10/28/2022 8:15:00 PM 12.38 54.284 0.222 9.03 1.63 13.85
10/28/2022 8:30:00 PM 12.36 54.248 0.221 9.04 1.59 13.82
10/28/2022 8:45:00 PM 12.34 54.212 0.221 9.03 1.64 13.78
10/28/2022 9:00:00 PM 12.32 54.176 0.222 9.03 1.63 13.69
10/28/2022 9:15:00 PM 12.29 54.122 0.222 9.02 1.65 13.63
10/28/2022 9:30:00 PM 12.27 54.086 0.222 9 1.67 13.64
10/28/2022 9:45:00 PM 12.24 54.032 0.222 9 2.01 13.6
10/28/2022 10:00:00 PM 12.21 53.978 0.222 8.98 1.71 13.49
10/28/2022 10:15:00 PM 12.18 53.924 0.222 8.97 1.76 13.49
10/28/2022 10:30:00 PM 12.15 53.87 0.223 8.96 1.6 13.45
10/28/2022 10:45:00 PM 12.12 53.816 0.223 8.95 1.74 13.42
10/28/2022 11:00:00 PM 12.08 53.744 0.222 8.93 1.69 13.37
10/28/2022 11:15:00 PM 12.05 53.69 0.223 8.91 1.69 13.32
10/28/2022 11:30:00 PM 12.01 53.618 0.223 8.9 1.65 13.27
10/28/2022 11:45:00 PM 11.96 53.528 0.223 8.88 1.62 13.21
10/29/2022 12:00:00 AM 11.92 53.456 0.221 8.85 1.57 13.13
10/29/2022 12:15:00 AM 11.87 53.366 0.224 8.83 1.56 13.07
10/29/2022 12:30:00 AM 11.82 53.276 0.224 8.8 1.63 13.01
10/29/2022 12:45:00 AM 11.78 53.204 0.224 8.76 1.66 12.92
10/29/2022 1:00:00 AM 11.73 53.114 0.224 8.72 1.55 12.84
10/29/2022 1:15:00 AM 11.69 53.042 0.225 8.67 1.55 12.75
10/29/2022 1:30:00 AM 11.62 52.916 0.225 8.61 1.65 12.63
10/29/2022 1:45:00 AM 11.57 52.826 0.225 8.55 1.56 12.52
10/29/2022 2:00:00 AM 11.5 52.7 0.226 8.49 1.63 12.42
10/29/2022 2:15:00 AM 11.44 52.592 0.226 8.43 1.59 12.32
10/29/2022 2:30:00 AM 11.39 52.502 0.226 8.37 1.57 12.24
10/29/2022 2:45:00 AM 11.33 52.394 0.226 8.32 1.69 12.15
10/29/2022 3:00:00 AM 11.28 52.304 0.227 8.27 1.61 12.09
10/29/2022 3:15:00 AM 11.22 52.196 0.227 8.23 1.64 12.02
10/29/2022 3:30:00 AM 11.16 52.088 0.226 8.18 1.65 11.94
10/29/2022 3:45:00 AM 11.1 51.98 0.227 8.15 1.68 11.87
10/29/2022 4:00:00 AM 11.04 51.872 0.227 8.12 1.59 11.83
10/29/2022 4:15:00 AM 10.98 51.764 0.227 8.09 1.61 11.79
10/29/2022 4:30:00 AM 10.92 51.656 0.227 8.06 1.63 11.76
10/29/2022 4:45:00 AM 10.87 51.566 0.227 8.04 1.61 11.72
10/29/2022 5:00:00 AM 10.82 51.476 0.228 8.02 1.59 11.71
10/29/2022 5:15:00 AM 10.77 51.386 0.227 8 1.66 11.67
10/29/2022 5:30:00 AM 10.72 51.296 0.227 7.98 1.81 11.64
10/29/2022 5:45:00 AM 10.67 51.206 0.227 7.96 1.59 11.6
10/29/2022 6:00:00 AM 10.61 51.098 0.227 7.95 1.66 11.58
10/29/2022 6:15:00 AM 10.56 51.008 0.228 7.94 1.66 11.55
10/29/2022 6:30:00 AM 10.52 50.936 0.228 7.92 1.69 11.55
10/29/2022 6:45:00 AM 10.47 50.846 0.228 7.91 1.62 11.52
10/29/2022 7:00:00 AM 10.42 50.756 0.228 7.9 1.66 11.52
10/29/2022 7:15:00 AM 10.37 50.666 0.227 7.89 1.71 11.51
10/29/2022 7:30:00 AM 10.33 50.594 0.228 7.88 1.57 11.53
10/29/2022 7:45:00 AM 10.3 50.54 0.228 7.88 1.67 11.53
10/29/2022 8:00:00 AM 10.28 50.504 0.228 7.88 1.68 11.57
10/29/2022 8:15:00 AM 10.26 50.468 0.228 7.89 1.63 11.63
10/29/2022 8:30:00 AM 10.24 50.432 0.228 7.9 1.6 11.7
10/29/2022 8:45:00 AM 10.22 50.396 0.228 7.91 1.69 11.76
10/29/2022 9:00:00 AM 10.19 50.342 0.228 7.92 1.68 11.82
10/29/2022 9:15:00 AM 10.18 50.324 0.228 7.92 1.66 11.86
10/29/2022 9:30:00 AM 10.18 50.324 0.229 7.93 1.77 11.91
10/29/2022 9:45:00 AM 10.22 50.396 0.229 7.95 1.74 12.01
10/29/2022 10:00:00 AM 10.25 50.45 0.229 7.97 1.62 12.07
10/29/2022 10:15:00 AM 10.31 50.558 0.229 7.98 1.77 12.18
10/29/2022 10:30:00 AM 10.36 50.648 0.229 8.01 1.62 12.27
10/29/2022 10:45:00 AM 10.42 50.756 0.229 8.03 1.61 12.36
10/29/2022 11:00:00 AM 10.48 50.864 0.229 8.05 1.58 12.43
10/29/2022 11:15:00 AM 10.56 51.008 0.229 8.08 1.59 12.52
10/29/2022 11:30:00 AM 11.48 52.664 0.239 7.94 4.62 12.31
10/29/2022 11:45:00 AM 11.21 52.178 0.235 7.94 8.55 12.39
10/29/2022 12:00:00 PM 10.81 51.458 0.229 8.12 3.32 12.79
10/29/2022 12:15:00 PM 10.89 51.602 0.229 8.19 1.79 12.9
10/29/2022 12:30:00 PM 10.97 51.746 0.229 8.24 1.62 13
10/29/2022 12:45:00 PM 11.06 51.908 0.229 8.26 1.62 13.05
10/29/2022 1:00:00 PM 11.15 52.07 0.228 8.33 1.63 13.15
10/29/2022 1:15:00 PM 11.24 52.232 0.228 8.37 1.57 13.26
10/29/2022 1:30:00 PM 11.33 52.394 0.228 8.41 1.54 13.32
10/29/2022 1:45:00 PM 11.41 52.538 0.227 8.45 1.64 13.38
10/29/2022 2:00:00 PM 11.49 52.682 0.228 8.49 1.63 13.45
10/29/2022 2:15:00 PM 11.56 52.808 0.227 8.52 1.58 13.49
10/29/2022 2:30:00 PM 11.63 52.934 0.227 8.55 1.57 13.57
10/29/2022 2:45:00 PM 11.69 53.042 0.227 8.58 1.6 13.61
10/29/2022 3:00:00 PM 11.75 53.15 0.227 8.62 1.54 13.68
10/29/2022 3:15:00 PM 11.8 53.24 0.226 8.64 1.56 13.71
10/29/2022 3:30:00 PM 11.86 53.348 0.226 8.69 1.68 13.78
10/29/2022 3:45:00 PM 11.9 53.42 0.225 8.72 1.62 13.8
10/29/2022 4:00:00 PM 11.93 53.474 0.225 8.76 1.55 13.87
10/29/2022 4:15:00 PM 11.96 53.528 0.225 8.78 1.53 13.93
10/29/2022 4:30:00 PM 11.98 53.564 0.225 8.82 1.57 13.97
10/29/2022 4:45:00 PM 11.99 53.582 0.225 8.84 1.59 13.99
10/29/2022 5:00:00 PM 11.99 53.582 0.225 8.84 1.54 13.99
10/29/2022 5:15:00 PM 12.01 53.618 0.224 8.86 1.59 13.99
10/29/2022 5:30:00 PM 12.03 53.654 0.224 8.88 1.95 14.02
10/29/2022 5:45:00 PM 12.06 53.708 0.224 8.9 1.58 14.05
10/29/2022 6:00:00 PM 12.07 53.726 0.224 8.92 1.79 14.06
10/29/2022 6:15:00 PM 12.16 53.888 0.226 8.92 2.21 13.97
10/29/2022 6:30:00 PM 11.92 53.456 0.234 8.4 3.99 12.9
10/29/2022 6:45:00 PM 12.03 53.654 0.225 8.76 1.66 13.65
10/29/2022 7:00:00 PM 12.1 53.78 0.224 8.99 1.63 14.08
10/29/2022 7:15:00 PM 12.09 53.762 0.224 9.01 1.59 14.07
10/29/2022 7:30:00 PM 12.08 53.744 0.225 9.01 1.84 13.94
10/29/2022 7:45:00 PM 12.08 53.744 0.225 9.02 1.56 14.04
10/29/2022 8:00:00 PM 12.06 53.708 0.224 9.03 3.8 14.02
10/29/2022 8:15:00 PM 12.05 53.69 0.225 9.03 1.64 13.99
10/29/2022 8:30:00 PM 12.04 53.672 0.225 9.03 1.66 13.94
10/29/2022 8:45:00 PM 12.02 53.636 0.225 9.03 1.68 13.93
10/29/2022 9:00:00 PM 12.01 53.618 0.226 9.03 1.56 13.89
10/29/2022 9:15:00 PM 11.99 53.582 0.226 9.02 1.57 13.85
10/29/2022 9:30:00 PM 11.97 53.546 0.226 9.01 1.68 13.8
10/29/2022 9:45:00 PM 11.95 53.51 0.226 9.01 1.61 13.73
10/29/2022 10:00:00 PM 11.92 53.456 0.226 9 1.76 13.69
10/29/2022 10:15:00 PM 11.9 53.42 0.227 8.99 1.95 13.65
10/29/2022 10:30:00 PM 11.87 53.366 0.226 8.98 2.03 13.61
10/29/2022 10:45:00 PM 11.84 53.312 0.227 8.96 1.62 13.54
10/29/2022 11:00:00 PM 11.8 53.24 0.227 8.94 1.64 13.48
10/29/2022 11:15:00 PM 11.76 53.168 0.228 8.92 1.68 13.43
10/29/2022 11:30:00 PM 11.72 53.096 0.227 8.91 1.81 13.37
10/29/2022 11:45:00 PM 11.67 53.006 0.228 8.88 1.69 13.29
10/30/2022 12:00:00 AM 11.62 52.916 0.227 8.86 6.73 13.23
10/30/2022 12:15:00 AM 11.57 52.826 0.227 8.84 1.62 13.16
10/30/2022 12:30:00 AM 11.52 52.736 0.228 8.81 1.62 13
10/30/2022 12:45:00 AM 11.47 52.646 0.227 8.77 1.84 13
10/30/2022 1:00:00 AM 11.41 52.538 0.228 8.72 1.63 12.92
10/30/2022 1:15:00 AM 11.35 52.43 0.228 8.68 1.66 12.82
10/30/2022 1:30:00 AM 11.29 52.322 0.229 8.63 1.6 12.72
10/30/2022 1:45:00 AM 11.23 52.214 0.229 8.57 1.62 12.64
10/30/2022 2:00:00 AM 11.17 52.106 0.229 8.51 1.63 12.53
10/30/2022 2:15:00 AM 11.11 51.998 0.229 8.45 1.62 12.45
10/30/2022 2:30:00 AM 11.04 51.872 0.229 8.39 1.64 12.35
10/30/2022 2:45:00 AM 10.98 51.764 0.229 8.33 1.62 12.38
10/30/2022 3:00:00 AM 10.92 51.656 0.23 8.28 1.65 12.2
10/30/2022 3:15:00 AM 10.86 51.548 0.23 8.24 1.79 12.13
10/30/2022 3:30:00 AM 10.79 51.422 0.23 8.19 1.72 12.05
10/30/2022 3:45:00 AM 10.73 51.314 0.23 8.15 1.76 11.97
10/30/2022 4:00:00 AM 10.68 51.224 0.23 8.12 1.59 11.99
10/30/2022 4:15:00 AM 11.07 51.926 0.239 8 4.56 12.11
10/30/2022 4:30:00 AM 11.13 52.034 0.238 7.93 2.39 12.13
10/30/2022 4:45:00 AM 10.61 51.098 0.231 7.99 1.61 11.93
10/30/2022 5:00:00 AM 10.47 50.846 0.23 8 1.57 11.74
10/30/2022 5:15:00 AM 10.4 50.72 0.231 7.99 1.64 11.7
10/30/2022 5:30:00 AM 10.34 50.612 0.232 7.97 1.74 11.66
10/30/2022 5:45:00 AM 10.29 50.522 0.232 7.96 1.69 11.64
10/30/2022 6:00:00 AM 10.23 50.414 0.232 7.94 1.6 11.61
10/30/2022 6:15:00 AM 10.17 50.306 0.232 7.93 1.69 11.59
10/30/2022 6:30:00 AM 10.1 50.18 0.232 7.92 1.7 11.58
10/30/2022 6:45:00 AM 10.05 50.09 0.233 7.9 1.94 11.57
10/30/2022 7:00:00 AM 9.99 49.982 0.234 7.89 1.86 11.56
10/30/2022 7:15:00 AM 9.93 49.874 0.234 7.89 1.67 11.67
10/30/2022 7:30:00 AM 9.89 49.802 0.234 7.88 1.93 11.59
10/30/2022 7:45:00 AM 9.85 49.73 0.234 7.88 1.61 11.6
10/30/2022 8:00:00 AM 9.82 49.676 0.234 7.88 1.74 11.66
10/30/2022 8:15:00 AM 9.79 49.622 0.234 7.89 1.68 11.68
10/30/2022 8:30:00 AM 9.76 49.568 0.235 7.89 1.66 11.72
10/30/2022 8:45:00 AM 9.73 49.514 0.235 7.9 1.67 11.78
10/30/2022 9:00:00 AM 9.71 49.478 0.235 7.91 1.61 11.93
10/30/2022 9:15:00 AM 9.71 49.478 0.235 7.92 1.6 11.89
10/30/2022 9:30:00 AM 9.72 49.496 0.235 7.93 1.62 11.98
10/30/2022 9:45:00 AM 9.75 49.55 0.235 7.94 1.63 12.03
10/30/2022 10:00:00 AM 9.8 49.64 0.235 7.96 1.63 12.13
10/30/2022 10:15:00 AM 9.85 49.73 0.235 7.97 1.63 12.28
10/30/2022 10:30:00 AM 9.91 49.838 0.235 7.99 2.28 12.37
10/30/2022 10:45:00 AM 9.97 49.946 0.235 8.01 12 12.42
10/30/2022 11:00:00 AM 10.03 50.054 0.235 8.03 3.94 12.45
10/30/2022 11:15:00 AM 10.95 51.71 0.243 7.89 12.1 12.36
10/30/2022 11:30:00 AM 10.42 50.756 0.237 7.93 134.25 12.45
10/30/2022 11:45:00 AM 10.25 50.45 0.235 8.07 1.62 12.66
10/30/2022 12:00:00 PM 10.31 50.558 0.234 8.13 1.58 12.8
10/30/2022 12:15:00 PM 10.37 50.666 0.234 8.17 1.76 12.89
10/30/2022 12:30:00 PM 10.46 50.828 0.234 8.21 1.6 12.99
10/30/2022 12:45:00 PM 10.54 50.972 0.234 8.24 1.56 13.05
10/30/2022 1:00:00 PM 10.62 51.116 0.234 8.28 1.61 13.14
10/30/2022 1:15:00 PM 10.71 51.278 0.234 8.31 1.59 13.22
10/30/2022 1:30:00 PM 10.8 51.44 0.234 8.35 1.56 13.26
10/30/2022 1:45:00 PM 10.91 51.638 0.234 8.38 1.84 13.34
10/30/2022 2:00:00 PM 11.02 51.836 0.234 8.43 1.56 13.39
10/30/2022 2:15:00 PM 11.1 51.98 0.234 8.46 1.55 13.41
10/30/2022 2:30:00 PM 11.18 52.124 0.234 8.5 1.95 13.5
10/30/2022 2:45:00 PM 11.25 52.25 0.234 8.53 1.52 13.58
10/30/2022 3:00:00 PM 11.31 52.358 0.234 8.57 1.57 13.63
10/30/2022 3:15:00 PM 11.37 52.466 0.233 8.6 1.55 13.68
10/30/2022 3:30:00 PM 11.41 52.538 0.233 8.63 1.52 13.74
10/30/2022 3:45:00 PM 11.44 52.592 0.233 8.66 1.55 13.79
10/30/2022 4:00:00 PM 11.47 52.646 0.233 8.69 1.63 13.85
10/30/2022 4:15:00 PM 11.5 52.7 0.233 8.73 1.68 13.87
10/30/2022 4:30:00 PM 11.51 52.718 0.233 8.75 1.54 13.94
10/30/2022 4:45:00 PM 11.53 52.754 0.233 8.78 1.45 13.98
10/30/2022 5:00:00 PM 11.55 52.79 0.233 8.8 1.51 13.98
10/30/2022 5:15:00 PM 11.56 52.808 0.233 8.81 1.52 13.98
10/30/2022 5:30:00 PM 11.59 52.862 0.233 8.83 1.84 13.99
10/30/2022 5:45:00 PM 11.61 52.898 0.233 8.84 1.55 14.01
10/30/2022 6:00:00 PM 11.63 52.934 0.233 8.87 3.12 14
10/30/2022 6:15:00 PM 11.64 52.952 0.233 8.88 1.52 14.01
10/30/2022 6:30:00 PM 11.66 52.988 0.233 8.9 18.25 14.03
10/30/2022 6:45:00 PM 11.67 53.006 0.233 8.91 5.12 14.02
10/30/2022 7:00:00 PM 11.68 53.024 0.233 8.93 8.31 14.02
10/30/2022 7:15:00 PM 11.7 53.06 0.233 8.95 14.81 14.02
10/30/2022 7:30:00 PM 11.71 53.078 0.232 8.96 17.16 14.03
10/30/2022 7:45:00 PM 11.72 53.096 0.233 8.97 1.53 13.99
10/30/2022 8:00:00 PM 11.73 53.114 0.233 8.98 1.57 13.97
10/30/2022 8:15:00 PM 11.74 53.132 0.232 8.99 4.35 13.94
10/30/2022 8:30:00 PM 11.74 53.132 0.233 8.99 6.35 13.91
10/30/2022 8:45:00 PM 11.75 53.15 0.233 9 25 13.89
10/30/2022 9:00:00 PM 11.74 53.132 0.233 9 43.51 13.85
10/30/2022 9:15:00 PM 11.74 53.132 0.233 9 19.27 13.83
10/30/2022 9:30:00 PM 11.74 53.132 0.233 9 2.02 13.77
10/30/2022 9:45:00 PM 11.73 53.114 0.233 8.99 6.95 13.73
10/30/2022 10:00:00 PM 11.72 53.096 0.233 8.99 13.98 13.68
10/30/2022 10:15:00 PM 11.71 53.078 0.233 8.99 17.71 13.65
10/30/2022 10:30:00 PM 11.7 53.06 0.234 8.98 2.64 13.61
10/30/2022 10:45:00 PM 11.69 53.042 0.234 8.94 1.53 13.56
10/30/2022 11:00:00 PM 11.66 52.988 0.234 8.95 3.13 13.51
10/30/2022 11:15:00 PM 11.63 52.934 0.234 8.95 1.58 13.48
10/30/2022 11:30:00 PM 11.6 52.88 0.235 8.94 1.59 13.44
10/30/2022 11:45:00 PM 11.58 52.844 0.235 8.92 1.59 13.33
10/31/2022 12:00:00 AM 11.55 52.79 0.235 8.9 1.56 13.32
10/31/2022 12:15:00 AM 11.51 52.718 0.235 8.89 2.2 13.25
10/31/2022 12:30:00 AM 11.47 52.646 0.235 8.86 5.92 13.19
10/31/2022 12:45:00 AM 11.44 52.592 0.235 8.84 2.13 13.13
10/31/2022 1:00:00 AM 11.41 52.538 0.235 8.81 7.71 13.06
10/31/2022 1:15:00 AM 11.38 52.484 0.235 8.78 6.78 12.98
10/31/2022 1:30:00 AM 11.34 52.412 0.235 8.74 10.63 12.9
10/31/2022 1:45:00 AM 11.29 52.322 0.236 8.7 15.82 12.82
10/31/2022 2:00:00 AM 11.25 52.25 0.236 8.65 12.85 12.73
10/31/2022 2:15:00 AM 11.21 52.178 0.236 8.6 4.79 12.63
10/31/2022 2:30:00 AM 11.18 52.124 0.236 8.55 4 12.53
10/31/2022 2:45:00 AM 11.15 52.07 0.237 8.49 4.88 12.45
10/31/2022 3:00:00 AM 11.11 51.998 0.237 8.44 3.85 12.34
10/31/2022 3:15:00 AM 11.06 51.908 0.237 8.37 6.17 12.24
10/31/2022 3:30:00 AM 11.02 51.836 0.237 8.32 5.45 12.15
10/31/2022 3:45:00 AM 10.98 51.764 0.237 8.27 3.16 12.06
10/31/2022 4:00:00 AM 10.95 51.71 0.238 8.23 2.3 12
10/31/2022 4:15:00 AM 10.91 51.638 0.237 8.18 1.86 11.91
10/31/2022 4:30:00 AM 10.87 51.566 0.238 8.15 2.55 11.85
10/31/2022 4:45:00 AM 10.84 51.512 0.237 8.12 6.86 11.8
10/31/2022 5:00:00 AM 10.8 51.44 0.238 8.08 6.58 11.73
10/31/2022 5:15:00 AM 10.75 51.35 0.238 8.06 4.7 11.69
10/31/2022 5:30:00 AM 10.7 51.26 0.238 8.03 2.95 11.65
10/31/2022 5:45:00 AM 10.66 51.188 0.238 8.01 4.84 11.6
10/31/2022 6:00:00 AM 10.62 51.116 0.238 7.99 3.31 11.58
10/31/2022 6:15:00 AM 10.57 51.026 0.238 7.97 2 11.54
10/31/2022 6:30:00 AM 10.53 50.954 0.238 7.96 2.05 11.52
10/31/2022 6:45:00 AM 10.49 50.882 0.238 7.94 1.95 11.48
10/31/2022 7:00:00 AM 10.45 50.81 0.238 7.93 1.85 11.48
10/31/2022 7:15:00 AM 10.38 50.684 0.239 7.92 1.76 11.46
10/31/2022 7:30:00 AM 10.35 50.63 0.238 7.92 1.99 11.48
10/31/2022 7:45:00 AM 10.32 50.576 0.239 7.9 1.62 11.5
10/31/2022 8:00:00 AM 10.3 50.54 0.239 7.9 1.65 11.55
10/31/2022 8:15:00 AM 10.29 50.522 0.239 7.91 1.57 11.6
10/31/2022 8:30:00 AM 10.29 50.522 0.239 7.92 1.62 11.67
10/31/2022 8:45:00 AM 10.95 51.71 0.248 7.89 26.28 12.23
10/31/2022 9:00:00 AM 10.94 51.692 0.246 7.87 8.83 12.17
10/31/2022 9:15:00 AM 10.36 50.648 0.24 7.93 4.08 11.88
10/31/2022 9:30:00 AM 10.33 50.594 0.241 7.95 1.67 11.93
10/31/2022 9:45:00 AM 10.34 50.612 0.241 7.97 1.59 11.97
10/31/2022 10:00:00 AM 10.36 50.648 0.242 7.98 1.62 12.05
10/31/2022 10:15:00 AM 10.39 50.702 0.241 8 1.81 12.11
10/31/2022 10:30:00 AM 10.43 50.774 0.242 8.01 1.59 12.25
10/31/2022 10:45:00 AM 10.48 50.864 0.242 8.03 1.66 12.28
10/31/2022 11:00:00 AM 10.53 50.954 0.242 8.05 2.06 12.37
10/31/2022 11:15:00 AM 10.58 51.044 0.243 8.08 1.61 12.45
10/31/2022 11:30:00 AM 10.65 51.17 0.243 8.11 1.76 12.55
10/31/2022 11:45:00 AM 10.73 51.314 0.243 8.14 1.62 12.65
10/31/2022 12:00:00 PM 10.79 51.422 0.243 8.17 1.63 12.74
10/31/2022 12:15:00 PM 10.86 51.548 0.243 8.21 1.58 12.83
10/31/2022 12:30:00 PM 10.93 51.674 0.242 8.24 6.13 12.94
10/31/2022 12:45:00 PM 10.99 51.782 0.242 8.28 1.53 13.01
10/31/2022 1:00:00 PM 11.05 51.89 0.242 8.32 1.59 13.1
10/31/2022 1:15:00 PM 11.08 51.944 0.243 8.35 1.58 13.19
10/31/2022 1:30:00 PM 11.13 52.034 0.243 8.39 1.61 13.26
10/31/2022 1:45:00 PM 11.19 52.142 0.243 8.43 1.57 13.31
10/31/2022 2:00:00 PM 11.23 52.214 0.242 8.46 1.56 13.18
10/31/2022 2:15:00 PM 11.27 52.286 0.242 8.49 1.53 13.42
10/31/2022 2:30:00 PM 11.31 52.358 0.242 8.52 1.57 13.47
10/31/2022 2:45:00 PM 11.32 52.376 0.242 8.54 2.73 13.5
10/31/2022 3:00:00 PM 11.36 52.448 0.242 8.56 1.48 13.54
10/31/2022 3:15:00 PM 11.41 52.538 0.241 8.58 1.56 13.56
10/31/2022 3:30:00 PM 11.43 52.574 0.241 8.6 1.58 13.6
10/31/2022 3:45:00 PM 11.49 52.682 0.242 8.6 2.74 13.56
10/31/2022 4:00:00 PM 11.5 52.7 0.241 8.65 1.62 13.61
10/31/2022 4:15:00 PM 11.52 52.736 0.241 8.67 1.52 13.65
10/31/2022 4:30:00 PM 11.55 52.79 0.241 8.69 1.54 13.67
10/31/2022 4:45:00 PM 11.57 52.826 0.241 8.7 1.67 13.65
10/31/2022 5:00:00 PM 11.59 52.862 0.241 8.73 1.55 13.68
10/31/2022 5:15:00 PM 11.57 52.826 0.249 8.27 94.4 12.67
10/31/2022 5:30:00 PM 11.44 52.592 0.248 8.15 62.87 12.61
10/31/2022 5:45:00 PM 11.64 52.952 0.242 8.71 1.58 13.36
10/31/2022 6:00:00 PM 11.67 53.006 0.241 8.79 1.57 13.68
10/31/2022 6:15:00 PM 11.69 53.042 0.241 8.83 1.74 13.7
10/31/2022 6:30:00 PM 11.71 53.078 0.241 8.84 1.73 13.69
10/31/2022 6:45:00 PM 11.73 53.114 0.241 8.86 1.67 13.68
10/31/2022 7:00:00 PM 11.75 53.15 0.241 8.88 1.58 13.7
10/31/2022 7:15:00 PM 11.77 53.186 0.241 8.9 1.9 13.61
10/31/2022 7:30:00 PM 11.78 53.204 0.241 8.91 1.92 13.55
10/31/2022 7:45:00 PM 11.8 53.24 0.241 8.92 1.62 13.66
10/31/2022 8:00:00 PM 11.82 53.276 0.241 8.93 1.85 13.66
10/31/2022 8:15:00 PM 11.84 53.312 0.241 8.95 1.62 13.64
10/31/2022 8:30:00 PM 11.86 53.348 0.241 8.95 1.76 13.61
10/31/2022 8:45:00 PM 11.87 53.366 0.241 8.96 1.91 13.59
10/31/2022 9:00:00 PM 11.89 53.402 0.241 8.96 1.73 13.57
10/31/2022 9:15:00 PM 11.9 53.42 0.241 8.96 1.64 13.11
10/31/2022 9:30:00 PM 11.9 53.42 0.241 8.96 1.67 13.49
10/31/2022 9:45:00 PM 11.91 53.438 0.241 8.96 1.63 13.47
10/31/2022 10:00:00 PM 11.92 53.456 0.241 8.95 1.62 13.44
10/31/2022 10:15:00 PM 11.92 53.456 0.241 8.94 1.62 13.39
10/31/2022 10:30:00 PM 11.93 53.474 0.241 8.93 1.71 13.35
10/31/2022 10:45:00 PM 11.93 53.474 0.241 8.92 1.69 13.29
10/31/2022 11:00:00 PM 11.93 53.474 0.242 8.91 1.54 13.26
10/31/2022 11:15:00 PM 11.93 53.474 0.242 8.9 1.62 13.2
10/31/2022 11:30:00 PM 11.93 53.474 0.242 8.89 1.5 13.15
10/31/2022 11:45:00 PM 11.93 53.474 0.242 8.87 1.56 13.1
11/1/2022 12:00:00 AM 11.93 53.474 0.241 8.85 1.58 13.02
11/1/2022 12:15:00 AM 11.92 53.456 0.241 8.82 1.55 12.95
11/1/2022 12:30:00 AM 11.92 53.456 0.241 8.8 1.57 12.87
11/1/2022 12:45:00 AM 11.92 53.456 0.241 8.75 1.66 12.76
11/1/2022 1:00:00 AM 11.92 53.456 0.242 8.71 1.65 12.7
11/1/2022 1:15:00 AM 11.92 53.456 0.242 8.67 1.62 12.61
11/1/2022 1:30:00 AM 11.75 53.15 0.25 8.19 5.59 12.26
11/1/2022 1:45:00 AM 11.84 53.312 0.248 8.18 2.01 12.25
11/1/2022 2:00:00 AM 11.91 53.438 0.243 8.47 1.9 12.32
11/1/2022 2:15:00 AM 11.9 53.42 0.242 8.46 1.77 12.26
11/1/2022 2:30:00 AM 11.9 53.42 0.242 8.41 1.66 12.17
11/1/2022 2:45:00 AM 11.89 53.402 0.243 8.36 1.75 12.08
11/1/2022 3:00:00 AM 11.89 53.402 0.243 8.32 1.63 12
11/1/2022 3:15:00 AM 11.88 53.384 0.243 8.27 1.63 11.92
11/1/2022 3:30:00 AM 11.87 53.366 0.243 8.23 1.82 11.86
11/1/2022 3:45:00 AM 11.87 53.366 0.243 8.2 2.21 11.81
11/1/2022 4:00:00 AM 11.86 53.348 0.243 8.16 2 11.73
11/1/2022 4:15:00 AM 11.85 53.33 0.243 8.12 2.11 11.65
11/1/2022 4:30:00 AM 11.84 53.312 0.243 8.09 1.74 11.59
11/1/2022 4:45:00 AM 11.83 53.294 0.243 8.07 1.66 11.55
11/1/2022 5:00:00 AM 11.83 53.294 0.243 8.04 1.56 11.48
11/1/2022 5:15:00 AM 11.82 53.276 0.243 8.01 1.66 11.43
11/1/2022 5:30:00 AM 11.81 53.258 0.244 7.99 1.59 11.4
11/1/2022 5:45:00 AM 11.8 53.24 0.244 7.98 1.83 11.35
11/1/2022 6:00:00 AM 11.79 53.222 0.244 7.96 1.65 11.3
11/1/2022 6:15:00 AM 11.79 53.222 0.244 7.94 1.67 11.28
11/1/2022 6:30:00 AM 11.78 53.204 0.244 7.93 1.73 11.22
11/1/2022 6:45:00 AM 11.77 53.186 0.244 7.91 1.7 11.19
11/1/2022 7:00:00 AM 11.76 53.168 0.245 7.9 1.77 11.14
11/1/2022 7:15:00 AM 11.75 53.15 0.245 7.89 1.78 11.13
11/1/2022 7:30:00 AM 11.75 53.15 0.245 7.88 1.62 11.09
11/1/2022 7:45:00 AM 11.74 53.132 0.245 7.87 1.68 11.11
11/1/2022 8:00:00 AM 11.75 53.15 0.246 7.87 1.6 11.13
11/1/2022 8:15:00 AM 11.77 53.186 0.246 7.88 1.72 11.21
11/1/2022 8:30:00 AM 11.78 53.204 0.246 7.89 1.66 11.3
11/1/2022 8:45:00 AM 11.79 53.222 0.246 7.89 1.78 11.34
11/1/2022 9:00:00 AM 11.8 53.24 0.246 7.91 1.71 11.4
11/1/2022 9:15:00 AM 11.81 53.258 0.246 7.91 1.64 11.43
11/1/2022 9:30:00 AM 11.82 53.276 0.247 7.91 1.62 11.43
11/1/2022 9:45:00 AM 11.83 53.294 0.247 7.91 1.6 11.43
11/1/2022 10:00:00 AM 11.84 53.312 0.247 7.92 1.58 11.44
11/1/2022 10:15:00 AM 11.86 53.348 0.247 7.93 1.6 11.52
11/1/2022 10:30:00 AM 11.88 53.384 0.247 7.94 1.56 11.6
11/1/2022 10:45:00 AM 11.91 53.438 0.249 7.95 35.54 11.92
11/1/2022 11:00:00 AM 11.94 53.492 0.248 7.97 30.35 11.96
11/1/2022 11:15:00 AM 11.99 53.582 0.247 8 4.83 12.01
11/1/2022 11:30:00 AM 12.03 53.654 0.247 8.03 1.75 12.07
11/1/2022 11:45:00 AM 12.07 53.726 0.247 8.06 1.84 12.15
11/1/2022 12:00:00 PM 12.12 53.816 0.247 8.09 1.71 12.25
11/1/2022 12:15:00 PM 12.15 53.87 0.246 8.11 1.77 12.31
11/1/2022 12:30:00 PM 12.18 53.924 0.246 8.14 1.75 12.41
11/1/2022 12:45:00 PM 12.24 54.032 0.246 8.17 1.75 12.5
11/1/2022 1:00:00 PM 12.3 54.14 0.246 8.2 1.67 12.58
11/1/2022 1:15:00 PM 12.33 54.194 0.246 8.23 3.61 12.66
11/1/2022 1:30:00 PM 12.37 54.266 0.246 8.26 1.77 12.72
11/1/2022 1:45:00 PM 12.41 54.338 0.245 8.29 1.56 12.79
11/1/2022 2:00:00 PM 12.45 54.41 0.245 8.32 1.73 12.84
11/1/2022 2:15:00 PM 12.5 54.5 0.245 8.36 1.51 12.95
11/1/2022 2:30:00 PM 12.56 54.608 0.245 8.4 1.7 13.05
11/1/2022 2:45:00 PM 12.61 54.698 0.245 8.44 1.78 13.12
11/1/2022 3:00:00 PM 12.68 54.824 0.245 8.49 1.59 13.2
11/1/2022 3:15:00 PM 12.72 54.896 0.245 8.52 1.54 13.26
11/1/2022 3:30:00 PM 12.75 54.95 0.244 8.55 1.75 13.31
11/1/2022 3:45:00 PM 12.77 54.986 0.245 8.58 1.58 13.36
11/1/2022 4:00:00 PM 12.77 54.986 0.245 8.61 1.58 13.39
11/1/2022 4:15:00 PM 12.76 54.968 0.245 8.62 1.73 13.37
11/1/2022 4:30:00 PM 12.77 54.986 0.245 8.64 1.57 13.41
11/1/2022 4:45:00 PM 12.77 54.986 0.245 8.64 1.53 13.4
11/1/2022 5:00:00 PM 12.77 54.986 0.245 8.65 1.56 13.36
11/1/2022 5:15:00 PM 12.8 55.04 0.245 8.66 1.53 13.41
11/1/2022 5:30:00 PM 12.82 55.076 0.244 8.67 1.55 13.38
11/1/2022 5:45:00 PM 12.85 55.13 0.245 8.68 1.51 13.39
11/1/2022 6:00:00 PM 12.87 55.166 0.244 8.7 1.59 13.39
11/1/2022 6:15:00 PM 12.63 54.734 0.252 8.24 23.01 12.45
11/1/2022 6:30:00 PM 12.82 55.076 0.247 8.48 1.55 12.74
11/1/2022 6:45:00 PM 12.93 55.274 0.245 8.74 1.82 13.44
11/1/2022 7:00:00 PM 12.94 55.292 0.245 8.76 1.64 13.44
11/1/2022 7:15:00 PM 12.96 55.328 0.245 8.79 1.62 13.44
11/1/2022 7:30:00 PM 12.97 55.346 0.242 8.82 1.8 13.48
11/1/2022 7:45:00 PM 12.97 55.346 0.244 8.85 1.59 13.49
11/1/2022 8:00:00 PM 12.98 55.364 0.244 8.87 1.59 13.51
11/1/2022 8:15:00 PM 12.99 55.382 0.244 8.89 1.58 13.51
11/1/2022 8:30:00 PM 12.99 55.382 0.244 8.9 1.62 13.51
11/1/2022 8:45:00 PM 12.99 55.382 0.244 8.92 1.61 13.48
11/1/2022 9:00:00 PM 12.99 55.382 0.244 8.92 1.55 13.47
11/1/2022 9:15:00 PM 13 55.4 0.244 8.92 1.59 13.42
11/1/2022 9:30:00 PM 13 55.4 0.244 8.93 1.58 13.43
11/1/2022 9:45:00 PM 12.99 55.382 0.244 8.93 1.62 13.41
11/1/2022 10:00:00 PM 12.99 55.382 0.245 8.93 1.57 13.38
11/1/2022 10:15:00 PM 12.98 55.364 0.245 8.93 1.61 13.35
11/1/2022 10:30:00 PM 12.97 55.346 0.245 8.93 1.59 13.32
11/1/2022 10:45:00 PM 12.96 55.328 0.245 8.93 1.6 13.24
11/1/2022 11:00:00 PM 12.95 55.31 0.245 8.93 1.67 13.24
11/1/2022 11:15:00 PM 12.94 55.292 0.244 8.92 1.63 13.22
11/1/2022 11:30:00 PM 12.94 55.292 0.245 8.92 1.63 13.19
11/1/2022 11:45:00 PM 12.93 55.274 0.245 8.91 1.95 13.16
11/2/2022 12:00:00 AM 12.93 55.274 0.245 8.9 1.62 13.11
11/2/2022 12:15:00 AM 12.91 55.238 0.245 8.89 1.71 13.07
11/2/2022 12:30:00 AM 12.91 55.238 0.245 8.88 1.6 13
11/2/2022 12:45:00 AM 12.89 55.202 0.246 8.86 1.58 12.95
11/2/2022 1:00:00 AM 12.88 55.184 0.246 8.83 1.62 12.88
11/2/2022 1:15:00 AM 12.63 54.734 0.256 8.21 5.05 12.15
11/2/2022 1:30:00 AM 12.75 54.95 0.254 8.13 2.65 12.06
11/2/2022 1:45:00 AM 12.81 55.058 0.247 8.64 1.7 12.49
11/2/2022 2:00:00 AM 12.78 55.004 0.247 8.64 1.62 12.47
11/2/2022 2:15:00 AM 12.75 54.95 0.247 8.6 1.57 12.36
11/2/2022 2:30:00 AM 12.72 54.896 0.248 8.55 1.61 12.28
11/2/2022 2:45:00 AM 12.69 54.842 0.248 8.5 1.6 12.16
11/2/2022 3:00:00 AM 12.66 54.788 0.248 8.44 1.66 12.02
11/2/2022 3:15:00 AM 12.63 54.734 0.249 8.39 1.58 11.93
11/2/2022 3:30:00 AM 12.61 54.698 0.249 8.34 1.57 11.86
11/2/2022 3:45:00 AM 12.58 54.644 0.249 8.3 1.58 11.78
11/2/2022 4:00:00 AM 12.55 54.59 0.249 8.25 1.6 11.69
11/2/2022 4:15:00 AM 12.52 54.536 0.25 8.2 1.55 11.61
11/2/2022 4:30:00 AM 12.49 54.482 0.25 8.17 1.75 11.55
11/2/2022 4:45:00 AM 12.47 54.446 0.25 8.13 2 11.47
11/2/2022 5:00:00 AM 12.44 54.392 0.25 8.09 1.63 11.4
11/2/2022 5:15:00 AM 12.42 54.356 0.251 8.06 1.75 11.36
11/2/2022 5:30:00 AM 12.38 54.284 0.25 8.03 1.64 11.3
11/2/2022 5:45:00 AM 12.34 54.212 0.25 8.01 1.67 11.23
11/2/2022 6:00:00 AM 12.3 54.14 0.251 7.98 1.65 11.17
11/2/2022 6:15:00 AM 12.26 54.068 0.251 7.96 1.65 11.14
11/2/2022 6:30:00 AM 12.22 53.996 0.251 7.94 1.85 11.1
11/2/2022 6:45:00 AM 12.18 53.924 0.25 7.93 2.09 11.02
11/2/2022 7:00:00 AM 12.14 53.852 0.25 7.91 1.6 11.04
11/2/2022 7:15:00 AM 12.1 53.78 0.25 7.9 1.63 11
11/2/2022 7:30:00 AM 12.07 53.726 0.25 7.88 1.67 10.98
11/2/2022 7:45:00 AM 12.04 53.672 0.25 7.88 1.59 10.97
11/2/2022 8:00:00 AM 12.01 53.618 0.25 7.87 1.63 10.98
11/2/2022 8:15:00 AM 11.98 53.564 0.249 7.87 1.63 11.03
11/2/2022 8:30:00 AM 11.96 53.528 0.249 7.88 1.59 11.11
11/2/2022 8:45:00 AM 11.95 53.51 0.249 7.89 1.64 11.16
11/2/2022 9:00:00 AM 11.95 53.51 0.249 7.89 1.61 11.26
11/2/2022 9:15:00 AM 11.96 53.528 0.249 7.9 1.59 11.32
11/2/2022 9:30:00 AM 11.97 53.546 0.249 7.91 1.6 11.4
11/2/2022 9:45:00 AM 12 53.6 0.249 7.93 1.54 11.46
11/2/2022 10:00:00 AM 12.03 53.654 0.249 7.95 1.74 11.55
11/2/2022 10:15:00 AM 12.07 53.726 0.249 7.96 1.57 11.61
11/2/2022 10:30:00 AM 12.12 53.816 0.248 7.98 1.56 11.7
11/2/2022 10:45:00 AM 12.18 53.924 0.248 8 1.56 11.79
11/2/2022 11:00:00 AM 12.24 54.032 0.248 8.02 1.52 11.89
11/2/2022 11:15:00 AM 12.31 54.158 0.248 8.04 1.53 11.97
11/2/2022 11:30:00 AM 12.38 54.284 0.248 8.06 1.54 12.07
11/2/2022 11:45:00 AM 12.44 54.392 0.248 8.08 1.62 12.17
11/2/2022 12:00:00 PM 12.65 54.77 0.253 8.05 100.29 12.21
11/2/2022 12:15:00 PM 12.71 54.878 0.255 7.98 6.11 12.04
11/2/2022 12:30:00 PM 12.69 54.842 0.248 8.1 1.54 12.31
11/2/2022 12:45:00 PM 12.79 55.022 0.247 8.2 1.75 12.56
11/2/2022 1:00:00 PM 12.87 55.166 0.247 8.23 1.56 12.66
11/2/2022 1:15:00 PM 12.95 55.31 0.246 8.27 3.95 12.72
11/2/2022 1:30:00 PM 13.03 55.454 0.246 8.31 1.56 12.82
11/2/2022 1:45:00 PM 13.11 55.598 0.245 8.34 1.62 12.91
11/2/2022 2:00:00 PM 13.18 55.724 0.246 8.37 1.57 12.97
11/2/2022 2:15:00 PM 13.24 55.832 0.246 8.41 1.54 13.04
11/2/2022 2:30:00 PM 13.31 55.958 0.246 8.44 1.58 13.1
11/2/2022 2:45:00 PM 13.37 56.066 0.245 8.47 6.35 13.17
11/2/2022 3:00:00 PM 13.41 56.138 0.245 8.51 1.53 12.9
11/2/2022 3:15:00 PM 13.46 56.228 0.245 8.54 1.6 13.31
11/2/2022 3:30:00 PM 13.5 56.3 0.245 8.57 1.53 13.38
11/2/2022 3:45:00 PM 13.53 56.354 0.245 8.61 1.49 13.37
11/2/2022 4:00:00 PM 13.55 56.39 0.245 8.64 1.6 13.47
11/2/2022 4:15:00 PM 13.55 56.39 0.245 8.66 1.54 13.52
11/2/2022 4:30:00 PM 13.55 56.39 0.245 8.68 1.59 13.55
11/2/2022 4:45:00 PM 13.56 56.408 0.245 8.7 1.55 13.58
11/2/2022 5:00:00 PM 13.56 56.408 0.245 8.71 1.57 13.59
11/2/2022 5:15:00 PM 13.57 56.426 0.245 8.74 1.78 13.61
11/2/2022 5:30:00 PM 13.58 56.444 0.246 8.76 1.68 13.64
11/2/2022 5:45:00 PM 13.59 56.462 0.246 8.78 1.64 13.66
11/2/2022 6:00:00 PM 13.35 56.03 0.255 8.37 3.75 12.56
11/2/2022 6:15:00 PM 13.32 55.976 0.255 8.29 2.22 12.48
11/2/2022 6:30:00 PM 13.59 56.462 0.246 8.84 1.62 13.72
11/2/2022 6:45:00 PM 13.59 56.462 0.246 8.89 1.61 13.76
11/2/2022 7:00:00 PM 13.59 56.462 0.246 8.92 6.99 13.81
11/2/2022 7:15:00 PM 13.59 56.462 0.244 8.94 2.42 13.82
11/2/2022 7:30:00 PM 13.59 56.462 0.245 8.97 1.73 13.84
11/2/2022 7:45:00 PM 13.59 56.462 0.246 8.97 1.62 13.81
11/2/2022 8:00:00 PM 13.59 56.462 0.246 9 1.58 13.82
11/2/2022 8:15:00 PM 13.58 56.444 0.246 9.01 1.57 13.79
11/2/2022 8:30:00 PM 13.58 56.444 0.246 9.02 2 13.78
11/2/2022 8:45:00 PM 13.57 56.426 0.246 9.02 1.59 13.7
11/2/2022 9:00:00 PM 13.57 56.426 0.246 9.03 1.6 13.75
11/2/2022 9:15:00 PM 13.56 56.408 0.246 9.03 1.68 13.71
11/2/2022 9:30:00 PM 13.54 56.372 0.246 9.03 1.61 13.65
11/2/2022 9:45:00 PM 13.53 56.354 0.246 9.02 1.56 13.61
11/2/2022 10:00:00 PM 13.51 56.318 0.246 9.02 1.6 13.58
11/2/2022 10:15:00 PM 13.49 56.282 0.246 9.01 1.63 13.47
11/2/2022 10:30:00 PM 13.47 56.246 0.246 9 1.62 13.46
11/2/2022 10:45:00 PM 13.44 56.192 0.246 8.99 1.61 13.41
11/2/2022 11:00:00 PM 13.42 56.156 0.246 8.98 1.82 13.32
11/2/2022 11:15:00 PM 13.39 56.102 0.246 8.98 1.59 13.34
11/2/2022 11:30:00 PM 13.35 56.03 0.246 8.97 1.6 13.28
11/2/2022 11:45:00 PM 13.32 55.976 0.245 8.95 1.61 13.17
11/3/2022 12:00:00 AM 13.28 55.904 0.245 8.93 1.63 13.14
11/3/2022 12:15:00 AM 13.24 55.832 0.245 8.91 1.59 13.07
11/3/2022 12:30:00 AM 13.19 55.742 0.245 8.89 1.59 13.02
11/3/2022 12:45:00 AM 13.12 55.616 0.254 8.44 3.62 12.34
11/3/2022 1:00:00 AM 13.16 55.688 0.251 8.45 1.8 12.42
11/3/2022 1:15:00 AM 13.05 55.49 0.245 8.76 1.66 12.74
11/3/2022 1:30:00 AM 13 55.4 0.245 8.72 1.63 12.63
11/3/2022 1:45:00 AM 12.95 55.31 0.245 8.68 1.63 12.52
11/3/2022 2:00:00 AM 12.9 55.22 0.246 8.63 1.57 12.41
11/3/2022 2:15:00 AM 12.85 55.13 0.246 8.57 1.71 12.3
11/3/2022 2:30:00 AM 12.81 55.058 0.246 8.51 1.63 12.2
11/3/2022 2:45:00 AM 12.75 54.95 0.246 8.46 1.7 12.12
11/3/2022 3:00:00 AM 12.69 54.842 0.246 8.39 1.92 12
11/3/2022 3:15:00 AM 12.64 54.752 0.247 8.34 1.61 11.91
11/3/2022 3:30:00 AM 12.59 54.662 0.247 8.29 1.69 11.83
11/3/2022 3:45:00 AM 12.53 54.554 0.247 8.24 1.6 11.8
11/3/2022 4:00:00 AM 12.48 54.464 0.248 8.2 1.61 11.65
11/3/2022 4:15:00 AM 12.43 54.374 0.248 8.16 1.94 11.58
11/3/2022 4:30:00 AM 12.37 54.266 0.248 8.12 1.59 11.49
11/3/2022 4:45:00 AM 12.32 54.176 0.248 8.09 1.56 11.44
11/3/2022 5:00:00 AM 12.26 54.068 0.248 8.06 1.61 11.38
11/3/2022 5:15:00 AM 12.2 53.96 0.248 8.03 1.58 11.34
11/3/2022 5:30:00 AM 12.15 53.87 0.249 8.01 1.55 11.29
11/3/2022 5:45:00 AM 12.1 53.78 0.249 7.99 1.65 11.25
11/3/2022 6:00:00 AM 12.05 53.69 0.249 7.97 1.63 11.21
11/3/2022 6:15:00 AM 12 53.6 0.249 7.95 1.66 11.19
11/3/2022 6:30:00 AM 11.94 53.492 0.249 7.93 1.59 11.16
11/3/2022 6:45:00 AM 11.89 53.402 0.249 7.92 1.63 11.13
11/3/2022 7:00:00 AM 11.83 53.294 0.249 7.91 1.7 11.12
11/3/2022 7:15:00 AM 11.79 53.222 0.249 7.9 1.74 11.1
11/3/2022 7:30:00 AM 11.75 53.15 0.25 7.89 1.64 11.16
11/3/2022 7:45:00 AM 11.71 53.078 0.25 7.88 1.67 11.11
11/3/2022 8:00:00 AM 11.68 53.024 0.25 7.88 1.64 11.19
11/3/2022 8:15:00 AM 11.65 52.97 0.25 7.88 1.7 11.21
11/3/2022 8:30:00 AM 11.62 52.916 0.251 7.89 1.66 11.27
11/3/2022 8:45:00 AM 11.6 52.88 0.251 7.9 1.76 11.35
11/3/2022 9:00:00 AM 11.58 52.844 0.251 7.91 1.67 11.42
11/3/2022 9:15:00 AM 11.58 52.844 0.251 7.93 1.6 11.65
11/3/2022 9:30:00 AM 11.59 52.862 0.251 7.94 1.62 11.57
11/3/2022 9:45:00 AM 11.6 52.88 0.252 7.95 1.61 11.62
11/3/2022 10:00:00 AM 11.61 52.898 0.252 7.96 1.6 11.71
11/3/2022 10:15:00 AM 12.39 54.302 0.26 7.92 2.52 11.88
11/3/2022 10:30:00 AM 12.1 53.78 0.256 7.93 17.44 12.01
11/3/2022 10:45:00 AM 11.74 53.132 0.252 8 1.66 11.97
11/3/2022 11:00:00 AM 11.8 53.24 0.252 8.03 1.63 12.09
11/3/2022 11:15:00 AM 11.88 53.384 0.252 8.06 1.61 12.19
11/3/2022 11:30:00 AM 11.95 53.51 0.252 8.08 1.6 12.27
11/3/2022 11:45:00 AM 12.03 53.654 0.252 8.11 1.6 12.34
11/3/2022 12:00:00 PM 12.1 53.78 0.252 8.14 1.63 12.44
11/3/2022 12:15:00 PM 12.19 53.942 0.252 8.17 1.6 12.53
11/3/2022 12:30:00 PM 12.29 54.122 0.251 8.21 1.61 12.63
11/3/2022 12:45:00 PM 12.36 54.248 0.251 8.24 1.64 12.72
11/3/2022 1:00:00 PM 12.45 54.41 0.251 8.28 1.68 12.81
11/3/2022 1:15:00 PM 12.53 54.554 0.251 8.31 1.58 12.88
11/3/2022 1:30:00 PM 12.6 54.68 0.25 8.35 1.57 12.97
11/3/2022 1:45:00 PM 12.68 54.824 0.25 8.39 1.62 13.04
11/3/2022 2:00:00 PM 12.75 54.95 0.249 8.42 1.67 13.11
11/3/2022 2:15:00 PM 12.81 55.058 0.25 8.45 1.56 13.2
11/3/2022 2:30:00 PM 12.86 55.148 0.249 8.49 1.58 13.25
11/3/2022 2:45:00 PM 12.91 55.238 0.249 8.52 1.6 13.28
11/3/2022 3:00:00 PM 12.95 55.31 0.249 8.55 1.54 13.36
11/3/2022 3:15:00 PM 12.99 55.382 0.249 8.58 1.81 13.41
11/3/2022 3:30:00 PM 13.02 55.436 0.248 8.62 1.6 13.43
11/3/2022 3:45:00 PM 13.05 55.49 0.248 8.64 1.51 13.51
11/3/2022 4:00:00 PM 13.07 55.526 0.248 8.67 1.58 13.57
11/3/2022 4:15:00 PM 13.08 55.544 0.248 8.7 1.6 13.59
11/3/2022 4:30:00 PM 13.08 55.544 0.248 8.72 1.54 13.6
11/3/2022 4:45:00 PM 13.09 55.562 0.248 8.74 1.53 13.63
11/3/2022 5:00:00 PM 13.08 55.544 0.248 8.75 1.56 13.6
11/3/2022 5:15:00 PM 13.1 55.58 0.248 8.77 1.59 13.6
11/3/2022 5:30:00 PM 13.11 55.598 0.248 8.79 1.51 13.66
11/3/2022 5:45:00 PM 13.13 55.634 0.248 8.81 1.51 13.67
11/3/2022 6:00:00 PM 13.13 55.634 0.248 8.84 1.57 13.7
11/3/2022 6:15:00 PM 13.14 55.652 0.248 8.86 1.62 13.71
11/3/2022 6:30:00 PM 13.13 55.634 0.257 8.43 3.43 12.58
11/3/2022 6:45:00 PM 13.04 55.472 0.254 8.46 30.59 12.77
11/3/2022 7:00:00 PM 13.13 55.634 0.247 8.91 1.55 13.44
11/3/2022 7:15:00 PM 13.13 55.634 0.247 8.94 1.56 13.66
11/3/2022 7:30:00 PM 13.12 55.616 0.247 8.97 1.56 13.79
11/3/2022 7:45:00 PM 13.11 55.598 0.247 8.98 1.64 13.79
11/3/2022 8:00:00 PM 13.11 55.598 0.247 9 1.62 13.77
11/3/2022 8:15:00 PM 13.1 55.58 0.246 9.01 1.61 13.74
11/3/2022 8:30:00 PM 13.09 55.562 0.246 9.03 1.57 13.76
11/3/2022 8:45:00 PM 13.08 55.544 0.245 9.04 1.69 13.74
11/3/2022 9:00:00 PM 13.07 55.526 0.246 9.04 1.69 13.71
11/3/2022 9:15:00 PM 13.05 55.49 0.246 9.04 1.59 13.68
11/3/2022 9:30:00 PM 13.04 55.472 0.246 9.03 1.66 13.63
11/3/2022 9:45:00 PM 13.02 55.436 0.245 9.04 1.64 13.59
11/3/2022 10:00:00 PM 13 55.4 0.246 9.02 1.74 13.57
11/3/2022 10:15:00 PM 12.98 55.364 0.245 9.02 1.6 13.52
11/3/2022 10:30:00 PM 12.96 55.328 0.246 9.01 2.09 13.46
11/3/2022 10:45:00 PM 12.93 55.274 0.246 9 1.6 13.45
11/3/2022 11:00:00 PM 12.91 55.238 0.246 9 1.63 13.4
11/3/2022 11:15:00 PM 12.88 55.184 0.246 8.99 1.58 13.32
11/3/2022 11:30:00 PM 12.84 55.112 0.246 8.98 1.65 13.3
11/3/2022 11:45:00 PM 12.81 55.058 0.246 8.96 1.82 13.25
11/4/2022 12:00:00 AM 12.77 54.986 0.246 8.94 1.73 13.19
11/4/2022 12:15:00 AM 12.73 54.914 0.245 8.92 1.61 13.14
11/4/2022 12:30:00 AM 12.69 54.842 0.247 8.9 1.68 13.06
11/4/2022 12:45:00 AM 12.65 54.77 0.246 8.87 1.58 12.98
11/4/2022 1:00:00 AM 12.6 54.68 0.247 8.84 1.62 12.9
11/4/2022 1:15:00 AM 12.56 54.608 0.247 8.8 1.66 12.8
11/4/2022 1:30:00 AM 12.7 54.86 0.255 8.29 1.83 12.21
11/4/2022 1:45:00 AM 12.6 54.68 0.251 8.35 2.98 12.29
11/4/2022 2:00:00 AM 12.42 54.356 0.246 8.64 1.69 12.49
11/4/2022 2:15:00 AM 12.37 54.266 0.247 8.59 1.66 12.39
11/4/2022 2:30:00 AM 12.31 54.158 0.247 8.53 1.76 12.3
11/4/2022 2:45:00 AM 12.27 54.086 0.247 8.48 1.64 12.2
11/4/2022 3:00:00 AM 12.21 53.978 0.247 8.42 1.68 12.1
11/4/2022 3:15:00 AM 12.17 53.906 0.247 8.37 1.66 12.02
11/4/2022 3:30:00 AM 12.11 53.798 0.247 8.31 1.61 11.92
11/4/2022 3:45:00 AM 12.06 53.708 0.247 8.26 1.68 11.84
11/4/2022 4:00:00 AM 12 53.6 0.247 8.22 1.69 11.75
11/4/2022 4:15:00 AM 11.95 53.51 0.247 8.17 1.64 11.68
11/4/2022 4:30:00 AM 11.89 53.402 0.247 8.14 1.63 11.61
11/4/2022 4:45:00 AM 11.84 53.312 0.247 8.11 1.7 11.57
11/4/2022 5:00:00 AM 11.78 53.204 0.246 8.08 1.69 11.5
11/4/2022 5:15:00 AM 11.73 53.114 0.246 8.05 1.79 11.46
11/4/2022 5:30:00 AM 11.67 53.006 0.246 8.03 1.78 11.41
11/4/2022 5:45:00 AM 11.61 52.898 0.245 8.01 1.65 11.37
11/4/2022 6:00:00 AM 11.56 52.808 0.245 7.99 1.69 11.34
11/4/2022 6:15:00 AM 11.51 52.718 0.245 7.97 1.65 11.31
11/4/2022 6:30:00 AM 11.45 52.61 0.244 7.95 1.71 11.37
11/4/2022 6:45:00 AM 11.38 52.484 0.244 7.94 1.64 11.27
11/4/2022 7:00:00 AM 11.33 52.394 0.244 7.92 1.61 11.24
11/4/2022 7:15:00 AM 11.28 52.304 0.244 7.91 1.69 11.24
11/4/2022 7:30:00 AM 11.24 52.232 0.244 7.91 1.62 11.24
11/4/2022 7:45:00 AM 11.2 52.16 0.244 7.9 1.68 11.27
11/4/2022 8:00:00 AM 11.16 52.088 0.244 7.9 1.63 11.3
11/4/2022 8:15:00 AM 11.13 52.034 0.244 7.91 1.67 11.36
11/4/2022 8:30:00 AM 11.1 51.98 0.244 7.92 1.62 11.43
11/4/2022 8:45:00 AM 11.09 51.962 0.243 7.93 1.58 11.48
11/4/2022 9:00:00 AM 11.08 51.944 0.244 7.94 1.61 11.55
11/4/2022 9:15:00 AM 11.08 51.944 0.243 7.95 1.63 11.64
11/4/2022 9:30:00 AM 11.09 51.962 0.244 7.96 1.6 11.73
11/4/2022 9:45:00 AM 11.1 51.98 0.244 7.97 1.58 11.79
11/4/2022 10:00:00 AM 11.86 53.348 0.255 7.96 5.07 11.93
11/4/2022 10:15:00 AM 11.75 53.15 0.252 7.94 1.92 12.02
11/4/2022 10:30:00 AM 11.24 52.232 0.244 7.99 1.61 11.96
11/4/2022 10:45:00 AM 11.28 52.304 0.244 8.01 1.59 12.06
11/4/2022 11:00:00 AM 11.35 52.43 0.244 8.03 1.63 12.16
11/4/2022 11:15:00 AM 11.44 52.592 0.244 8.05 1.63 12.24
11/4/2022 11:30:00 AM 11.52 52.736 0.244 8.08 1.67 12.32
11/4/2022 11:45:00 AM 11.61 52.898 0.244 8.1 1.82 12.41
11/4/2022 12:00:00 PM 11.7 53.06 0.243 8.13 1.65 12.5
11/4/2022 12:15:00 PM 11.8 53.24 0.244 8.16 1.93 12.59
11/4/2022 12:30:00 PM 11.91 53.438 0.244 8.19 1.83 12.66
11/4/2022 12:45:00 PM 12 53.6 0.244 8.22 1.6 12.78
11/4/2022 1:00:00 PM 12.12 53.816 0.243 8.25 1.56 12.86
11/4/2022 1:15:00 PM 12.21 53.978 0.243 8.28 1.61 12.84
11/4/2022 1:30:00 PM 12.31 54.158 0.243 8.32 1.6 12.87
11/4/2022 1:45:00 PM 12.38 54.284 0.243 8.35 1.53 13.05
11/4/2022 2:00:00 PM 12.46 54.428 0.243 8.38 1.58 13.12
11/4/2022 2:15:00 PM 12.54 54.572 0.243 8.41 1.81 13.18
11/4/2022 2:30:00 PM 12.6 54.68 0.243 8.45 1.59 13.23
11/4/2022 2:45:00 PM 12.67 54.806 0.243 8.48 1.58 13.09
11/4/2022 3:00:00 PM 12.72 54.896 0.243 8.51 1.63 13.38
11/4/2022 3:15:00 PM 12.78 55.004 0.243 8.54 1.58 13.2
11/4/2022 3:30:00 PM 12.82 55.076 0.244 8.57 3 13.43
11/4/2022 3:45:00 PM 12.86 55.148 0.244 8.6 1.65 13.24
11/4/2022 4:00:00 PM 12.9 55.22 0.244 8.63 1.57 13.39
11/4/2022 4:15:00 PM 12.93 55.274 0.245 8.65 1.58 13.58
11/4/2022 4:30:00 PM 12.95 55.31 0.245 8.69 1.66 13.62
11/4/2022 4:45:00 PM 12.97 55.346 0.246 8.71 1.64 13.6
11/4/2022 5:00:00 PM 12.98 55.364 0.246 8.74 1.61 13.66
11/4/2022 5:15:00 PM 13 55.4 0.245 8.76 1.57 13.61
11/4/2022 5:30:00 PM 13.02 55.436 0.246 8.77 1.58 13.6
11/4/2022 5:45:00 PM 13.04 55.472 0.246 8.78 1.56 13.59
11/4/2022 6:00:00 PM 13.06 55.508 0.247 8.79 1.56 13.58
11/4/2022 6:15:00 PM 13.11 55.598 0.251 8.71 8.72 13.12
11/4/2022 6:30:00 PM 12.91 55.238 0.253 8.36 3.41 12.5
11/4/2022 6:45:00 PM 13.06 55.508 0.247 8.72 1.88 13.37
11/4/2022 7:00:00 PM 13.1 55.58 0.246 8.88 1.61 13.51
11/4/2022 7:15:00 PM 13.11 55.598 0.246 8.9 5.75 13.54
11/4/2022 7:30:00 PM 13.1 55.58 0.246 8.93 3.15 13.66
11/4/2022 7:45:00 PM 13.11 55.598 0.245 8.94 1.79 13.63
11/4/2022 8:00:00 PM 13.11 55.598 0.245 8.96 1.62 13.64
11/4/2022 8:15:00 PM 13.11 55.598 0.245 8.98 1.62 13.62
11/4/2022 8:30:00 PM 13.12 55.616 0.245 8.98 1.54 13.61
11/4/2022 8:45:00 PM 13.12 55.616 0.245 8.99 1.62 13.58
11/4/2022 9:00:00 PM 13.12 55.616 0.245 9 1.68 13.57
11/4/2022 9:15:00 PM 13.12 55.616 0.245 9 1.62 13.55
11/4/2022 9:30:00 PM 13.12 55.616 0.245 9.01 1.72 13.53
11/4/2022 9:45:00 PM 13.12 55.616 0.245 9 1.55 13.49
11/4/2022 10:00:00 PM 13.12 55.616 0.245 9 1.57 13.44
11/4/2022 10:15:00 PM 13.12 55.616 0.245 9 2.07 13.36
11/4/2022 10:30:00 PM 13.12 55.616 0.245 9 1.63 13.33
11/4/2022 10:45:00 PM 13.11 55.598 0.245 8.99 1.83 13.33
11/4/2022 11:00:00 PM 13.1 55.58 0.245 8.98 1.66 13.26
11/4/2022 11:15:00 PM 13.09 55.562 0.245 8.98 1.59 13.25
11/4/2022 11:30:00 PM 13.08 55.544 0.245 8.96 1.58 13.19
11/4/2022 11:45:00 PM 13.07 55.526 0.245 8.96 4.45 13.15
11/5/2022 12:00:00 AM 13.05 55.49 0.245 8.94 1.65 13.07
11/5/2022 12:15:00 AM 13.02 55.436 0.245 8.92 1.62 12.99
11/5/2022 12:30:00 AM 13 55.4 0.245 8.9 1.55 12.99
11/5/2022 12:45:00 AM 12.97 55.346 0.245 8.88 1.61 12.92
11/5/2022 1:00:00 AM 12.91 55.238 0.255 8.43 2.22 12.27
11/5/2022 1:15:00 AM 12.91 55.238 0.253 8.34 14.15 12.19
11/5/2022 1:30:00 AM 12.9 55.22 0.246 8.74 1.57 12.63
11/5/2022 1:45:00 AM 12.87 55.166 0.245 8.72 1.6 12.55
11/5/2022 2:00:00 AM 12.84 55.112 0.246 8.68 1.62 12.45
11/5/2022 2:15:00 AM 12.82 55.076 0.246 8.64 1.58 12.37
11/5/2022 2:30:00 AM 12.79 55.022 0.246 8.59 1.58 12.23
11/5/2022 2:45:00 AM 12.77 54.986 0.246 8.53 1.64 12.16
11/5/2022 3:00:00 AM 12.75 54.95 0.246 8.48 1.59 12.06
11/5/2022 3:15:00 AM 12.73 54.914 0.246 8.43 1.6 11.97
11/5/2022 3:30:00 AM 12.69 54.842 0.245 8.37 1.55 11.88
11/5/2022 3:45:00 AM 12.68 54.824 0.246 8.32 1.62 11.8
11/5/2022 4:00:00 AM 12.65 54.77 0.246 8.27 1.66 11.72
11/5/2022 4:15:00 AM 12.63 54.734 0.246 8.23 1.63 11.64
11/5/2022 4:30:00 AM 12.61 54.698 0.246 8.19 1.65 11.56
11/5/2022 4:45:00 AM 12.59 54.662 0.246 8.15 1.59 11.49
11/5/2022 5:00:00 AM 12.57 54.626 0.246 8.12 1.58 11.43
11/5/2022 5:15:00 AM 12.54 54.572 0.247 8.1 1.58 11.45
11/5/2022 5:30:00 AM 12.52 54.536 0.247 8.07 1.6 11.32
11/5/2022 5:45:00 AM 12.49 54.482 0.247 8.04 1.62 11.28
11/5/2022 6:00:00 AM 12.46 54.428 0.246 8.01 1.58 11.24
11/5/2022 6:15:00 AM 12.44 54.392 0.246 8 1.64 11.21
11/5/2022 6:30:00 AM 12.42 54.356 0.246 7.98 1.6 11.16
11/5/2022 6:45:00 AM 12.4 54.32 0.246 7.96 1.62 11.13
11/5/2022 7:00:00 AM 12.38 54.284 0.246 7.95 1.57 11.1
11/5/2022 7:15:00 AM 12.36 54.248 0.246 7.93 1.57 11.07
11/5/2022 7:30:00 AM 12.34 54.212 0.246 7.92 1.66 11.06
11/5/2022 7:45:00 AM 12.33 54.194 0.246 7.91 1.58 11.03
11/5/2022 8:00:00 AM 12.31 54.158 0.246 7.9 1.57 11.2
11/5/2022 8:15:00 AM 12.29 54.122 0.246 7.9 1.61 11.04
11/5/2022 8:30:00 AM 12.28 54.104 0.246 7.89 1.56 11.07
11/5/2022 8:45:00 AM 12.28 54.104 0.247 7.89 1.6 11.09
11/5/2022 9:00:00 AM 12.28 54.104 0.247 7.89 1.58 11.11
11/5/2022 9:15:00 AM 12.28 54.104 0.247 7.9 1.6 11.16
11/5/2022 9:30:00 AM 12.29 54.122 0.247 7.9 1.58 11.19
11/5/2022 9:45:00 AM 12.31 54.158 0.248 7.91 1.58 11.23
11/5/2022 10:00:00 AM 12.34 54.212 0.248 7.91 1.59 11.26
11/5/2022 10:15:00 AM 12.36 54.248 0.248 7.92 1.74 11.35
11/5/2022 10:30:00 AM 12.95 55.31 0.259 7.9 49.26 11.67
11/5/2022 10:45:00 AM 12.88 55.184 0.257 7.89 72.1 11.65
11/5/2022 11:00:00 AM 12.51 54.518 0.249 7.94 1.59 11.52
11/5/2022 11:15:00 AM 12.58 54.644 0.249 7.98 1.57 11.69
11/5/2022 11:30:00 AM 12.67 54.806 0.248 8.01 2.03 11.8
11/5/2022 11:45:00 AM 12.77 54.986 0.249 8.03 1.57 11.89
11/5/2022 12:00:00 PM 12.87 55.166 0.248 8.06 1.68 11.99
11/5/2022 12:15:00 PM 12.99 55.382 0.248 8.08 1.81 12.09
11/5/2022 12:30:00 PM 13.11 55.598 0.249 8.11 1.57 12.16
11/5/2022 12:45:00 PM 13.23 55.814 0.249 8.14 1.54 12.19
11/5/2022 1:00:00 PM 13.3 55.94 0.249 8.16 1.53 12.31
11/5/2022 1:15:00 PM 13.39 56.102 0.249 8.19 1.54 12.4
11/5/2022 1:30:00 PM 13.46 56.228 0.249 8.22 1.58 12.45
11/5/2022 1:45:00 PM 13.52 56.336 0.249 8.25 1.74 12.53
11/5/2022 2:00:00 PM 13.58 56.444 0.249 8.28 1.53 12.6
11/5/2022 2:15:00 PM 13.62 56.516 0.249 8.31 1.58 12.62
11/5/2022 2:30:00 PM 13.65 56.57 0.249 8.33 1.53 12.64
11/5/2022 2:45:00 PM 13.69 56.642 0.249 8.35 1.56 12.67
11/5/2022 3:00:00 PM 13.72 56.696 0.249 8.38 1.53 12.7
11/5/2022 3:15:00 PM 13.74 56.732 0.249 8.38 1.55 12.69
11/5/2022 3:30:00 PM 13.77 56.786 0.25 8.39 1.51 12.71
11/5/2022 3:45:00 PM 13.78 56.804 0.249 8.42 1.48 12.71
11/5/2022 4:00:00 PM 13.8 56.84 0.249 8.43 1.48 12.74
11/5/2022 4:15:00 PM 13.81 56.858 0.249 8.44 1.63 12.73
11/5/2022 4:30:00 PM 13.83 56.894 0.25 8.46 1.51 12.73
11/5/2022 4:45:00 PM 13.84 56.912 0.249 8.48 1.54 12.78
11/5/2022 5:00:00 PM 13.86 56.948 0.25 8.49 1.57 12.76
11/5/2022 5:15:00 PM 13.87 56.966 0.25 8.5 1.6 12.74
11/5/2022 5:30:00 PM 13.89 57.002 0.25 8.51 1.6 12.72
11/5/2022 5:45:00 PM 13.9 57.02 0.25 8.53 1.55 12.69
11/5/2022 6:00:00 PM 13.91 57.038 0.25 8.55 1.55 12.7
11/5/2022 6:15:00 PM 13.92 57.056 0.25 8.56 1.54 12.7
11/5/2022 6:30:00 PM 13.93 57.074 0.25 8.59 1.52 12.7
11/5/2022 6:45:00 PM 13.93 57.074 0.249 8.61 1.52 12.7
11/5/2022 7:00:00 PM 13.94 57.092 0.25 8.62 1.5 12.67
11/5/2022 7:15:00 PM 13.96 57.128 0.258 8.32 7.63 12.1
11/5/2022 7:30:00 PM 13.78 56.804 0.257 8.19 37.46 11.94
11/5/2022 7:45:00 PM 13.93 57.074 0.251 8.58 1.61 12.61
11/5/2022 8:00:00 PM 13.95 57.11 0.25 8.67 1.53 12.65
11/5/2022 8:15:00 PM 13.95 57.11 0.25 8.69 1.53 12.52
11/5/2022 8:30:00 PM 13.97 57.146 0.25 8.71 1.96 12.5
11/5/2022 8:45:00 PM 13.98 57.164 0.251 8.72 1.59 12.58
11/5/2022 9:00:00 PM 14 57.2 0.251 8.74 1.57 12.57
11/5/2022 9:15:00 PM 14.01 57.218 0.251 8.74 1.52 12.54
11/5/2022 9:30:00 PM 14.02 57.236 0.251 8.74 1.54 12.52
11/5/2022 9:45:00 PM 14.07 57.326 0.251 8.73 3.86 12.47
11/5/2022 10:00:00 PM 14.07 57.326 0.251 8.76 2.9 12.49
11/5/2022 10:15:00 PM 14.09 57.362 0.251 8.77 2.65 12.46
11/5/2022 10:30:00 PM 14.11 57.398 0.251 8.76 1.62 12.39
11/5/2022 10:45:00 PM 14.13 57.434 0.251 8.75 1.63 12.34
11/5/2022 11:00:00 PM 14.15 57.47 0.251 8.74 1.59 12.28
11/5/2022 11:15:00 PM 14.18 57.524 0.251 8.73 1.76 12.23
11/5/2022 11:30:00 PM 14.21 57.578 0.251 8.71 1.64 12.15
11/5/2022 11:45:00 PM 14.24 57.632 0.251 8.69 1.54 12.1
11/6/2022 12:00:00 AM 14.26 57.668 0.251 8.67 1.66 12.01
11/6/2022 12:15:00 AM 14.29 57.722 0.251 8.65 1.49 11.97
11/6/2022 12:30:00 AM 14.32 57.776 0.251 8.62 1.54 11.88
11/6/2022 12:45:00 AM 14.34 57.812 0.252 8.59 1.52 11.71
11/6/2022 1:00:00 AM 14.36 57.848 0.252 8.56 1.53 11.72
11/6/2022 1:15:00 AM 14.38 57.884 0.252 8.53 1.55 11.68
11/6/2022 1:30:00 AM 14.4 57.92 0.252 8.5 1.59 11.61
11/6/2022 1:45:00 AM 14.41 57.938 0.252 8.46 1.56 11.55
11/6/2022 2:00:00 AM 14.43 57.974 0.252 8.43 1.54 11.47
11/6/2022 2:15:00 AM 14.44 57.992 0.252 8.39 1.55 11.4
11/6/2022 2:30:00 AM 14.45 58.01 0.252 8.35 1.62 11.32
11/6/2022 2:45:00 AM 14.35 57.83 0.26 8.13 79.01 11.38
11/6/2022 3:00:00 AM 14.2 57.56 0.261 7.97 75.58 11.37
11/6/2022 3:15:00 AM 14.39 57.902 0.254 8.07 32.41 11.37
11/6/2022 3:30:00 AM 14.48 58.064 0.252 8.16 1.67 11.05
11/6/2022 3:45:00 AM 14.49 58.082 0.252 8.15 1.67 10.97
11/6/2022 4:00:00 AM 14.5 58.1 0.253 8.12 1.62 10.9
11/6/2022 4:15:00 AM 14.5 58.1 0.253 8.09 1.72 10.83
11/6/2022 4:30:00 AM 14.51 58.118 0.253 8.07 1.71 10.76
11/6/2022 4:45:00 AM 14.51 58.118 0.253 8.05 1.67 10.72
11/6/2022 5:00:00 AM 14.52 58.136 0.254 8.03 1.69 10.67
11/6/2022 5:15:00 AM 14.51 58.118 0.254 8.01 1.69 10.62
11/6/2022 5:30:00 AM 14.51 58.118 0.253 7.99 1.93 10.54
11/6/2022 5:45:00 AM 14.5 58.1 0.253 7.97 1.65 10.49
11/6/2022 6:00:00 AM 14.51 58.118 0.254 7.95 1.64 10.44
11/6/2022 6:15:00 AM 14.51 58.118 0.253 7.93 1.64 10.42
11/6/2022 6:30:00 AM 14.52 58.136 0.254 7.92 1.65 10.37
11/6/2022 6:45:00 AM 14.53 58.154 0.254 7.91 1.7 10.33
11/6/2022 7:00:00 AM 14.53 58.154 0.254 7.89 1.58 10.31
11/6/2022 7:15:00 AM 14.55 58.19 0.254 7.88 1.6 10.25
11/6/2022 7:30:00 AM 14.55 58.19 0.254 7.87 1.63 10.23
11/6/2022 7:45:00 AM 14.55 58.19 0.254 7.86 1.64 10.24
11/6/2022 8:00:00 AM 14.55 58.19 0.254 7.86 1.62 10.23
11/6/2022 8:15:00 AM 14.56 58.208 0.253 7.85 1.66 10.23
11/6/2022 8:30:00 AM 14.56 58.208 0.253 7.85 1.55 10.24
11/6/2022 8:45:00 AM 14.57 58.226 0.253 7.85 1.53 10.24
11/6/2022 9:00:00 AM 14.59 58.262 0.254 7.85 1.56 10.3
11/6/2022 9:15:00 AM 14.62 58.316 0.254 7.86 1.52 10.31
11/6/2022 9:30:00 AM 14.64 58.352 0.253 7.86 1.54 10.39
11/6/2022 9:45:00 AM 14.66 58.388 0.253 7.88 1.69 10.5
11/6/2022 10:00:00 AM 14.69 58.442 0.253 7.89 1.59 10.59
11/6/2022 10:15:00 AM 14.73 58.514 0.252 7.91 1.49 10.66
11/6/2022 10:30:00 AM 14.78 58.604 0.252 7.92 1.61 10.74
11/6/2022 10:45:00 AM 14.8 58.64 0.252 7.93 1.54 10.79
11/6/2022 11:00:00 AM 14.83 58.694 0.252 7.94 1.58 10.82
11/6/2022 11:15:00 AM 14.86 58.748 0.252 7.95 1.46 10.89
11/6/2022 11:30:00 AM 14.89 58.802 0.251 7.96 1.55 10.94
11/6/2022 11:45:00 AM 14.8 58.64 0.263 7.88 89.71 11.25
11/6/2022 12:00:00 PM 14.78 58.604 0.261 7.88 63.4 11.18
11/6/2022 12:15:00 PM 15.02 59.036 0.252 7.95 16.1 11.23
11/6/2022 12:30:00 PM 15.16 59.288 0.251 8 4.8 11.33
11/6/2022 12:45:00 PM 15.22 59.396 0.251 8.04 3.21 11.36
11/6/2022 1:00:00 PM 15.3 59.54 0.251 8.08 2.72 11.45
11/6/2022 1:15:00 PM 15.36 59.648 0.25 8.11 1.99 11.56
11/6/2022 1:30:00 PM 15.4 59.72 0.25 8.13 1.55 11.6
11/6/2022 1:45:00 PM 15.44 59.792 0.25 8.16 1.54 11.64
11/6/2022 2:00:00 PM 15.44 59.792 0.25 8.18 1.85 11.73
11/6/2022 2:15:00 PM 15.48 59.864 0.251 8.2 1.5 11.78
11/6/2022 2:30:00 PM 15.53 59.954 0.25 8.24 1.58 11.88
11/6/2022 2:45:00 PM 15.57 60.026 0.251 8.26 1.57 11.9
11/6/2022 3:00:00 PM 15.63 60.134 0.251 8.29 1.56 11.98
11/6/2022 3:15:00 PM 15.68 60.224 0.251 8.32 1.54 12.04
11/6/2022 3:30:00 PM 15.74 60.332 0.251 8.35 1.64 12.11
11/6/2022 3:45:00 PM 15.77 60.386 0.251 8.38 1.59 12.17
11/6/2022 4:00:00 PM 15.79 60.422 0.252 8.4 1.54 12.17
11/6/2022 4:15:00 PM 15.8 60.44 0.252 8.41 1.54 12.17
11/6/2022 4:30:00 PM 15.81 60.458 0.252 8.42 1.53 12.18
11/6/2022 4:45:00 PM 15.82 60.476 0.252 8.42 1.56 12.12
11/6/2022 5:00:00 PM 15.84 60.512 0.252 8.41 1.55 12.15
11/6/2022 5:15:00 PM 15.87 60.566 0.253 8.41 1.51 12.13
11/6/2022 5:30:00 PM 15.88 60.584 0.252 8.41 1.51 12.11
11/6/2022 5:45:00 PM 15.9 60.62 0.253 8.39 3.45 12.08
11/6/2022 6:00:00 PM 15.89 60.602 0.253 8.43 2.12 12.12
11/6/2022 6:15:00 PM 15.88 60.584 0.252 8.46 1.6 12.16
11/6/2022 6:30:00 PM 15.89 60.602 0.253 8.47 1.57 12.15
11/6/2022 6:45:00 PM 15.89 60.602 0.253 8.49 1.6 12.16
11/6/2022 7:00:00 PM 15.88 60.584 0.253 8.53 1.57 12.19
11/6/2022 7:15:00 PM 15.89 60.602 0.253 8.55 1.68 12.19
11/6/2022 7:30:00 PM 15.89 60.602 0.253 8.58 1.6 12.15
11/6/2022 7:45:00 PM 15.89 60.602 0.253 8.6 1.59 12.18
11/6/2022 8:00:00 PM 15.88 60.584 0.253 8.62 1.61 12.19
11/6/2022 8:15:00 PM 15.82 60.476 0.257 8.52 3.65 11.9
11/6/2022 8:30:00 PM 15.64 60.152 0.262 8.08 51.87 11.38
11/6/2022 8:45:00 PM 15.82 60.476 0.256 8.43 1.52 11.91
11/6/2022 9:00:00 PM 15.88 60.584 0.253 8.63 1.55 12.06
11/6/2022 9:15:00 PM 15.88 60.584 0.253 8.65 1.61 12.04
11/6/2022 9:30:00 PM 15.86 60.548 0.253 8.66 1.65 12.03
11/6/2022 9:45:00 PM 15.87 60.566 0.253 8.67 1.56 12.03
11/6/2022 10:00:00 PM 15.88 60.584 0.253 8.67 1.54 12
11/6/2022 10:15:00 PM 15.89 60.602 0.254 8.66 1.53 11.95
11/6/2022 10:30:00 PM 15.9 60.62 0.254 8.65 1.55 11.88
11/6/2022 10:45:00 PM 15.91 60.638 0.254 8.64 1.57 11.87
11/6/2022 11:00:00 PM 15.92 60.656 0.255 8.64 1.55 11.74
11/6/2022 11:15:00 PM 15.93 60.674 0.255 8.62 1.54 11.77
11/6/2022 11:30:00 PM 15.92 60.656 0.255 8.61 1.6 11.74
11/6/2022 11:45:00 PM 15.92 60.656 0.255 8.6 1.56 11.68
11/7/2022 12:00:00 AM 15.92 60.656 0.255 8.58 1.57 11.61
11/7/2022 12:15:00 AM 15.9 60.62 0.255 8.57 1.52 11.56
11/7/2022 12:30:00 AM 15.91 60.638 0.255 8.54 1.64 11.49
11/7/2022 12:45:00 AM 15.91 60.638 0.256 8.51 1.56 11.41
11/7/2022 1:00:00 AM 15.91 60.638 0.256 8.47 1.54 11.35
11/7/2022 1:15:00 AM 15.9 60.62 0.256 8.44 1.81 11.25
11/7/2022 1:30:00 AM 15.9 60.62 0.257 8.39 1.57 11.16
11/7/2022 1:45:00 AM 15.89 60.602 0.257 8.35 1.57 11.09
11/7/2022 2:00:00 AM 15.84 60.512 0.265 8.01 141.71 11.03
11/7/2022 2:15:00 AM 15.84 60.512 0.26 8.07 1.65 11.02
11/7/2022 2:30:00 AM 15.83 60.494 0.258 8.19 1.88 10.81
11/7/2022 2:45:00 AM 15.81 60.458 0.258 8.17 1.64 10.73
11/7/2022 3:00:00 AM 15.78 60.404 0.257 8.14 1.68 10.66
11/7/2022 3:15:00 AM 15.76 60.368 0.257 8.1 1.69 10.59
11/7/2022 3:30:00 AM 15.74 60.332 0.257 8.07 1.57 10.51
11/7/2022 3:45:00 AM 15.72 60.296 0.257 8.05 1.61 10.49
11/7/2022 4:00:00 AM 15.7 60.26 0.257 8.02 1.55 10.37
11/7/2022 4:15:00 AM 15.67 60.206 0.257 7.99 1.65 10.32
11/7/2022 4:30:00 AM 15.64 60.152 0.257 7.96 1.66 10.27
11/7/2022 4:45:00 AM 15.62 60.116 0.257 7.94 1.62 10.19
11/7/2022 5:00:00 AM 15.59 60.062 0.257 7.92 1.7 10.29
11/7/2022 5:15:00 AM 15.56 60.008 0.257 7.9 1.65 10.05
11/7/2022 5:30:00 AM 15.53 59.954 0.257 7.88 1.62 9.99
11/7/2022 5:45:00 AM 15.5 59.9 0.257 7.87 1.65 9.95
11/7/2022 6:00:00 AM 15.46 59.828 0.257 7.85 1.66 9.9
11/7/2022 6:15:00 AM 15.43 59.774 0.257 7.84 1.65 9.84
11/7/2022 6:30:00 AM 15.39 59.702 0.257 7.82 1.68 9.78
11/7/2022 6:45:00 AM 15.35 59.63 0.257 7.81 1.66 9.75
11/7/2022 7:00:00 AM 15.31 59.558 0.257 7.8 1.69 9.71
11/7/2022 7:15:00 AM 15.28 59.504 0.257 7.79 1.61 9.66
11/7/2022 7:30:00 AM 15.24 59.432 0.257 7.78 1.66 9.77
11/7/2022 7:45:00 AM 15.2 59.36 0.256 7.77 1.77 9.71
11/7/2022 8:00:00 AM 15.16 59.288 0.256 7.77 1.63 9.67
11/7/2022 8:15:00 AM 15.13 59.234 0.256 7.77 1.62 9.68
11/7/2022 8:30:00 AM 15.11 59.198 0.256 7.77 1.61 9.71
11/7/2022 8:45:00 AM 15.09 59.162 0.256 7.77 1.67 9.75
11/7/2022 9:00:00 AM 15.08 59.144 0.256 7.78 1.62 9.82
11/7/2022 9:15:00 AM 15.08 59.144 0.256 7.79 1.58 9.89
11/7/2022 9:30:00 AM 15.08 59.144 0.256 7.8 1.59 9.95
11/7/2022 9:45:00 AM 15.09 59.162 0.256 7.8 1.64 10.04
11/7/2022 10:00:00 AM 15.12 59.216 0.256 7.82 1.72 10.12
11/7/2022 10:15:00 AM 15.15 59.27 0.256 7.83 1.55 10.21
11/7/2022 10:30:00 AM 15.2 59.36 0.255 7.84 1.6 10.3
11/7/2022 10:45:00 AM 15.24 59.432 0.255 7.86 1.51 10.39
11/7/2022 11:00:00 AM 15.3 59.54 0.255 7.87 1.52 10.47
11/7/2022 11:15:00 AM 15.73 60.314 0.267 7.86 16.72 11.01
11/7/2022 11:30:00 AM 15.52 59.936 0.259 7.86 11.98 11
11/7/2022 11:45:00 AM 15.47 59.846 0.255 7.91 2.34 10.86
11/7/2022 12:00:00 PM 15.54 59.972 0.256 7.94 1.56 10.93
11/7/2022 12:15:00 PM 15.61 60.098 0.255 7.97 1.82 11.06
11/7/2022 12:30:00 PM 15.67 60.206 0.255 7.99 1.58 11.16
11/7/2022 12:45:00 PM 15.74 60.332 0.255 8.02 1.7 11.28
11/7/2022 1:00:00 PM 15.8 60.44 0.255 8.04 1.67 11.39
11/7/2022 1:15:00 PM 15.86 60.548 0.255 8.07 1.53 11.46
11/7/2022 1:30:00 PM 15.91 60.638 0.255 8.1 1.72 11.56
11/7/2022 1:45:00 PM 15.97 60.746 0.255 8.12 1.56 11.64
11/7/2022 2:00:00 PM 16.02 60.836 0.255 8.15 1.64 11.73
11/7/2022 2:15:00 PM 16.06 60.908 0.255 8.18 1.54 11.81
11/7/2022 2:30:00 PM 16.09 60.962 0.255 8.22 1.55 11.91
11/7/2022 2:45:00 PM 16.12 61.016 0.255 8.25 1.56 11.97
11/7/2022 3:00:00 PM 16.14 61.052 0.255 8.27 1.49 12.06
11/7/2022 3:15:00 PM 16.15 61.07 0.255 8.3 1.5 12.09
11/7/2022 3:30:00 PM 16.15 61.07 0.255 8.33 1.65 12.21
11/7/2022 3:45:00 PM 16.16 61.088 0.256 8.36 1.57 12.25
11/7/2022 4:00:00 PM 16.15 61.07 0.256 8.38 1.83 12.3
11/7/2022 4:15:00 PM 16.13 61.034 0.256 8.4 1.54 12.32
11/7/2022 4:30:00 PM 16.11 60.998 0.256 8.42 1.63 12.35
11/7/2022 4:45:00 PM 16.08 60.944 0.256 8.43 1.53 12.34
11/7/2022 5:00:00 PM 16.06 60.908 0.257 8.44 1.55 12.3
11/7/2022 5:15:00 PM 16.04 60.872 0.257 8.44 1.53 12.31
11/7/2022 5:30:00 PM 16.04 60.872 0.257 8.46 1.55 12.35
11/7/2022 5:45:00 PM 16.03 60.854 0.257 8.48 1.57 12.36
11/7/2022 6:00:00 PM 16 60.8 0.257 8.51 1.56 12.42
11/7/2022 6:15:00 PM 15.98 60.764 0.257 8.54 1.57 12.44
11/7/2022 6:30:00 PM 16.1 60.98 0.265 8.32 11.94 11.8
11/7/2022 6:45:00 PM 15.97 60.746 0.264 8.17 4.16 11.61
11/7/2022 7:00:00 PM 15.92 60.656 0.258 8.57 1.71 12.47
11/7/2022 7:15:00 PM 15.89 60.602 0.258 8.65 1.62 12.53
11/7/2022 7:30:00 PM 15.86 60.548 0.258 8.69 1.72 12.57
11/7/2022 7:45:00 PM 15.83 60.494 0.258 8.71 2.12 12.6
11/7/2022 8:00:00 PM 15.79 60.422 0.258 8.72 2.16 12.57
11/7/2022 8:15:00 PM 15.78 60.404 0.258 8.72 3.65 12.54
11/7/2022 8:30:00 PM 15.73 60.314 0.258 8.76 3 12.6
11/7/2022 8:45:00 PM 15.68 60.224 0.258 8.78 2.96 12.58
11/7/2022 9:00:00 PM 15.63 60.134 0.258 8.79 3.25 12.58
11/7/2022 9:15:00 PM 15.57 60.026 0.258 8.8 2.1 12.54
11/7/2022 9:30:00 PM 15.52 59.936 0.258 8.81 3.35 12.49
11/7/2022 9:45:00 PM 15.46 59.828 0.258 8.81 3.63 12.51
11/7/2022 10:00:00 PM 15.41 59.738 0.258 8.81 3.62 12.47
11/7/2022 10:15:00 PM 15.36 59.648 0.258 8.8 3.57 12.41
11/7/2022 10:30:00 PM 15.3 59.54 0.258 8.8 3.53 12.39
11/7/2022 10:45:00 PM 15.23 59.414 0.258 8.8 3.72 12.32
11/7/2022 11:00:00 PM 15.17 59.306 0.258 8.8 3.78 12.27
11/7/2022 11:15:00 PM 15.1 59.18 0.258 8.79 3.55 12.23
11/7/2022 11:30:00 PM 15.03 59.054 0.258 8.78 3.62 12.18
11/7/2022 11:45:00 PM 14.96 58.928 0.258 8.77 3.64 12.13
11/8/2022 12:00:00 AM 14.9 58.82 0.258 8.76 3.61 12.09
11/8/2022 12:15:00 AM 14.83 58.694 0.258 8.75 3.39 12.04
11/8/2022 12:30:00 AM 14.76 58.568 0.258 8.72 3.41 12
11/8/2022 12:45:00 AM 14.68 58.424 0.258 8.7 3.35 11.92
11/8/2022 1:00:00 AM 14.62 58.316 0.258 8.68 3.54 11.87
11/8/2022 1:15:00 AM 14.54 58.172 0.259 8.64 3.28 11.78
11/8/2022 1:30:00 AM 14.47 58.046 0.259 8.6 3.21 11.67
11/8/2022 1:45:00 AM 14.41 57.938 0.259 8.55 3.19 11.6
11/8/2022 2:00:00 AM 14.33 57.794 0.26 8.5 3.16 11.48
11/8/2022 2:15:00 AM 15.42 59.756 0.272 8 3.69 11.25
11/8/2022 2:30:00 AM 15.13 59.234 0.269 7.98 15.69 11.28
11/8/2022 2:45:00 AM 14.14 57.452 0.26 8.24 37.1 11.41
11/8/2022 3:00:00 AM 14.05 57.29 0.26 8.27 16.96 11.35
11/8/2022 3:15:00 AM 13.97 57.146 0.26 8.25 10.82 11.15
11/8/2022 3:30:00 AM 13.9 57.02 0.26 8.22 8.67 11.02
11/8/2022 3:45:00 AM 13.82 56.876 0.26 8.18 15.98 10.93
11/8/2022 4:00:00 AM 13.76 56.768 0.26 8.16 4.11 10.86
11/8/2022 4:15:00 AM 13.67 56.606 0.26 8.13 2.71 10.78
11/8/2022 4:30:00 AM 13.56 56.408 0.26 8.09 2.62 10.71
11/8/2022 4:45:00 AM 13.48 56.264 0.261 8.07 1.95 10.67
11/8/2022 5:00:00 AM 13.4 56.12 0.261 8.04 1.87 10.58
11/8/2022 5:15:00 AM 13.31 55.958 0.261 8.02 1.75 10.55
11/8/2022 5:30:00 AM 13.23 55.814 0.261 7.99 1.82 10.5
11/8/2022 5:45:00 AM 13.15 55.67 0.261 7.97 1.76 10.48
11/8/2022 6:00:00 AM 13.08 55.544 0.261 7.96 1.71 10.44
11/8/2022 6:15:00 AM 13.01 55.418 0.261 7.94 1.78 10.42
11/8/2022 6:30:00 AM 12.95 55.31 0.261 7.92 1.73 10.38
11/8/2022 6:45:00 AM 12.89 55.202 0.261 7.91 1.7 10.35
11/8/2022 7:00:00 AM 12.83 55.094 0.261 7.89 1.69 10.33
11/8/2022 7:15:00 AM 12.78 55.004 0.261 7.88 1.73 10.31
11/8/2022 7:30:00 AM 12.73 54.914 0.261 7.87 1.79 10.3
11/8/2022 7:45:00 AM 12.7 54.86 0.261 7.87 1.7 10.32
11/8/2022 8:00:00 AM 12.67 54.806 0.261 7.87 1.73 10.35
11/8/2022 8:15:00 AM 12.64 54.752 0.261 7.87 1.75 10.4
11/8/2022 8:30:00 AM 12.61 54.698 0.261 7.86 1.68 10.45
11/8/2022 8:45:00 AM 12.57 54.626 0.261 7.87 1.85 10.52
11/8/2022 9:00:00 AM 12.54 54.572 0.261 7.88 1.64 10.59
11/8/2022 9:15:00 AM 12.53 54.554 0.261 7.88 1.72 10.66
11/8/2022 9:30:00 AM 12.52 54.536 0.261 7.89 1.72 10.71
11/8/2022 9:45:00 AM 12.53 54.554 0.261 7.9 1.73 10.76
11/8/2022 10:00:00 AM 14.3 57.74 0.272 7.91 16.4 11.38
11/8/2022 10:15:00 AM 13.76 56.768 0.27 7.91 11.1 11.41
11/8/2022 10:30:00 AM 12.64 54.752 0.262 7.93 34.83 11.36
11/8/2022 10:45:00 AM 12.65 54.77 0.262 7.94 24.9 11.35
11/8/2022 11:00:00 AM 12.69 54.842 0.262 7.96 18.12 11.39
11/8/2022 11:15:00 AM 12.73 54.914 0.262 7.97 11.89 11.44
11/8/2022 11:30:00 AM 12.79 55.022 0.262 7.99 6.5 11.47
11/8/2022 11:45:00 AM 12.85 55.13 0.263 8.01 3.83 11.54
11/8/2022 12:00:00 PM 12.92 55.256 0.263 8.03 2.41 11.62
11/8/2022 12:15:00 PM 13 55.4 0.262 8.05 1.99 11.68
11/8/2022 12:30:00 PM 13.07 55.526 0.263 8.07 1.84 11.77
11/8/2022 12:45:00 PM 13.13 55.634 0.263 8.1 1.76 11.84
11/8/2022 1:00:00 PM 13.2 55.76 0.262 8.12 1.63 11.94
11/8/2022 1:15:00 PM 13.25 55.85 0.263 8.15 1.73 12.03
11/8/2022 1:30:00 PM 13.31 55.958 0.262 8.17 1.87 12.1
11/8/2022 1:45:00 PM 13.36 56.048 0.262 8.2 1.69 12.16
11/8/2022 2:00:00 PM 13.41 56.138 0.262 8.23 1.64 12.23
11/8/2022 2:15:00 PM 13.47 56.246 0.262 8.25 1.69 12.31
11/8/2022 2:30:00 PM 13.52 56.336 0.262 8.28 1.68 12.37
11/8/2022 2:45:00 PM 13.54 56.372 0.261 8.3 1.67 12.43
11/8/2022 3:00:00 PM 13.57 56.426 0.261 8.33 1.88 12.49
11/8/2022 3:15:00 PM 13.59 56.462 0.261 8.35 1.58 12.54
11/8/2022 3:30:00 PM 13.61 56.498 0.261 8.38 1.66 12.6
11/8/2022 3:45:00 PM 13.62 56.516 0.26 8.4 1.65 12.62
11/8/2022 4:00:00 PM 13.61 56.498 0.26 8.42 1.62 12.66
11/8/2022 4:15:00 PM 13.6 56.48 0.26 8.44 1.65 12.69
11/8/2022 4:30:00 PM 13.58 56.444 0.26 8.45 1.55 12.7
11/8/2022 4:45:00 PM 13.56 56.408 0.259 8.46 1.61 12.67
11/8/2022 5:00:00 PM 13.52 56.336 0.259 8.46 1.59 12.65
11/8/2022 5:15:00 PM 13.51 56.318 0.259 8.46 1.64 12.64
11/8/2022 5:30:00 PM 13.5 56.3 0.259 8.48 1.61 12.65
11/8/2022 5:45:00 PM 13.49 56.282 0.259 8.49 1.6 12.67
11/8/2022 6:00:00 PM 13.48 56.264 0.259 8.51 1.6 12.7
11/8/2022 6:15:00 PM 13.47 56.246 0.258 8.54 1.65 12.72
11/8/2022 6:30:00 PM 13.46 56.228 0.258 8.57 1.67 12.74
11/8/2022 6:45:00 PM 13.62 56.516 0.262 8.57 13.35 12.59
11/8/2022 7:00:00 PM 13.79 56.822 0.27 8.09 7.41 11.89
11/8/2022 7:15:00 PM 13.49 56.282 0.261 8.23 19.83 12.23
11/8/2022 7:30:00 PM 13.39 56.102 0.258 8.6 24.58 12.78
11/8/2022 7:45:00 PM 13.36 56.048 0.258 8.64 20.28 12.86
11/8/2022 8:00:00 PM 13.34 56.012 0.258 8.68 16.77 12.88
11/8/2022 8:15:00 PM 13.32 55.976 0.258 8.7 13.52 12.91
11/8/2022 8:30:00 PM 13.3 55.94 0.258 8.74 11.09 12.92
11/8/2022 8:45:00 PM 13.27 55.886 0.258 8.76 9.34 12.9
11/8/2022 9:00:00 PM 13.24 55.832 0.258 8.77 7.09 12.92
11/8/2022 9:15:00 PM 13.2 55.76 0.258 8.78 5.64 12.88
11/8/2022 9:30:00 PM 13.17 55.706 0.258 8.8 4.67 12.87
11/8/2022 9:45:00 PM 13.13 55.634 0.258 8.8 3.86 12.85
11/8/2022 10:00:00 PM 13.11 55.598 0.258 8.81 3.12 12.81
11/8/2022 10:15:00 PM 13.07 55.526 0.258 8.82 2.74 12.78
11/8/2022 10:30:00 PM 13.04 55.472 0.258 8.82 2.36 12.73
11/8/2022 10:45:00 PM 13.01 55.418 0.258 8.82 2.37 12.69
11/8/2022 11:00:00 PM 12.97 55.346 0.258 8.82 2.22 12.7
11/8/2022 11:15:00 PM 12.92 55.256 0.258 8.82 2.13 12.64
11/8/2022 11:30:00 PM 12.87 55.166 0.259 8.82 1.95 12.66
11/8/2022 11:45:00 PM 12.82 55.076 0.259 8.81 1.92 12.61
11/9/2022 12:00:00 AM 12.76 54.968 0.259 8.81 2.01 12.58
11/9/2022 12:15:00 AM 12.71 54.878 0.259 8.79 2.01 12.52
11/9/2022 12:30:00 AM 12.65 54.77 0.259 8.77 1.87 12.48
11/9/2022 12:45:00 AM 12.6 54.68 0.259 8.77 1.79 12.47
11/9/2022 1:00:00 AM 12.55 54.59 0.259 8.75 1.9 12.38
11/9/2022 1:15:00 AM 12.5 54.5 0.259 8.72 1.81 12.35
11/9/2022 1:30:00 AM 12.45 54.41 0.26 8.7 1.83 12.3
11/9/2022 1:45:00 AM 12.4 54.32 0.26 8.67 1.65 12.24
11/9/2022 2:00:00 AM 13.02 55.436 0.271 8.23 24.68 12.03
11/9/2022 2:15:00 AM 12.83 55.094 0.269 8.12 15.03 12.01
11/9/2022 2:30:00 AM 12.27 54.086 0.26 8.44 112.89 12.22
11/9/2022 2:45:00 AM 12.19 53.942 0.26 8.47 108.88 12.07
11/9/2022 3:00:00 AM 12.13 53.834 0.261 8.44 86.39 11.94
11/9/2022 3:15:00 AM 12.07 53.726 0.261 8.41 83.27 11.82
11/9/2022 3:30:00 AM 12.01 53.618 0.261 8.37 74.18 11.75
11/9/2022 3:45:00 AM 11.96 53.528 0.261 8.33 63.45 11.69
11/9/2022 4:00:00 AM 11.9 53.42 0.261 8.29 55.24 11.63
11/9/2022 4:15:00 AM 11.84 53.312 0.261 8.26 46.42 11.55
11/9/2022 4:30:00 AM 11.78 53.204 0.261 8.22 38.6 11.49
11/9/2022 4:45:00 AM 11.72 53.096 0.262 8.19 32.57 11.45
11/9/2022 5:00:00 AM 11.66 52.988 0.262 8.16 23.07 11.37
11/9/2022 5:15:00 AM 11.6 52.88 0.262 8.13 18.07 11.29
11/9/2022 5:30:00 AM 11.54 52.772 0.262 8.1 13.35 11.25
11/9/2022 5:45:00 AM 11.48 52.664 0.262 8.07 11.28 11.21
11/9/2022 6:00:00 AM 11.41 52.538 0.262 8.05 8.01 11.18
11/9/2022 6:15:00 AM 11.35 52.43 0.262 8.03 5.11 11.15
11/9/2022 6:30:00 AM 11.28 52.304 0.262 8.01 3.53 11.1
11/9/2022 6:45:00 AM 11.21 52.178 0.262 7.99 3.02 11.06
11/9/2022 7:00:00 AM 11.14 52.052 0.262 7.97 2.78 11.03
11/9/2022 7:15:00 AM 11.07 51.926 0.262 7.95 2.76 11.03
11/9/2022 7:30:00 AM 11.02 51.836 0.262 7.94 2.83 11.04
11/9/2022 7:45:00 AM 10.96 51.728 0.262 7.93 2.7 11.06
11/9/2022 8:00:00 AM 10.91 51.638 0.263 7.93 2.76 11.07
11/9/2022 8:15:00 AM 10.85 51.53 0.263 7.92 2.66 11.11
11/9/2022 8:30:00 AM 10.8 51.44 0.263 7.92 2.69 11.13
11/9/2022 8:45:00 AM 10.76 51.368 0.263 7.92 2.73 11.19
11/9/2022 9:00:00 AM 10.72 51.296 0.263 7.93 2.77 11.28
11/9/2022 9:15:00 AM 10.7 51.26 0.264 7.93 2.71 11.35
11/9/2022 9:30:00 AM 10.69 51.242 0.264 7.94 2.76 11.4
11/9/2022 9:45:00 AM 10.69 51.242 0.263 7.95 2.67 11.45
11/9/2022 10:00:00 AM 10.7 51.26 0.264 7.95 2.77 11.51
11/9/2022 10:15:00 AM 12.14 53.852 0.273 7.93 12.8 11.98
11/9/2022 10:30:00 AM 11.85 53.33 0.272 7.91 79.34 12
11/9/2022 10:45:00 AM 10.82 51.476 0.264 7.95 28.88 11.88
11/9/2022 11:00:00 AM 10.86 51.548 0.264 7.97 32.53 11.8
11/9/2022 11:15:00 AM 10.9 51.62 0.264 7.98 34.76 11.87
11/9/2022 11:30:00 AM 10.95 51.71 0.264 8 30.81 11.92
11/9/2022 11:45:00 AM 11.01 51.818 0.264 8.01 28.01 11.98
11/9/2022 12:00:00 PM 11.08 51.944 0.264 8.02 30.73 12.07
11/9/2022 12:15:00 PM 11.14 52.052 0.264 8.04 28.47 12.15
11/9/2022 12:30:00 PM 11.21 52.178 0.264 8.06 31.34 12.21
11/9/2022 12:45:00 PM 11.28 52.304 0.264 8.07 26.43 12.27
11/9/2022 1:00:00 PM 11.34 52.412 0.264 8.09 21.87 12.34
11/9/2022 1:15:00 PM 11.4 52.52 0.264 8.1 13.69 12.42
11/9/2022 1:30:00 PM 11.45 52.61 0.263 8.12 11.46 12.49
11/9/2022 1:45:00 PM 11.51 52.718 0.263 8.14 9.41 12.56
11/9/2022 2:00:00 PM 11.55 52.79 0.263 8.16 7.44 12.65
11/9/2022 2:15:00 PM 11.6 52.88 0.263 8.19 6.34 12.7
11/9/2022 2:30:00 PM 11.64 52.952 0.262 8.2 5.27 12.77
11/9/2022 2:45:00 PM 11.68 53.024 0.262 8.23 4.71 12.84
11/9/2022 3:00:00 PM 11.69 53.042 0.262 8.25 4.48 12.89
11/9/2022 3:15:00 PM 11.7 53.06 0.262 8.27 4.14 12.95
11/9/2022 3:30:00 PM 11.69 53.042 0.262 8.29 3.81 12.99
11/9/2022 3:45:00 PM 11.72 53.096 0.261 8.31 3.42 13.04
11/9/2022 4:00:00 PM 11.75 53.15 0.262 8.33 2.32 13.06
11/9/2022 4:15:00 PM 11.73 53.114 0.261 8.4 2.61 13.11
11/9/2022 4:30:00 PM 11.73 53.114 0.261 8.43 1.79 13.18
11/9/2022 4:45:00 PM 11.71 53.078 0.261 8.45 1.66 13.2
11/9/2022 5:00:00 PM 11.68 53.024 0.261 8.46 1.66 13.18
11/9/2022 5:15:00 PM 11.67 53.006 0.261 8.45 1.89 13.16
11/9/2022 5:30:00 PM 11.66 52.988 0.261 8.46 1.73 13.15
11/9/2022 5:45:00 PM 11.66 52.988 0.261 8.47 1.68 13.16
11/9/2022 6:00:00 PM 11.65 52.97 0.26 8.48 1.72 13.16
11/9/2022 6:15:00 PM 12.17 53.906 0.27 8.22 48.86 12.55
11/9/2022 6:30:00 PM 11.8 53.24 0.268 8.15 28.23 12.6
11/9/2022 6:45:00 PM 11.63 52.934 0.26 8.45 1.74 13.22
11/9/2022 7:00:00 PM 11.61 52.898 0.26 8.55 1.85 13.25
11/9/2022 7:15:00 PM 11.6 52.88 0.26 8.59 1.74 13.3
11/9/2022 7:30:00 PM 11.6 52.88 0.26 8.62 1.88 13.32
11/9/2022 7:45:00 PM 11.59 52.862 0.26 8.65 1.86 13.32
11/9/2022 8:00:00 PM 11.58 52.844 0.26 8.66 1.76 13.33
11/9/2022 8:15:00 PM 11.58 52.844 0.26 8.69 1.63 13.32
11/9/2022 8:30:00 PM 11.57 52.826 0.26 8.71 1.66 13.33
11/9/2022 8:45:00 PM 11.55 52.79 0.26 8.73 3.17 13.33
11/9/2022 9:00:00 PM 11.54 52.772 0.259 8.74 1.69 13.3
11/9/2022 9:15:00 PM 11.52 52.736 0.26 8.75 1.84 13.3
11/9/2022 9:30:00 PM 11.51 52.718 0.26 8.77 2.13 13.28
11/9/2022 9:45:00 PM 11.49 52.682 0.26 8.77 1.89 13.23
11/9/2022 10:00:00 PM 11.47 52.646 0.26 8.78 1.74 13.22
11/9/2022 10:15:00 PM 11.45 52.61 0.26 8.78 1.72 13.16
11/9/2022 10:30:00 PM 11.43 52.574 0.261 8.79 1.89 13.15
11/9/2022 10:45:00 PM 11.4 52.52 0.26 8.79 1.86 13.14
11/9/2022 11:00:00 PM 11.38 52.484 0.261 8.79 2.18 13.11
11/9/2022 11:15:00 PM 11.36 52.448 0.261 8.79 1.89 12.99
11/9/2022 11:30:00 PM 11.33 52.394 0.261 8.79 2 13.06
11/9/2022 11:45:00 PM 11.31 52.358 0.261 8.79 2.15 13.04
11/10/2022 12:00:00 AM 11.27 52.286 0.262 8.77 1.98 13.01
11/10/2022 12:15:00 AM 11.24 52.232 0.261 8.77 1.75 12.98
11/10/2022 12:30:00 AM 11.2 52.16 0.262 8.76 1.66 12.93
11/10/2022 12:45:00 AM 11.16 52.088 0.262 8.75 1.74 12.89
11/10/2022 1:00:00 AM 11.11 51.998 0.263 8.73 1.77 12.83
11/10/2022 1:15:00 AM 11.08 51.944 0.263 8.71 1.64 12.81
11/10/2022 1:30:00 AM 11.04 51.872 0.263 8.69 1.61 12.73
11/10/2022 1:45:00 AM 11.43 52.574 0.271 8.24 14.61 12.4
11/10/2022 2:00:00 AM 11.25 52.25 0.269 8.2 7.2 12.48
11/10/2022 2:15:00 AM 10.9 51.62 0.264 8.54 1.78 12.56
11/10/2022 2:30:00 AM 10.85 51.53 0.264 8.55 1.69 12.5
11/10/2022 2:45:00 AM 10.8 51.44 0.264 8.52 1.75 12.43
11/10/2022 3:00:00 AM 10.75 51.35 0.265 8.48 1.73 12.38
11/10/2022 3:15:00 AM 10.71 51.278 0.265 8.44 2.46 12.35
11/10/2022 3:30:00 AM 10.67 51.206 0.265 8.4 1.79 12.22
11/10/2022 3:45:00 AM 10.62 51.116 0.265 8.36 1.81 12.28
11/10/2022 4:00:00 AM 10.57 51.026 0.265 8.32 1.73 12.07
11/10/2022 4:15:00 AM 10.54 50.972 0.265 8.28 1.98 12.01
11/10/2022 4:30:00 AM 10.49 50.882 0.265 8.24 1.75 11.95
11/10/2022 4:45:00 AM 10.44 50.792 0.265 8.21 1.81 11.92
11/10/2022 5:00:00 AM 10.39 50.702 0.265 8.18 1.79 11.84
11/10/2022 5:15:00 AM 10.36 50.648 0.264 8.15 1.74 11.8
11/10/2022 5:30:00 AM 10.3 50.54 0.264 8.12 1.79 11.75
11/10/2022 5:45:00 AM 10.26 50.468 0.264 8.09 1.74 11.68
11/10/2022 6:00:00 AM 10.21 50.378 0.264 8.07 1.71 11.65
11/10/2022 6:15:00 AM 10.15 50.27 0.264 8.05 1.8 11.6
11/10/2022 6:30:00 AM 10.11 50.198 0.263 8.03 1.69 11.59
11/10/2022 6:45:00 AM 10.05 50.09 0.263 8.01 1.73 11.58
11/10/2022 7:00:00 AM 10 50 0.263 7.99 2.1 11.58
11/10/2022 7:15:00 AM 9.94 49.892 0.263 7.98 1.72 11.45
11/10/2022 7:30:00 AM 9.89 49.802 0.263 7.96 1.71 11.45
11/10/2022 7:45:00 AM 9.85 49.73 0.263 7.95 1.93 11.65
11/10/2022 8:00:00 AM 9.79 49.622 0.263